Darstellungsparameter: Aktuell verwendete Einstellungen:
Skalierung der Graphiken ... ?
xyx+y,   Skalierungsfaktor:      Skalierung: Modus: x, Faktor: 1
Darstellungszeitraum ... ?
Vom - - bis: - -   Zeitraum: 13.08.2004 - 12.11.2004
Min/Max/Avg-Anzeige ... ?
Zeige MMA aktuell
Zeige MMA Monat
Zeige MMA alles
Zeige --A aktuell
Zeige --A Monat
Zeige --A alles
Keine MMA-Anzeige
MMA:
Average (ber die Originaldaten)
MMA-Basis: 17.04.2019 - 19.05.2019
Quicknavigation für Darstellung... ?
Tage:      1T, 2T, 3T, 5T -1T -2T -3T -5T +1T +2T +3T +5T
Wochen: 1W, 2W, 3W -1W -2W -3W +1W +2W +3W
Monate: 1M, 3M, 6M -1M -3M -6M +1M +3M +6M
Jahre:    1J, 3J, 5J, 10J -1J -3J -5J -10J +1J +3J +5J +10J
Nutze für die Darstellung ... ?
Originaldaten oder Mittelwerte auf ...
Stundenbasis Tagesbasis Wochenbasis
Monatsbasis Jahresbasis      Datenbasis: Original-Daten
Darstellen als:
Statistik (Auto) Statistik J:M      Darstellung:
Zur Graphik,    zurück zur Übersicht aller Sensoren.
 
Tabellarische Datenbersicht: ?
 
Sensor: Nr:Datum:Temp:Abs-Feuchte:Windchill:Wind:
Aussen-T/F 1 13-08-2004 00:29:06 16.6 C 10.88 g/m*3 16.6 C 0 km/h
2 13-08-2004 00:59:06 16.6 C 10.88 g/m*3 16.6 C 0 km/h
3 13-08-2004 01:29:06 16.7 C 11.08 g/m*3 16.7 C 0 km/h
4 13-08-2004 01:59:06 16.5 C 10.81 g/m*3 16.5 C 0 km/h
5 13-08-2004 02:29:06 16.7 C 10.8 g/m*3 16.7 C 0 km/h
6 13-08-2004 02:59:07 16.7 C 11.23 g/m*3 16.7 C 0 km/h
7 13-08-2004 03:29:07 16.4 C 11.17 g/m*3 16.4 C 0 km/h
8 13-08-2004 03:59:07 16.8 C 11.29 g/m*3 16.8 C 0 km/h
9 13-08-2004 04:29:07 16.8 C 11.15 g/m*3 16.8 C 0 km/h
10 13-08-2004 04:59:07 15.9 C 11.1 g/m*3 15.9 C 0 km/h
11 13-08-2004 05:29:07 16.2 C 11.17 g/m*3 16.2 C 0 km/h
12 13-08-2004 05:59:08 16.3 C 10.96 g/m*3 16.3 C 0 km/h
13 13-08-2004 06:29:08 16.5 C 11.09 g/m*3 16.5 C 0 km/h
14 13-08-2004 06:59:08 16.5 C 11.23 g/m*3 16.5 C 0 km/h
15 13-08-2004 07:29:08 16.6 C 11.02 g/m*3 16.6 C 0 km/h
16 13-08-2004 07:59:08 16 C 11.58 g/m*3 16 C 0 km/h
17 13-08-2004 08:29:08 16.4 C 11.86 g/m*3 16.4 C 0 km/h
18 13-08-2004 08:59:08 16.8 C 11.58 g/m*3 16.8 C 0 km/h
19 13-08-2004 09:29:08 17.7 C 11.47 g/m*3 17.7 C 0 km/h
20 13-08-2004 09:59:08 17.2 C 11.42 g/m*3 17.2 C 0 km/h
21 13-08-2004 10:29:08 16.3 C 11.93 g/m*3 16.3 C 0 km/h
22 13-08-2004 10:59:08 16.6 C 12.57 g/m*3 16.6 C 0 km/h
23 13-08-2004 11:29:08 16.8 C 12.44 g/m*3 16.8 C 0 km/h
24 13-08-2004 11:59:08 18.8 C 12.08 g/m*3 18.8 C 0 km/h
25 13-08-2004 12:29:08 19.5 C 11.41 g/m*3 19.5 C 0 km/h
Sensor: Nr:Datum:Temp:Abs-Feuchte:Windchill:Wind:
Aussen-T/F 26 13-08-2004 12:59:08 19.5 C 11.92 g/m*3 19.5 C 0 km/h
27 13-08-2004 13:29:08 19.7 C 12.74 g/m*3 19.7 C 0 km/h
28 13-08-2004 13:59:08 21.8 C 10.17 g/m*3 21.8 C 0 km/h
29 13-08-2004 14:29:08 22.6 C 9.44 g/m*3 22.6 C 0 km/h
30 13-08-2004 14:59:08 22.5 C 10.39 g/m*3 22.5 C 0 km/h
31 13-08-2004 15:29:08 21.2 C 10.56 g/m*3 21.2 C 0 km/h
32 13-08-2004 15:59:09 21.6 C 10.05 g/m*3 21.6 C 0 km/h
33 13-08-2004 16:29:09 23 C 10.48 g/m*3 23 C 0 km/h
34 13-08-2004 16:59:09 20.8 C 10.68 g/m*3 20.8 C 0 km/h
35 13-08-2004 17:29:09 18.2 C 11.81 g/m*3 18.2 C 0 km/h
36 13-08-2004 17:59:09 18.5 C 13.13 g/m*3 18.5 C 0 km/h
37 13-08-2004 18:29:09 20.6 C 11.99 g/m*3 20.6 C 0 km/h
38 13-08-2004 18:59:09 18.2 C 12.43 g/m*3 18.2 C 0 km/h
39 13-08-2004 19:29:09 18.5 C 12.18 g/m*3 18.5 C 0 km/h
40 13-08-2004 19:59:09 17.9 C 11.91 g/m*3 17.9 C 0 km/h
41 13-08-2004 20:29:09 17.9 C 11.3 g/m*3 17.9 C 0 km/h
42 13-08-2004 20:59:09 17.4 C 10.97 g/m*3 17.4 C 0 km/h
43 13-08-2004 21:29:09 17.1 C 11.35 g/m*3 17.1 C 0 km/h
44 13-08-2004 21:59:09 17.3 C 11.2 g/m*3 17.3 C 0 km/h
45 13-08-2004 22:29:09 17.3 C 10.9 g/m*3 17.3 C 0 km/h
46 13-08-2004 22:59:09 17 C 11 g/m*3 17 C 0 km/h
47 13-08-2004 23:29:09 16.9 C 11.22 g/m*3 16.9 C 0 km/h
48 13-08-2004 23:59:09 16.8 C 11.15 g/m*3 16.8 C 0 km/h
49 14-08-2004 00:29:09 16.8 C 11.01 g/m*3 16.8 C 0 km/h
50 14-08-2004 00:59:10 17 C 11 g/m*3 17 C 0 km/h
Sensor: Nr:Datum:Temp:Abs-Feuchte:Windchill:Wind:
Aussen-T/F 51 14-08-2004 01:29:10 17 C 11 g/m*3 17 C 0 km/h
52 14-08-2004 01:59:10 17 C 11.14 g/m*3 17 C 0 km/h
53 14-08-2004 02:29:10 16.1 C 11.51 g/m*3 16.1 C 0 km/h
54 14-08-2004 02:59:10 15.9 C 11.78 g/m*3 15.9 C 0 km/h
55 14-08-2004 03:29:10 16 C 11.72 g/m*3 16 C 0 km/h
56 14-08-2004 03:59:11 16 C 11.58 g/m*3 16 C 0 km/h
57 14-08-2004 04:29:11 15.7 C 11.64 g/m*3 15.7 C 0 km/h
58 14-08-2004 04:59:11 15.8 C 11.85 g/m*3 15.8 C 0 km/h
59 14-08-2004 05:29:11 15.6 C 11.7 g/m*3 15.6 C 0 km/h
60 14-08-2004 05:59:11 15.4 C 11.96 g/m*3 15.4 C 0 km/h
61 14-08-2004 06:29:11 15.4 C 12.09 g/m*3 15.4 C 0 km/h
62 14-08-2004 06:59:11 15.4 C 12.09 g/m*3 15.4 C 0 km/h
63 14-08-2004 07:29:11 15.5 C 12.16 g/m*3 15.5 C 0 km/h
64 14-08-2004 07:59:11 15.9 C 12.32 g/m*3 15.9 C 0 km/h
65 14-08-2004 08:29:11 16.4 C 12.14 g/m*3 16.4 C 0 km/h
66 14-08-2004 08:59:11 16 C 12.13 g/m*3 16 C 0 km/h
67 14-08-2004 09:29:11 16.2 C 12.27 g/m*3 16.2 C 0 km/h
68 14-08-2004 09:59:12 16.6 C 12.43 g/m*3 16.6 C 0 km/h
69 14-08-2004 10:29:12 16.8 C 12.58 g/m*3 16.8 C 0 km/h
70 14-08-2004 10:59:12 16.9 C 12.8 g/m*3 16.9 C 0 km/h
71 14-08-2004 11:29:12 16.8 C 12.72 g/m*3 16.8 C 0 km/h
72 14-08-2004 11:59:12 17.5 C 12.82 g/m*3 17.5 C 0 km/h
73 14-08-2004 12:29:12 18.8 C 12.88 g/m*3 18.8 C 0 km/h
74 14-08-2004 12:59:12 18.1 C 12.67 g/m*3 18.1 C 0 km/h
75 14-08-2004 13:29:12 19.3 C 12.77 g/m*3 19.3 C 0 km/h
Sensor: Nr:Datum:Temp:Abs-Feuchte:Windchill:Wind:
Aussen-T/F 76 14-08-2004 13:59:12 18.9 C 12.31 g/m*3 18.9 C 0 km/h
77 14-08-2004 14:29:13 18.9 C 12.96 g/m*3 18.9 C 0 km/h
78 14-08-2004 14:59:13 18.1 C 12.67 g/m*3 18.1 C 0 km/h
79 14-08-2004 15:29:13 19.4 C 13.18 g/m*3 19.4 C 0 km/h
80 14-08-2004 15:59:13 20 C 12.1 g/m*3 20 C 0 km/h
81 14-08-2004 16:29:13 19.3 C 12.77 g/m*3 19.3 C 0 km/h
82 14-08-2004 16:59:13 19.4 C 11.85 g/m*3 19.4 C 0 km/h
83 14-08-2004 17:29:13 20.5 C 12.1 g/m*3 20.5 C 0 km/h
84 14-08-2004 17:59:13 20.5 C 11.92 g/m*3 20.5 C 0 km/h
85 14-08-2004 18:29:13 22.8 C 11.79 g/m*3 22.8 C 0 km/h
86 14-08-2004 18:59:13 23.4 C 11.78 g/m*3 23.4 C 0 km/h
87 14-08-2004 19:29:13 22.9 C 12.26 g/m*3 22.9 C 0 km/h
88 14-08-2004 19:59:13 22.9 C 12.88 g/m*3 22.9 C 0 km/h
89 14-08-2004 20:29:13 21.3 C 12.3 g/m*3 21.3 C 0 km/h
90 14-08-2004 20:59:13 19.8 C 12.47 g/m*3 19.8 C 0 km/h
91 14-08-2004 21:29:14 19.2 C 12.53 g/m*3 19.2 C 0 km/h
92 14-08-2004 21:59:14 19.1 C 12.46 g/m*3 19.1 C 0 km/h
93 14-08-2004 22:29:14 19.1 C 12.29 g/m*3 19.1 C 0 km/h
94 14-08-2004 22:59:14 18.9 C 12.31 g/m*3 18.9 C 0 km/h
95 14-08-2004 23:29:14 18.8 C 12.56 g/m*3 18.8 C 0 km/h
96 14-08-2004 23:59:14 18.9 C 12.47 g/m*3 18.9 C 0 km/h
97 15-08-2004 00:29:14 18.3 C 12.35 g/m*3 18.3 C 0 km/h
98 15-08-2004 00:59:14 18.4 C 12.43 g/m*3 18.4 C 0 km/h
99 15-08-2004 01:29:14 18 C 12.44 g/m*3 18 C 0 km/h
100 15-08-2004 01:59:14 17.7 C 12.67 g/m*3 17.7 C 0 km/h
Sensor: Nr:Datum:Temp:Abs-Feuchte:Windchill:Wind:
Aussen-T/F 101 15-08-2004 02:29:14 17.5 C 12.52 g/m*3 17.5 C 0 km/h
102 15-08-2004 02:59:14 17.4 C 12.6 g/m*3 17.4 C 0 km/h
103 15-08-2004 03:29:14 17.4 C 12.6 g/m*3 17.4 C 0 km/h
104 15-08-2004 03:59:14 17.3 C 12.67 g/m*3 17.3 C 0 km/h
105 15-08-2004 04:29:14 17.2 C 12.45 g/m*3 17.2 C 0 km/h
106 15-08-2004 04:59:14 17.3 C 12.67 g/m*3 17.3 C 0 km/h
107 15-08-2004 05:29:14 17.2 C 12.45 g/m*3 17.2 C 0 km/h
108 15-08-2004 05:59:14 17.1 C 12.52 g/m*3 17.1 C 0 km/h
109 15-08-2004 06:29:14 17.1 C 12.52 g/m*3 17.1 C 0 km/h
110 15-08-2004 06:59:14 17.3 C 12.52 g/m*3 17.3 C 0 km/h
111 15-08-2004 07:29:15 17.3 C 12.52 g/m*3 17.3 C 0 km/h
112 15-08-2004 07:59:15 17.5 C 12.67 g/m*3 17.5 C 0 km/h
113 15-08-2004 08:29:15 17.7 C 12.67 g/m*3 17.7 C 0 km/h
114 15-08-2004 08:59:15 18.5 C 12.66 g/m*3 18.5 C 0 km/h
115 15-08-2004 09:29:15 19.1 C 12.46 g/m*3 19.1 C 0 km/h
116 15-08-2004 09:59:15 19.3 C 12.11 g/m*3 19.3 C 0 km/h
117 15-08-2004 10:29:15 19.8 C 11.96 g/m*3 19.8 C 0 km/h
118 15-08-2004 10:59:15 20.6 C 11.63 g/m*3 20.6 C 0 km/h
119 15-08-2004 11:29:15 21.2 C 11.12 g/m*3 21.2 C 0 km/h
120 15-08-2004 11:59:15 21.4 C 10.87 g/m*3 21.4 C 0 km/h
121 15-08-2004 12:29:15 22.7 C 10.91 g/m*3 22.7 C 0 km/h
122 15-08-2004 12:59:15 23.2 C 10.81 g/m*3 23.2 C 0 km/h
123 15-08-2004 13:29:15 24.1 C 10.28 g/m*3 24.1 C 0 km/h
124 15-08-2004 13:59:15 24.8 C 10.02 g/m*3 24.8 C 0 km/h
125 15-08-2004 14:29:16 26.1 C 11.02 g/m*3 26.1 C 0 km/h
Sensor: Nr:Datum:Temp:Abs-Feuchte:Windchill:Wind:
Aussen-T/F 126 15-08-2004 14:59:16 26.4 C 9.96 g/m*3 26.4 C 0 km/h
127 15-08-2004 15:29:16 27.1 C 9.32 g/m*3 27.1 C 0 km/h
128 15-08-2004 15:59:16 27.7 C 8.83 g/m*3 27.7 C 0 km/h
129 15-08-2004 16:29:16 28.2 C 9.35 g/m*3 28.2 C 0 km/h
130 15-08-2004 16:59:16 27.3 C 8.37 g/m*3 27.3 C 0 km/h
131 15-08-2004 17:29:16 28 C 8.7 g/m*3 28 C 0 km/h
132 15-08-2004 17:59:16 28.7 C 8.76 g/m*3 28.7 C 0 km/h
133 15-08-2004 18:29:16 29.2 C 8.71 g/m*3 29.2 C 0 km/h
134 15-08-2004 18:59:16 29.8 C 9.9 g/m*3 29.8 C 0 km/h
135 15-08-2004 19:29:16 29.3 C 10.8 g/m*3 29.3 C 0 km/h
136 15-08-2004 19:59:16 26.2 C 10.09 g/m*3 26.2 C 0 km/h
137 15-08-2004 20:29:16 23.7 C 10.69 g/m*3 23.7 C 0 km/h
138 15-08-2004 20:59:16 22.3 C 11.06 g/m*3 22.3 C 0 km/h
139 15-08-2004 21:29:16 21.6 C 11.19 g/m*3 21.6 C 0 km/h
140 15-08-2004 21:59:16 21.1 C 10.87 g/m*3 21.1 C 0 km/h
141 15-08-2004 22:29:16 20.6 C 11.63 g/m*3 20.6 C 0 km/h
142 15-08-2004 22:59:16 19.7 C 11.55 g/m*3 19.7 C 0 km/h
143 15-08-2004 23:29:16 19.2 C 11.38 g/m*3 19.2 C 0 km/h
144 15-08-2004 23:59:16 18.7 C 11.69 g/m*3 18.7 C 0 km/h
145 16-08-2004 00:29:16 18.3 C 11.73 g/m*3 18.3 C 0 km/h
146 16-08-2004 00:59:16 17.9 C 11.76 g/m*3 17.9 C 0 km/h
147 16-08-2004 01:29:16 17.5 C 11.63 g/m*3 17.5 C 0 km/h
148 16-08-2004 01:59:17 17 C 11.58 g/m*3 17 C 0 km/h
149 16-08-2004 02:29:17 16.8 C 11.58 g/m*3 16.8 C 0 km/h
150 16-08-2004 02:59:17 16.5 C 11.51 g/m*3 16.5 C 0 km/h
Sensor: Nr:Datum:Temp:Abs-Feuchte:Windchill:Wind:
Aussen-T/F 151 16-08-2004 03:29:17 16 C 11.31 g/m*3 16 C 0 km/h
152 16-08-2004 03:59:17 16 C 11.44 g/m*3 16 C 0 km/h
153 16-08-2004 04:29:17 16.1 C 11.51 g/m*3 16.1 C 0 km/h
154 16-08-2004 04:59:17 15.8 C 11.44 g/m*3 15.8 C 0 km/h
155 16-08-2004 05:29:17 15.8 C 11.58 g/m*3 15.8 C 0 km/h
156 16-08-2004 05:59:17 15.6 C 11.44 g/m*3 15.6 C 0 km/h
157 16-08-2004 06:29:18 15.8 C 11.58 g/m*3 15.8 C 0 km/h
158 16-08-2004 06:59:18 15.8 C 11.58 g/m*3 15.8 C 0 km/h
159 16-08-2004 07:29:18 16 C 11.58 g/m*3 16 C 0 km/h
160 16-08-2004 07:59:18 15.9 C 11.78 g/m*3 15.9 C 0 km/h
161 16-08-2004 08:29:18 17.1 C 12.08 g/m*3 17.1 C 0 km/h
162 16-08-2004 08:59:18 17.9 C 12.06 g/m*3 17.9 C 0 km/h
163 16-08-2004 09:29:18 18.5 C 12.02 g/m*3 18.5 C 0 km/h
164 16-08-2004 09:59:18 19.8 C 12.47 g/m*3 19.8 C 0 km/h
165 16-08-2004 10:29:18 21 C 11.72 g/m*3 21 C 0 km/h
166 16-08-2004 10:59:18 21.5 C 11.69 g/m*3 21.5 C 0 km/h
167 16-08-2004 11:29:18 23.1 C 11.78 g/m*3 23.1 C 0 km/h
168 16-08-2004 11:59:18 24.3 C 13.06 g/m*3 24.3 C 0 km/h
169 16-08-2004 12:29:18 25 C 13.81 g/m*3 25 C 0 km/h
170 16-08-2004 12:59:18 24.5 C 10.97 g/m*3 24.5 C 0 km/h
171 16-08-2004 13:29:18 24.7 C 12 g/m*3 24.7 C 0 km/h
172 16-08-2004 13:59:18 23.8 C 11.19 g/m*3 23.8 C 0 km/h
173 16-08-2004 14:29:18 23.5 C 11 g/m*3 23.5 C 0 km/h
174 16-08-2004 14:59:18 24.1 C 11.38 g/m*3 24.1 C 0 km/h
175 16-08-2004 15:29:18 23.9 C 11.68 g/m*3 23.9 C 0 km/h
Sensor: Nr:Datum:Temp:Abs-Feuchte:Windchill:Wind:
Aussen-T/F 176 16-08-2004 15:59:18 24.7 C 11.54 g/m*3 24.7 C 0 km/h
177 16-08-2004 16:29:19 24.5 C 12.09 g/m*3 24.5 C 0 km/h
178 16-08-2004 16:59:19 24.7 C 12.45 g/m*3 24.7 C 0 km/h
179 16-08-2004 17:29:19 25.6 C 13.09 g/m*3 25.6 C 0 km/h
180 16-08-2004 17:59:19 25.5 C 12.31 g/m*3 25.5 C 0 km/h
181 16-08-2004 18:29:19 24.5 C 12.53 g/m*3 24.5 C 0 km/h
182 16-08-2004 18:59:19 23 C 12.54 g/m*3 23 C 0 km/h
183 16-08-2004 19:29:19 20.8 C 13.76 g/m*3 20.8 C 0 km/h
184 16-08-2004 19:59:19 20.7 C 15.12 g/m*3 20.7 C 0 km/h
185 16-08-2004 20:29:19 20.8 C 14.49 g/m*3 20.8 C 0 km/h
186 16-08-2004 20:59:19 20 C 14.34 g/m*3 20 C 0 km/h
187 16-08-2004 21:29:19 19.6 C 14.52 g/m*3 19.6 C 0 km/h
188 16-08-2004 21:59:19 19.4 C 14.35 g/m*3 19.4 C 0 km/h
189 16-08-2004 22:29:19 19.2 C 14.35 g/m*3 19.2 C 0 km/h
190 16-08-2004 22:59:19 19.1 C 14.26 g/m*3 19.1 C 0 km/h
191 16-08-2004 23:29:19 18.8 C 14.17 g/m*3 18.8 C 0 km/h
192 16-08-2004 23:59:19 18.7 C 14.25 g/m*3 18.7 C 0 km/h
193 17-08-2004 00:29:19 18.7 C 14.25 g/m*3 18.7 C 0 km/h
194 17-08-2004 00:59:19 18.8 C 14.33 g/m*3 18.8 C 0 km/h
195 17-08-2004 01:29:20 18.7 C 14.25 g/m*3 18.7 C 0 km/h
196 17-08-2004 01:59:20 18.9 C 14.42 g/m*3 18.9 C 0 km/h
197 17-08-2004 02:29:20 18.7 C 14.57 g/m*3 18.7 C 0 km/h
198 17-08-2004 02:59:20 18.3 C 14.38 g/m*3 18.3 C 0 km/h
199 17-08-2004 03:29:20 17.7 C 14.03 g/m*3 17.7 C 0 km/h
200 17-08-2004 03:59:20 17.1 C 13.54 g/m*3 17.1 C 0 km/h
Sensor: Nr:Datum:Temp:Abs-Feuchte:Windchill:Wind:
Aussen-T/F 201 17-08-2004 04:29:20 16.9 C 13.52 g/m*3 16.9 C 0 km/h
202 17-08-2004 04:59:20 16.7 C 13.36 g/m*3 16.7 C 0 km/h
203 17-08-2004 05:29:20 16.4 C 13.12 g/m*3 16.4 C 0 km/h
204 17-08-2004 05:59:20 16.2 C 12.82 g/m*3 16.2 C 0 km/h
205 17-08-2004 06:29:20 16.1 C 12.75 g/m*3 16.1 C 0 km/h
206 17-08-2004 06:59:20 16.1 C 12.75 g/m*3 16.1 C 0 km/h
207 17-08-2004 07:29:20 16.2 C 12.82 g/m*3 16.2 C 0 km/h
208 17-08-2004 07:59:20 16.7 C 13.22 g/m*3 16.7 C 0 km/h
209 17-08-2004 08:29:20 17.2 C 13.47 g/m*3 17.2 C 0 km/h
210 17-08-2004 08:59:21 17.9 C 13.74 g/m*3 17.9 C 0 km/h
211 17-08-2004 09:29:21 18.9 C 13.77 g/m*3 18.9 C 0 km/h
212 17-08-2004 09:59:21 19.3 C 13.1 g/m*3 19.3 C 0 km/h
213 17-08-2004 10:29:21 20 C 13.13 g/m*3 20 C 0 km/h
214 17-08-2004 10:59:21 21.6 C 13.47 g/m*3 21.6 C 0 km/h
215 17-08-2004 11:29:21 22.1 C 13.08 g/m*3 22.1 C 0 km/h
216 17-08-2004 11:59:22 24.5 C 13.65 g/m*3 24.5 C 0 km/h
217 17-08-2004 12:29:22 24.9 C 12.82 g/m*3 24.9 C 0 km/h
218 17-08-2004 12:59:22 25.3 C 11.94 g/m*3 25.3 C 0 km/h
219 17-08-2004 13:29:22 26.2 C 11.82 g/m*3 26.2 C 0 km/h
220 17-08-2004 13:59:22 26.2 C 11.08 g/m*3 26.2 C 0 km/h
221 17-08-2004 14:29:22 27.2 C 11.97 g/m*3 27.2 C 0 km/h
222 17-08-2004 14:59:23 26 C 12.17 g/m*3 26 C 0 km/h
223 17-08-2004 15:29:23 26.7 C 11.9 g/m*3 26.7 C 0 km/h
224 17-08-2004 15:59:23 25.5 C 14.2 g/m*3 25.5 C 0 km/h
225 17-08-2004 16:29:23 24.1 C 13.57 g/m*3 24.1 C 0 km/h
Sensor: Nr:Datum:Temp:Abs-Feuchte:Windchill:Wind:
Aussen-T/F 226 17-08-2004 16:59:23 23.8 C 13.34 g/m*3 23.8 C 0 km/h
227 17-08-2004 17:29:23 25.4 C 12.95 g/m*3 25.4 C 0 km/h
228 17-08-2004 17:59:23 25.7 C 13.65 g/m*3 25.7 C 0 km/h
229 17-08-2004 18:29:23 21.8 C 15.35 g/m*3 21.8 C 0 km/h
230 17-08-2004 18:59:23 21.5 C 15.84 g/m*3 21.5 C 0 km/h
231 17-08-2004 19:29:23 21.5 C 14.9 g/m*3 21.5 C 0 km/h
232 17-08-2004 19:59:23 21.5 C 14.33 g/m*3 21.5 C 0 km/h
233 17-08-2004 20:29:23 20.5 C 14.23 g/m*3 20.5 C 0 km/h
234 17-08-2004 20:59:23 19.9 C 14.43 g/m*3 19.9 C 0 km/h
235 17-08-2004 21:29:23 19.7 C 14.26 g/m*3 19.7 C 0 km/h
236 17-08-2004 21:59:23 19.6 C 14.01 g/m*3 19.6 C 0 km/h
237 17-08-2004 22:29:23 19.3 C 13.93 g/m*3 19.3 C 0 km/h
238 17-08-2004 22:59:23 18.8 C 13.85 g/m*3 18.8 C 0 km/h
239 17-08-2004 23:29:23 18.8 C 13.85 g/m*3 18.8 C 0 km/h
240 17-08-2004 23:59:23 18.7 C 13.45 g/m*3 18.7 C 0 km/h
241 18-08-2004 00:29:23 18.3 C 13.45 g/m*3 18.3 C 0 km/h
242 18-08-2004 00:59:24 18.3 C 13.6 g/m*3 18.3 C 0 km/h
243 18-08-2004 01:29:24 18 C 13.21 g/m*3 18 C 0 km/h
244 18-08-2004 01:59:24 18.4 C 13.53 g/m*3 18.4 C 0 km/h
245 18-08-2004 02:29:24 18.5 C 13.45 g/m*3 18.5 C 0 km/h
246 18-08-2004 02:59:24 18.4 C 13.37 g/m*3 18.4 C 0 km/h
247 18-08-2004 03:29:24 18.4 C 13.37 g/m*3 18.4 C 0 km/h
248 18-08-2004 03:59:24 18.5 C 13.29 g/m*3 18.5 C 0 km/h
249 18-08-2004 04:29:24 18.5 C 13.29 g/m*3 18.5 C 0 km/h
250 18-08-2004 04:59:24 17.8 C 13.51 g/m*3 17.8 C 0 km/h
Sensor: Nr:Datum:Temp:Abs-Feuchte:Windchill:Wind:
Aussen-T/F 251 18-08-2004 05:29:25 17.6 C 13.65 g/m*3 17.6 C 0 km/h
252 18-08-2004 05:59:25 17.7 C 13.43 g/m*3 17.7 C 0 km/h
253 18-08-2004 06:29:25 17.6 C 13.2 g/m*3 17.6 C 0 km/h
254 18-08-2004 06:59:25 17.6 C 13.35 g/m*3 17.6 C 0 km/h
255 18-08-2004 07:29:25 18.4 C 13.68 g/m*3 18.4 C 0 km/h
256 18-08-2004 07:59:25 19 C 13.2 g/m*3 19 C 0 km/h
257 18-08-2004 08:29:26 19.6 C 12.83 g/m*3 19.6 C 0 km/h
258 18-08-2004 08:59:26 19.8 C 12.64 g/m*3 19.8 C 0 km/h
259 18-08-2004 09:29:26 20.5 C 12.46 g/m*3 20.5 C 0 km/h
260 18-08-2004 09:59:26 21.1 C 12.53 g/m*3 21.1 C 0 km/h
261 18-08-2004 10:29:26 21.8 C 12.66 g/m*3 21.8 C 0 km/h
262 18-08-2004 10:59:26 22.5 C 12.58 g/m*3 22.5 C 0 km/h
263 18-08-2004 11:29:26 23.4 C 11.78 g/m*3 23.4 C 0 km/h
264 18-08-2004 11:59:26 24.4 C 11.13 g/m*3 24.4 C 0 km/h
265 18-08-2004 12:29:26 25.2 C 10.24 g/m*3 25.2 C 0 km/h
266 18-08-2004 12:59:26 26.2 C 9.35 g/m*3 26.2 C 0 km/h
267 18-08-2004 13:29:26 27.6 C 10.38 g/m*3 27.6 C 0 km/h
268 18-08-2004 13:59:26 28.4 C 10.56 g/m*3 28.4 C 0 km/h
269 18-08-2004 14:29:26 28.7 C 10.46 g/m*3 28.7 C 0 km/h
270 18-08-2004 14:59:26 28.7 C 11.59 g/m*3 28.7 C 0 km/h
271 18-08-2004 15:29:26 28.4 C 11.4 g/m*3 28.4 C 0 km/h
272 18-08-2004 15:59:27 29.6 C 10.68 g/m*3 29.6 C 0 km/h
273 18-08-2004 16:29:27 30.1 C 10.06 g/m*3 30.1 C 0 km/h
274 18-08-2004 16:59:27 30.7 C 10.08 g/m*3 30.7 C 0 km/h
275 18-08-2004 17:29:27 30.7 C 9.13 g/m*3 30.7 C 0 km/h
Sensor: Nr:Datum:Temp:Abs-Feuchte:Windchill:Wind:
Aussen-T/F 276 18-08-2004 17:59:27 30.6 C 8.77 g/m*3 30.6 C 0 km/h
277 18-08-2004 18:29:27 30.1 C 9.76 g/m*3 30.1 C 0 km/h
278 18-08-2004 18:59:27 28.5 C 12.3 g/m*3 28.5 C 0 km/h
279 18-08-2004 19:29:27 26.9 C 11.77 g/m*3 26.9 C 0 km/h
280 18-08-2004 19:59:27 25.5 C 11.6 g/m*3 25.5 C 0 km/h
281 18-08-2004 20:29:27 24.9 C 12.36 g/m*3 24.9 C 0 km/h
282 18-08-2004 20:59:27 24.9 C 12.82 g/m*3 24.9 C 0 km/h
283 18-08-2004 21:29:27 23.8 C 13.98 g/m*3 23.8 C 0 km/h
284 18-08-2004 21:59:27 18.9 C 14.26 g/m*3 18.9 C 0 km/h
285 18-08-2004 22:29:27 19 C 14.67 g/m*3 19 C 0 km/h
286 18-08-2004 22:59:28 18.9 C 14.9 g/m*3 18.9 C 0 km/h
287 18-08-2004 23:29:28 19 C 14.99 g/m*3 19 C 0 km/h
288 18-08-2004 23:59:28 18.9 C 14.74 g/m*3 18.9 C 0 km/h
289 19-08-2004 00:29:28 18.9 C 14.42 g/m*3 18.9 C 0 km/h
290 19-08-2004 00:59:28 18.7 C 14.41 g/m*3 18.7 C 0 km/h
291 19-08-2004 01:29:28 18.6 C 14.32 g/m*3 18.6 C 0 km/h
292 19-08-2004 01:59:29 18.3 C 14.07 g/m*3 18.3 C 0 km/h
293 19-08-2004 02:29:29 18.2 C 13.99 g/m*3 18.2 C 0 km/h
294 19-08-2004 02:59:29 17.9 C 14.05 g/m*3 17.9 C 0 km/h
295 19-08-2004 03:29:29 17.8 C 13.96 g/m*3 17.8 C 0 km/h
296 19-08-2004 03:59:29 17.6 C 13.8 g/m*3 17.6 C 0 km/h
297 19-08-2004 04:29:29 17.4 C 13.63 g/m*3 17.4 C 0 km/h
298 19-08-2004 04:59:29 17 C 13.31 g/m*3 17 C 0 km/h
299 19-08-2004 05:29:29 16.9 C 13.38 g/m*3 16.9 C 0 km/h
300 19-08-2004 05:59:29 17.3 C 13.55 g/m*3 17.3 C 0 km/h
Sensor: Nr:Datum:Temp:Abs-Feuchte:Windchill:Wind:
Aussen-T/F 301 19-08-2004 06:29:29 17.2 C 13.18 g/m*3 17.2 C 0 km/h
302 19-08-2004 06:59:29 17.4 C 13.04 g/m*3 17.4 C 0 km/h
303 19-08-2004 07:29:29 17.8 C 12.29 g/m*3 17.8 C 0 km/h
304 19-08-2004 07:59:29 17.7 C 12.07 g/m*3 17.7 C 0 km/h
305 19-08-2004 08:29:29 17.7 C 11.92 g/m*3 17.7 C 0 km/h
306 19-08-2004 08:59:29 17.9 C 12.21 g/m*3 17.9 C 0 km/h
307 19-08-2004 09:29:30 18.8 C 11.92 g/m*3 18.8 C 0 km/h
308 19-08-2004 09:59:30 19.9 C 11.17 g/m*3 19.9 C 0 km/h
309 19-08-2004 10:29:30 20.8 C 10.68 g/m*3 20.8 C 0 km/h
310 19-08-2004 10:59:30 21.7 C 10.68 g/m*3 21.7 C 0 km/h
311 19-08-2004 11:29:30 22.8 C 10.57 g/m*3 22.8 C 0 km/h
312 19-08-2004 11:59:30 23.8 C 10.33 g/m*3 23.8 C 0 km/h
313 19-08-2004 12:29:31 23.8 C 10.33 g/m*3 23.8 C 0 km/h
314 19-08-2004 12:59:31 24.5 C 9.62 g/m*3 24.5 C 0 km/h
315 19-08-2004 13:29:31 24.5 C 9.62 g/m*3 24.5 C 0 km/h
316 19-08-2004 13:59:31 25 C 8.52 g/m*3 25 C 0 km/h
317 19-08-2004 14:29:31 24.4 C 8.68 g/m*3 24.4 C 0 km/h
318 19-08-2004 14:59:31 24.3 C 9.07 g/m*3 24.3 C 0 km/h
319 19-08-2004 15:29:32 24.4 C 8.68 g/m*3 24.4 C 0 km/h
320 19-08-2004 15:59:32 25 C 8.98 g/m*3 25 C 0 km/h
321 19-08-2004 16:29:32 26.3 C 8.91 g/m*3 26.3 C 0 km/h
322 19-08-2004 16:59:32 27.3 C 8.37 g/m*3 27.3 C 0 km/h
323 19-08-2004 17:29:32 26.3 C 7.92 g/m*3 26.3 C 0 km/h
324 19-08-2004 17:59:32 26.7 C 8.86 g/m*3 26.7 C 0 km/h
325 19-08-2004 18:29:32 24.9 C 8.01 g/m*3 24.9 C 0 km/h
Sensor: Nr:Datum:Temp:Abs-Feuchte:Windchill:Wind:
Aussen-T/F 326 19-08-2004 18:59:32 25 C 8.52 g/m*3 25 C 0 km/h
327 19-08-2004 19:29:32 25.4 C 8.71 g/m*3 25.4 C 0 km/h
328 19-08-2004 19:59:32 25.6 C 9.52 g/m*3 25.6 C 0 km/h
329 19-08-2004 20:29:32 23.3 C 9.83 g/m*3 23.3 C 0 km/h
330 19-08-2004 20:59:32 21.6 C 9.86 g/m*3 21.6 C 0 km/h
331 19-08-2004 21:29:32 20.4 C 10.44 g/m*3 20.4 C 0 km/h
332 19-08-2004 21:59:32 19.5 C 10.57 g/m*3 19.5 C 0 km/h
333 19-08-2004 22:29:32 19 C 10.27 g/m*3 19 C 0 km/h
334 19-08-2004 22:59:33 18.5 C 10.76 g/m*3 18.5 C 0 km/h
335 19-08-2004 23:29:33 18.5 C 10.76 g/m*3 18.5 C 0 km/h
336 19-08-2004 23:59:33 18.3 C 11.1 g/m*3 18.3 C 0 km/h
337 20-08-2004 00:29:33 18 C 11.52 g/m*3 18 C 0 km/h
338 20-08-2004 00:59:33 18.4 C 11.8 g/m*3 18.4 C 0 km/h
339 20-08-2004 01:29:33 18.7 C 11.85 g/m*3 18.7 C 0 km/h
340 20-08-2004 01:59:33 18.8 C 11.76 g/m*3 18.8 C 0 km/h
341 20-08-2004 02:29:33 18.8 C 11.92 g/m*3 18.8 C 0 km/h
342 20-08-2004 02:59:33 18 C 11.52 g/m*3 18 C 0 km/h
343 20-08-2004 03:29:33 17.9 C 12.06 g/m*3 17.9 C 0 km/h
344 20-08-2004 03:59:33 17.4 C 11.71 g/m*3 17.4 C 0 km/h
345 20-08-2004 04:29:33 16.9 C 11.79 g/m*3 16.9 C 0 km/h
346 20-08-2004 04:59:33 16.7 C 11.8 g/m*3 16.7 C 0 km/h
347 20-08-2004 05:29:33 16.6 C 11.72 g/m*3 16.6 C 0 km/h
348 20-08-2004 05:59:33 15.9 C 11.38 g/m*3 15.9 C 0 km/h
349 20-08-2004 06:29:34 15.8 C 11.44 g/m*3 15.8 C 0 km/h
350 20-08-2004 06:59:34 16 C 11.44 g/m*3 16 C 0 km/h
Sensor: Nr:Datum:Temp:Abs-Feuchte:Windchill:Wind:
Aussen-T/F 351 20-08-2004 07:29:34 16.2 C 11.45 g/m*3 16.2 C 0 km/h
352 20-08-2004 07:59:34 16.9 C 11.65 g/m*3 16.9 C 0 km/h
353 20-08-2004 08:29:34 17.3 C 11.64 g/m*3 17.3 C 0 km/h
354 20-08-2004 08:59:34 18.6 C 10.03 g/m*3 18.6 C 0 km/h
355 20-08-2004 09:29:35 18.9 C 9.88 g/m*3 18.9 C 0 km/h
356 20-08-2004 09:59:35 18.9 C 9.72 g/m*3 18.9 C 0 km/h
357 20-08-2004 10:29:35 19.5 C 9.9 g/m*3 19.5 C 0 km/h
358 20-08-2004 10:59:35 20.2 C 9.62 g/m*3 20.2 C 0 km/h
359 20-08-2004 11:29:35 19.9 C 9.45 g/m*3 19.9 C 0 km/h
360 20-08-2004 11:59:35 20.4 C 9.55 g/m*3 20.4 C 0 km/h
361 20-08-2004 12:29:36 20.8 C 9.05 g/m*3 20.8 C 0 km/h
362 20-08-2004 12:59:36 21.5 C 8.67 g/m*3 21.5 C 0 km/h
363 20-08-2004 13:29:36 22.5 C 7.99 g/m*3 22.5 C 0 km/h
364 20-08-2004 13:59:36 22.4 C 7.94 g/m*3 22.4 C 0 km/h
365 20-08-2004 14:29:36 23.5 C 7.82 g/m*3 23.5 C 0 km/h
366 20-08-2004 14:59:36 23.9 C 7.57 g/m*3 23.9 C 0 km/h
367 20-08-2004 15:29:36 24.8 C 7.51 g/m*3 24.8 C 0 km/h
368 20-08-2004 15:59:36 24.1 C 7.22 g/m*3 24.1 C 0 km/h
369 20-08-2004 16:29:36 24.1 C 8.1 g/m*3 24.1 C 0 km/h
370 20-08-2004 16:59:36 24.1 C 7.66 g/m*3 24.1 C 0 km/h
371 20-08-2004 17:29:36 23.5 C 8.46 g/m*3 23.5 C 0 km/h
372 20-08-2004 17:59:36 23.4 C 8.2 g/m*3 23.4 C 0 km/h
373 20-08-2004 18:29:36 22 C 7.76 g/m*3 22 C 0 km/h
374 20-08-2004 18:59:36 21.6 C 8.53 g/m*3 21.6 C 0 km/h
375 20-08-2004 19:29:37 20.4 C 9.02 g/m*3 20.4 C 0 km/h
Sensor: Nr:Datum:Temp:Abs-Feuchte:Windchill:Wind:
Aussen-T/F 376 20-08-2004 19:59:37 15.4 C 6.7 g/m*3 15.4 C 0 km/h
377 20-08-2004 20:29:37 15 C 7.18 g/m*3 15 C 0 km/h
378 20-08-2004 20:59:37 15 C 11.54 g/m*3 15 C 0 km/h
379 20-08-2004 21:29:37 14.7 C 11.46 g/m*3 14.7 C 0 km/h
380 20-08-2004 21:59:37 14.5 C 11.07 g/m*3 14.5 C 0 km/h
381 20-08-2004 22:29:38 14.7 C 10.95 g/m*3 14.7 C 0 km/h
382 20-08-2004 22:59:38 14.8 C 11.02 g/m*3 14.8 C 0 km/h
383 20-08-2004 23:29:38 14.8 C 11.15 g/m*3 14.8 C 0 km/h
384 20-08-2004 23:59:38 14.8 C 11.15 g/m*3 14.8 C 0 km/h
385 21-08-2004 00:29:38 14.7 C 11.08 g/m*3 14.7 C 0 km/h
386 21-08-2004 00:59:38 14.2 C 10.87 g/m*3 14.2 C 0 km/h
387 21-08-2004 01:29:38 14.1 C 10.8 g/m*3 14.1 C 0 km/h
388 21-08-2004 01:59:38 14.1 C 10.44 g/m*3 14.1 C 0 km/h
389 21-08-2004 02:29:38 13.8 C 10.48 g/m*3 13.8 C 0 km/h
390 21-08-2004 02:59:38 13.8 C 10.6 g/m*3 13.8 C 0 km/h
391 21-08-2004 03:29:38 14.2 C 10.75 g/m*3 14.2 C 0 km/h
392 21-08-2004 03:59:38 14.4 C 10.75 g/m*3 14.4 C 0 km/h
393 21-08-2004 04:29:39 14.5 C 10.94 g/m*3 14.5 C 0 km/h
394 21-08-2004 04:59:39 14.6 C 10.76 g/m*3 14.6 C 0 km/h
395 21-08-2004 05:29:39 14.7 C 10.45 g/m*3 14.7 C 0 km/h
396 21-08-2004 05:59:39 14.8 C 10.39 g/m*3 14.8 C 0 km/h
397 21-08-2004 06:29:39 14.7 C 10.45 g/m*3 14.7 C 0 km/h
398 21-08-2004 06:59:39 14.7 C 10.45 g/m*3 14.7 C 0 km/h
399 21-08-2004 07:29:39 15 C 10.51 g/m*3 15 C 0 km/h
400 21-08-2004 07:59:39 14.9 C 10.45 g/m*3 14.9 C 0 km/h
Sensor: Nr:Datum:Temp:Abs-Feuchte:Windchill:Wind:
Aussen-T/F 401 21-08-2004 08:29:39 15.3 C 10.58 g/m*3 15.3 C 0 km/h
402 21-08-2004 08:59:40 15.9 C 10.83 g/m*3 15.9 C 0 km/h
403 21-08-2004 09:29:40 16.5 C 10.81 g/m*3 16.5 C 0 km/h
404 21-08-2004 09:59:40 17.3 C 10.9 g/m*3 17.3 C 0 km/h
405 21-08-2004 10:29:40 17 C 10.85 g/m*3 17 C 0 km/h
406 21-08-2004 10:59:40 18.2 C 11.04 g/m*3 18.2 C 0 km/h
407 21-08-2004 11:29:40 17 C 11.58 g/m*3 17 C 0 km/h
408 21-08-2004 11:59:41 17.4 C 11.41 g/m*3 17.4 C 0 km/h
409 21-08-2004 12:29:41 17.1 C 11.5 g/m*3 17.1 C 0 km/h
410 21-08-2004 12:59:41 18.4 C 11.64 g/m*3 18.4 C 0 km/h
411 21-08-2004 13:29:41 19.1 C 10.98 g/m*3 19.1 C 0 km/h
412 21-08-2004 13:59:41 19.5 C 10.41 g/m*3 19.5 C 0 km/h
413 21-08-2004 14:29:41 18.9 C 10.21 g/m*3 18.9 C 0 km/h
414 21-08-2004 14:59:42 18.3 C 10.01 g/m*3 18.3 C 0 km/h
415 21-08-2004 15:29:42 17.5 C 9.99 g/m*3 17.5 C 0 km/h
416 21-08-2004 15:59:42 17.6 C 10.35 g/m*3 17.6 C 0 km/h
417 21-08-2004 16:29:42 15 C 10.9 g/m*3 15 C 0 km/h
418 21-08-2004 16:59:42 15.1 C 11.61 g/m*3 15.1 C 0 km/h
419 21-08-2004 17:29:42 14.7 C 11.21 g/m*3 14.7 C 0 km/h
420 21-08-2004 17:59:43 15.3 C 10.84 g/m*3 15.3 C 0 km/h
421 21-08-2004 18:29:43 14.9 C 10.07 g/m*3 14.9 C 0 km/h
422 21-08-2004 18:59:43 15.7 C 10.17 g/m*3 15.7 C 0 km/h
423 21-08-2004 19:29:43 15.2 C 9.86 g/m*3 15.2 C 0 km/h
424 21-08-2004 19:59:43 15.4 C 9.59 g/m*3 15.4 C 0 km/h
425 21-08-2004 20:29:43 14.8 C 9.88 g/m*3 14.8 C 0 km/h
Sensor: Nr:Datum:Temp:Abs-Feuchte:Windchill:Wind:
Aussen-T/F 426 21-08-2004 20:59:43 14.7 C 9.69 g/m*3 14.7 C 0 km/h
427 21-08-2004 21:29:43 14.4 C 9.64 g/m*3 14.4 C 0 km/h
428 21-08-2004 21:59:43 14.4 C 9.52 g/m*3 14.4 C 0 km/h
429 21-08-2004 22:29:43 14.2 C 9.28 g/m*3 14.2 C 0 km/h
430 21-08-2004 22:59:43 13.9 C 9.35 g/m*3 13.9 C 0 km/h
431 21-08-2004 23:29:43 12.8 C 9.41 g/m*3 12.8 C 0 km/h
432 21-08-2004 23:59:43 12.6 C 9.51 g/m*3 12.6 C 0 km/h
433 22-08-2004 00:29:43 12.4 C 9.4 g/m*3 12.4 C 0 km/h
434 22-08-2004 00:59:44 12.1 C 9.12 g/m*3 12.1 C 0 km/h
435 22-08-2004 01:29:44 11.7 C 9.1 g/m*3 11.7 C 0 km/h
436 22-08-2004 01:59:44 11.2 C 8.92 g/m*3 11.2 C 0 km/h
437 22-08-2004 02:29:44 11.1 C 9.07 g/m*3 11.1 C 0 km/h
438 22-08-2004 02:59:44 11.1 C 9.17 g/m*3 11.1 C 0 km/h
439 22-08-2004 03:29:44 11.3 C 9.08 g/m*3 11.3 C 0 km/h
440 22-08-2004 03:59:45 11 C 9.01 g/m*3 11 C 0 km/h
441 22-08-2004 04:29:45 10.4 C 8.77 g/m*3 10.4 C 0 km/h
442 22-08-2004 04:59:45 10.3 C 8.81 g/m*3 10.3 C 0 km/h
443 22-08-2004 05:29:45 10.3 C 8.81 g/m*3 10.3 C 0 km/h
444 22-08-2004 05:59:45 10 C 8.64 g/m*3 10 C 0 km/h
445 22-08-2004 06:29:45 9.7 C 8.67 g/m*3 9.7 C 0 km/h
446 22-08-2004 06:59:45 10.1 C 8.89 g/m*3 10.1 C 0 km/h
447 22-08-2004 07:29:45 10.4 C 9.06 g/m*3 10.4 C 0 km/h
448 22-08-2004 07:59:45 10.6 C 9.08 g/m*3 10.6 C 0 km/h
449 22-08-2004 08:29:45 11.4 C 9.34 g/m*3 11.4 C 0 km/h
450 22-08-2004 08:59:45 11.7 C 8.99 g/m*3 11.7 C 0 km/h
Sensor: Nr:Datum:Temp:Abs-Feuchte:Windchill:Wind:
Aussen-T/F 451 22-08-2004 09:29:45 12.4 C 9.18 g/m*3 12.4 C 0 km/h
452 22-08-2004 09:59:45 12.6 C 9.18 g/m*3 12.6 C 0 km/h
453 22-08-2004 10:29:45 13.4 C 9.42 g/m*3 13.4 C 0 km/h
454 22-08-2004 10:59:45 15.1 C 9.8 g/m*3 15.1 C 0 km/h
455 22-08-2004 11:29:45 16.6 C 9.89 g/m*3 16.6 C 0 km/h
456 22-08-2004 11:59:45 18.2 C 8.24 g/m*3 18.2 C 0 km/h
457 22-08-2004 12:29:45 19.2 C 8.74 g/m*3 19.2 C 0 km/h
458 22-08-2004 12:59:45 19.3 C 7.8 g/m*3 19.3 C 0 km/h
459 22-08-2004 13:29:45 21 C 7.69 g/m*3 21 C 0 km/h
460 22-08-2004 13:59:46 21.9 C 6.95 g/m*3 21.9 C 0 km/h
461 22-08-2004 14:29:46 21.8 C 6.52 g/m*3 21.8 C 0 km/h
462 22-08-2004 14:59:46 22.7 C 6.47 g/m*3 22.7 C 0 km/h
463 22-08-2004 15:29:46 24.1 C 6.56 g/m*3 24.1 C 0 km/h
464 22-08-2004 15:59:46 26 C 6.57 g/m*3 26 C 0 km/h
465 22-08-2004 16:29:46 27.3 C 6.02 g/m*3 27.3 C 0 km/h
466 22-08-2004 16:59:46 25.9 C 7.02 g/m*3 25.9 C 0 km/h
467 22-08-2004 17:29:46 26.8 C 6.87 g/m*3 26.8 C 0 km/h
468 22-08-2004 17:59:46 27.1 C 6.73 g/m*3 27.1 C 0 km/h
469 22-08-2004 18:29:46 26.6 C 7.3 g/m*3 26.6 C 0 km/h
470 22-08-2004 18:59:46 26.6 C 7.55 g/m*3 26.6 C 0 km/h
471 22-08-2004 19:29:46 24.9 C 8.24 g/m*3 24.9 C 0 km/h
472 22-08-2004 19:59:46 23 C 8.22 g/m*3 23 C 0 km/h
473 22-08-2004 20:29:46 18.5 C 8.07 g/m*3 18.5 C 0 km/h
474 22-08-2004 20:59:46 16.3 C 7.77 g/m*3 16.3 C 0 km/h
475 22-08-2004 21:29:46 15.1 C 6.97 g/m*3 15.1 C 0 km/h
Sensor: Nr:Datum:Temp:Abs-Feuchte:Windchill:Wind:
Aussen-T/F 476 22-08-2004 21:59:46 14.5 C 7.46 g/m*3 14.5 C 0 km/h
477 22-08-2004 22:29:46 14.4 C 7.42 g/m*3 14.4 C 0 km/h
478 22-08-2004 22:59:46 13.7 C 7.58 g/m*3 13.7 C 0 km/h
479 22-08-2004 23:29:46 13.1 C 7.65 g/m*3 13.1 C 0 km/h
480 22-08-2004 23:59:46 12.8 C 7.84 g/m*3 12.8 C 0 km/h
481 23-08-2004 00:29:47 12.5 C 8.14 g/m*3 12.5 C 0 km/h
482 23-08-2004 00:59:47 11.9 C 8.15 g/m*3 11.9 C 0 km/h
483 23-08-2004 01:29:47 11.5 C 8.16 g/m*3 11.5 C 0 km/h
484 23-08-2004 01:59:47 11.2 C 8.01 g/m*3 11.2 C 0 km/h
485 23-08-2004 02:29:47 10.7 C 7.96 g/m*3 10.7 C 0 km/h
486 23-08-2004 02:59:47 11 C 8.11 g/m*3 11 C 0 km/h
487 23-08-2004 03:29:47 11 C 8.21 g/m*3 11 C 0 km/h
488 23-08-2004 03:59:47 10.8 C 8.2 g/m*3 10.8 C 0 km/h
489 23-08-2004 04:29:47 10.6 C 8.1 g/m*3 10.6 C 0 km/h
490 23-08-2004 04:59:47 9.9 C 8.03 g/m*3 9.9 C 0 km/h
491 23-08-2004 05:29:47 9.7 C 8.02 g/m*3 9.7 C 0 km/h
492 23-08-2004 05:59:47 9.9 C 8.22 g/m*3 9.9 C 0 km/h
493 23-08-2004 06:29:47 10.4 C 8.29 g/m*3 10.4 C 0 km/h
494 23-08-2004 06:59:47 11 C 8.51 g/m*3 11 C 0 km/h
495 23-08-2004 07:29:47 11.3 C 8.47 g/m*3 11.3 C 0 km/h
496 23-08-2004 07:59:47 11.4 C 8.52 g/m*3 11.4 C 0 km/h
497 23-08-2004 08:29:47 11.4 C 8.72 g/m*3 11.4 C 0 km/h
498 23-08-2004 08:59:47 11.8 C 9.26 g/m*3 11.8 C 0 km/h
499 23-08-2004 09:29:47 12.7 C 9.68 g/m*3 12.7 C 0 km/h
500 23-08-2004 09:59:47 14.3 C 10.07 g/m*3 14.3 C 0 km/h
Sensor: Nr:Datum:Temp:Abs-Feuchte:Windchill:Wind:
Aussen-T/F 501 23-08-2004 10:29:47 15.5 C 9.52 g/m*3 15.5 C 0 km/h
502 23-08-2004 10:59:47 16.9 C 9.06 g/m*3 16.9 C 0 km/h
503 23-08-2004 11:29:48 18.7 C 9.45 g/m*3 18.7 C 0 km/h
504 23-08-2004 11:59:48 19.5 C 9.4 g/m*3 19.5 C 0 km/h
505 23-08-2004 12:29:48 20.9 C 9.47 g/m*3 20.9 C 0 km/h
506 23-08-2004 12:59:48 21.9 C 9.84 g/m*3 21.9 C 0 km/h
507 23-08-2004 13:29:48 23.8 C 9.68 g/m*3 23.8 C 0 km/h
508 23-08-2004 13:59:48 24.5 C 9.4 g/m*3 24.5 C 0 km/h
509 23-08-2004 14:29:48 23.7 C 9.84 g/m*3 23.7 C 0 km/h
510 23-08-2004 14:59:48 24.8 C 9.33 g/m*3 24.8 C 0 km/h
511 23-08-2004 15:29:48 24.1 C 10.28 g/m*3 24.1 C 0 km/h
512 23-08-2004 15:59:48 22.1 C 11.91 g/m*3 22.1 C 0 km/h
513 23-08-2004 16:29:48 20.7 C 12.6 g/m*3 20.7 C 0 km/h
514 23-08-2004 16:59:48 20.3 C 12.66 g/m*3 20.3 C 0 km/h
515 23-08-2004 17:29:48 20.6 C 12.35 g/m*3 20.6 C 0 km/h
516 23-08-2004 17:59:48 20.2 C 12.59 g/m*3 20.2 C 0 km/h
517 23-08-2004 18:29:48 21.1 C 12.16 g/m*3 21.1 C 0 km/h
518 23-08-2004 18:59:48 21.6 C 12.33 g/m*3 21.6 C 0 km/h
519 23-08-2004 19:29:48 20.4 C 12.74 g/m*3 20.4 C 0 km/h
520 23-08-2004 19:59:48 19.6 C 12.49 g/m*3 19.6 C 0 km/h
521 23-08-2004 20:29:48 19 C 12.22 g/m*3 19 C 0 km/h
522 23-08-2004 20:59:48 18.7 C 12.33 g/m*3 18.7 C 0 km/h
523 23-08-2004 21:29:48 18.4 C 12.27 g/m*3 18.4 C 0 km/h
524 23-08-2004 21:59:48 18.1 C 12.21 g/m*3 18.1 C 0 km/h
525 23-08-2004 22:29:49 17.7 C 12.37 g/m*3 17.7 C 0 km/h
Sensor: Nr:Datum:Temp:Abs-Feuchte:Windchill:Wind:
Aussen-T/F 526 23-08-2004 22:59:49 17.4 C 12.15 g/m*3 17.4 C 0 km/h
527 23-08-2004 23:29:49 16.9 C 11.94 g/m*3 16.9 C 0 km/h
528 23-08-2004 23:59:49 16.4 C 11.58 g/m*3 16.4 C 0 km/h
529 24-08-2004 00:29:49 16.3 C 11.65 g/m*3 16.3 C 0 km/h
530 24-08-2004 00:59:49 15.8 C 11.44 g/m*3 15.8 C 0 km/h
531 24-08-2004 01:29:49 16.1 C 11.79 g/m*3 16.1 C 0 km/h
532 24-08-2004 01:59:49 15.7 C 11.64 g/m*3 15.7 C 0 km/h
533 24-08-2004 02:29:49 15.3 C 11.36 g/m*3 15.3 C 0 km/h
534 24-08-2004 02:59:49 15.1 C 11.35 g/m*3 15.1 C 0 km/h
535 24-08-2004 03:29:49 15.1 C 11.48 g/m*3 15.1 C 0 km/h
536 24-08-2004 03:59:49 14.9 C 11.6 g/m*3 14.9 C 0 km/h
537 24-08-2004 04:29:49 14.7 C 11.46 g/m*3 14.7 C 0 km/h
538 24-08-2004 04:59:49 14.7 C 11.58 g/m*3 14.7 C 0 km/h
539 24-08-2004 05:29:49 14.4 C 11.37 g/m*3 14.4 C 0 km/h
540 24-08-2004 05:59:49 14.1 C 11.29 g/m*3 14.1 C 0 km/h
541 24-08-2004 06:29:49 14 C 11.22 g/m*3 14 C 0 km/h
542 24-08-2004 06:59:49 13.9 C 11.15 g/m*3 13.9 C 0 km/h
543 24-08-2004 07:29:49 14.3 C 11.43 g/m*3 14.3 C 0 km/h
544 24-08-2004 07:59:49 14.7 C 11.71 g/m*3 14.7 C 0 km/h
545 24-08-2004 08:29:49 15.2 C 11.94 g/m*3 15.2 C 0 km/h
546 24-08-2004 08:59:50 15.8 C 12.25 g/m*3 15.8 C 0 km/h
547 24-08-2004 09:29:50 16.7 C 12.36 g/m*3 16.7 C 0 km/h
548 24-08-2004 09:59:50 17 C 12.01 g/m*3 17 C 0 km/h
549 24-08-2004 10:29:50 17.1 C 11.94 g/m*3 17.1 C 0 km/h
550 24-08-2004 10:59:50 16.8 C 13.01 g/m*3 16.8 C 0 km/h
Sensor: Nr:Datum:Temp:Abs-Feuchte:Windchill:Wind:
Aussen-T/F 551 24-08-2004 11:29:50 16.5 C 12.78 g/m*3 16.5 C 0 km/h
552 24-08-2004 11:59:50 17.3 C 13.55 g/m*3 17.3 C 0 km/h
553 24-08-2004 12:29:50 18.5 C 13.77 g/m*3 18.5 C 0 km/h
554 24-08-2004 12:59:50 18.1 C 12.82 g/m*3 18.1 C 0 km/h
555 24-08-2004 13:29:50 17.7 C 12.22 g/m*3 17.7 C 0 km/h
556 24-08-2004 13:59:50 17.2 C 12.59 g/m*3 17.2 C 0 km/h
557 24-08-2004 14:29:50 19.6 C 12.83 g/m*3 19.6 C 0 km/h
558 24-08-2004 14:59:50 21.6 C 12.14 g/m*3 21.6 C 0 km/h
559 24-08-2004 15:29:50 20.4 C 11.68 g/m*3 20.4 C 0 km/h
560 24-08-2004 15:59:50 16.5 C 11.37 g/m*3 16.5 C 0 km/h
561 24-08-2004 16:29:50 19.2 C 12.04 g/m*3 19.2 C 0 km/h
562 24-08-2004 16:59:50 21.3 C 10.62 g/m*3 21.3 C 0 km/h
563 24-08-2004 17:29:50 22 C 10.48 g/m*3 22 C 0 km/h
564 24-08-2004 17:59:50 22.4 C 9.93 g/m*3 22.4 C 0 km/h
565 24-08-2004 18:29:50 21 C 9.89 g/m*3 21 C 0 km/h
566 24-08-2004 18:59:50 21.1 C 10.5 g/m*3 21.1 C 0 km/h
567 24-08-2004 19:29:50 21.7 C 10.3 g/m*3 21.7 C 0 km/h
568 24-08-2004 19:59:51 21 C 10.44 g/m*3 21 C 0 km/h
569 24-08-2004 20:29:51 19.2 C 10.72 g/m*3 19.2 C 0 km/h
570 24-08-2004 20:59:51 19 C 9.61 g/m*3 19 C 0 km/h
571 24-08-2004 21:29:51 18.9 C 9.56 g/m*3 18.9 C 0 km/h
572 24-08-2004 21:59:51 18.3 C 9.07 g/m*3 18.3 C 0 km/h
573 24-08-2004 22:29:51 18.1 C 9.12 g/m*3 18.1 C 0 km/h
574 24-08-2004 22:59:51 17.7 C 9.66 g/m*3 17.7 C 0 km/h
575 24-08-2004 23:29:51 17.2 C 9.67 g/m*3 17.2 C 0 km/h
Sensor: Nr:Datum:Temp:Abs-Feuchte:Windchill:Wind:
Aussen-T/F 576 24-08-2004 23:59:51 17 C 9.84 g/m*3 17 C 0 km/h
577 25-08-2004 00:29:51 16.9 C 9.92 g/m*3 16.9 C 0 km/h
578 25-08-2004 00:59:51 16.8 C 10.01 g/m*3 16.8 C 0 km/h
579 25-08-2004 01:29:51 16.9 C 9.92 g/m*3 16.9 C 0 km/h
580 25-08-2004 01:59:51 16.8 C 9.87 g/m*3 16.8 C 0 km/h
581 25-08-2004 02:29:51 16.6 C 9.75 g/m*3 16.6 C 0 km/h
582 25-08-2004 02:59:51 16.7 C 9.66 g/m*3 16.7 C 0 km/h
583 25-08-2004 03:29:51 16.4 C 9.49 g/m*3 16.4 C 0 km/h
584 25-08-2004 03:59:51 16.3 C 9.43 g/m*3 16.3 C 0 km/h
585 25-08-2004 04:29:51 16.2 C 9.52 g/m*3 16.2 C 0 km/h
586 25-08-2004 04:59:51 15.9 C 9.34 g/m*3 15.9 C 0 km/h
587 25-08-2004 05:29:51 15.8 C 9.29 g/m*3 15.8 C 0 km/h
588 25-08-2004 05:59:51 15.6 C 9.18 g/m*3 15.6 C 0 km/h
589 25-08-2004 06:29:51 15.4 C 9.2 g/m*3 15.4 C 0 km/h
590 25-08-2004 06:59:52 15.5 C 9.12 g/m*3 15.5 C 0 km/h
591 25-08-2004 07:29:52 15.5 C 8.72 g/m*3 15.5 C 0 km/h
592 25-08-2004 07:59:52 15.5 C 8.86 g/m*3 15.5 C 0 km/h
593 25-08-2004 08:29:52 15.6 C 9.18 g/m*3 15.6 C 0 km/h
594 25-08-2004 08:59:52 15.7 C 9.23 g/m*3 15.7 C 0 km/h
595 25-08-2004 09:29:52 16 C 8.86 g/m*3 16 C 0 km/h
596 25-08-2004 09:59:52 16.6 C 8.9 g/m*3 16.6 C 0 km/h
597 25-08-2004 10:29:52 16.6 C 8.9 g/m*3 16.6 C 0 km/h
598 25-08-2004 10:59:52 16.1 C 9.18 g/m*3 16.1 C 0 km/h
599 25-08-2004 11:29:52 16.1 C 9.46 g/m*3 16.1 C 0 km/h
600 25-08-2004 11:59:52 17.1 C 9.17 g/m*3 17.1 C 0 km/h
Sensor: Nr:Datum:Temp:Abs-Feuchte:Windchill:Wind:
Aussen-T/F 601 25-08-2004 12:29:52 18.6 C 8.91 g/m*3 18.6 C 0 km/h
602 25-08-2004 12:59:52 17.8 C 9.11 g/m*3 17.8 C 0 km/h
603 25-08-2004 13:29:52 16.9 C 9.92 g/m*3 16.9 C 0 km/h
604 25-08-2004 13:59:52 16 C 10.76 g/m*3 16 C 0 km/h
605 25-08-2004 14:29:52 16.9 C 11.22 g/m*3 16.9 C 0 km/h
606 25-08-2004 14:59:52 18.1 C 10.97 g/m*3 18.1 C 0 km/h
607 25-08-2004 15:29:52 19.4 C 9.68 g/m*3 19.4 C 0 km/h
608 25-08-2004 15:59:52 19.2 C 9.89 g/m*3 19.2 C 0 km/h
609 25-08-2004 16:29:52 19.2 C 9.56 g/m*3 19.2 C 0 km/h
610 25-08-2004 16:59:52 16.6 C 11.16 g/m*3 16.6 C 0 km/h
611 25-08-2004 17:29:01 17.5 C 11.18 g/m*3 17.5 C 0 km/h
612 25-08-2004 17:59:00 18 C 10.44 g/m*3 18 C 0 km/h
613 25-08-2004 18:29:00 17.8 C 10.02 g/m*3 17.8 C 0 km/h
614 25-08-2004 18:59:01 18.7 C 10.25 g/m*3 18.7 C 0 km/h
615 25-08-2004 19:29:01 17.5 C 10.14 g/m*3 17.5 C 0 km/h
616 25-08-2004 19:59:02 16.9 C 10.5 g/m*3 16.9 C 0 km/h
617 25-08-2004 20:22:02 15.3 C 11.23 g/m*3 15.3 C 0 km/h
618 25-08-2004 20:34:03 15.2 C 11.29 g/m*3 15.2 C 0 km/h
619 25-08-2004 20:46:02 14.8 C 11.15 g/m*3 14.8 C 0 km/h
620 25-08-2004 20:58:02 14.7 C 11.21 g/m*3 14.7 C 0 km/h
621 25-08-2004 21:10:02 14.7 C 11.21 g/m*3 14.7 C 0 km/h
622 25-08-2004 21:22:00 14.6 C 11.01 g/m*3 14.6 C 0 km/h
623 25-08-2004 21:34:01 14.7 C 10.95 g/m*3 14.7 C 0 km/h
624 25-08-2004 21:46:01 14.8 C 10.89 g/m*3 14.8 C 0 km/h
625 25-08-2004 21:58:02 14.8 C 10.89 g/m*3 14.8 C 0 km/h
Sensor: Nr:Datum:Temp:Abs-Feuchte:Windchill:Wind:
Aussen-T/F 626 25-08-2004 22:10:01 14.7 C 10.83 g/m*3 14.7 C 0 km/h
627 25-08-2004 22:22:01 14.6 C 10.76 g/m*3 14.6 C 0 km/h
628 25-08-2004 22:34:01 14.8 C 10.77 g/m*3 14.8 C 0 km/h
629 25-08-2004 22:46:01 14.8 C 10.77 g/m*3 14.8 C 0 km/h
630 25-08-2004 22:58:01 14.9 C 10.83 g/m*3 14.9 C 0 km/h
631 25-08-2004 23:10:01 14.9 C 10.83 g/m*3 14.9 C 0 km/h
632 25-08-2004 23:22:00 15 C 10.77 g/m*3 15 C 0 km/h
633 25-08-2004 23:34:00 15.1 C 10.71 g/m*3 15.1 C 0 km/h
634 25-08-2004 23:46:02 15.1 C 10.71 g/m*3 15.1 C 0 km/h
635 25-08-2004 23:58:02 15.1 C 10.71 g/m*3 15.1 C 0 km/h
636 26-08-2004 00:10:02 15 C 10.64 g/m*3 15 C 0 km/h
637 26-08-2004 00:22:01 15.4 C 10.64 g/m*3 15.4 C 0 km/h
638 26-08-2004 00:34:01 15.4 C 10.38 g/m*3 15.4 C 0 km/h
639 26-08-2004 00:46:01 15.4 C 10.51 g/m*3 15.4 C 0 km/h
640 26-08-2004 00:58:01 15 C 10.51 g/m*3 15 C 0 km/h
641 26-08-2004 01:10:01 14.8 C 10.64 g/m*3 14.8 C 0 km/h
642 26-08-2004 01:22:00 14.8 C 10.64 g/m*3 14.8 C 0 km/h
643 26-08-2004 01:34:00 14.6 C 10.64 g/m*3 14.6 C 0 km/h
644 26-08-2004 01:46:01 14.5 C 10.57 g/m*3 14.5 C 0 km/h
645 26-08-2004 01:58:01 14.8 C 10.64 g/m*3 14.8 C 0 km/h
646 26-08-2004 02:10:01 14.8 C 10.51 g/m*3 14.8 C 0 km/h
647 26-08-2004 02:22:02 14.7 C 10.58 g/m*3 14.7 C 0 km/h
648 26-08-2004 02:34:01 14.5 C 10.45 g/m*3 14.5 C 0 km/h
649 26-08-2004 02:47:02 14.6 C 10.51 g/m*3 14.6 C 0 km/h
650 26-08-2004 02:59:02 14.6 C 10.51 g/m*3 14.6 C 0 km/h
Sensor: Nr:Datum:Temp:Abs-Feuchte:Windchill:Wind:
Aussen-T/F 651 26-08-2004 03:11:02 14.7 C 10.45 g/m*3 14.7 C 0 km/h
652 26-08-2004 03:23:02 14.7 C 10.58 g/m*3 14.7 C 0 km/h
653 26-08-2004 03:35:01 14.7 C 10.45 g/m*3 14.7 C 0 km/h
654 26-08-2004 03:47:01 14.7 C 10.32 g/m*3 14.7 C 0 km/h
655 26-08-2004 03:59:01 14.6 C 10.39 g/m*3 14.6 C 0 km/h
656 26-08-2004 04:11:01 14.6 C 10.39 g/m*3 14.6 C 0 km/h
657 26-08-2004 04:23:01 14.3 C 10.07 g/m*3 14.3 C 0 km/h
658 26-08-2004 04:35:00 14 C 10.13 g/m*3 14 C 0 km/h
659 26-08-2004 04:47:01 14 C 10.13 g/m*3 14 C 0 km/h
660 26-08-2004 04:59:01 14.1 C 10.19 g/m*3 14.1 C 0 km/h
661 26-08-2004 05:11:01 14.1 C 10.19 g/m*3 14.1 C 0 km/h
662 26-08-2004 05:23:00 14.1 C 10.19 g/m*3 14.1 C 0 km/h
663 26-08-2004 05:35:00 14.1 C 10.32 g/m*3 14.1 C 0 km/h
664 26-08-2004 05:47:01 14.2 C 10.38 g/m*3 14.2 C 0 km/h
665 26-08-2004 05:59:01 14.1 C 10.32 g/m*3 14.1 C 0 km/h
666 26-08-2004 06:11:02 14.1 C 10.32 g/m*3 14.1 C 0 km/h
667 26-08-2004 06:23:01 14.2 C 10.38 g/m*3 14.2 C 0 km/h
668 26-08-2004 06:35:01 14.2 C 10.38 g/m*3 14.2 C 0 km/h
669 26-08-2004 06:47:01 14.3 C 10.32 g/m*3 14.3 C 0 km/h
670 26-08-2004 06:59:01 14.4 C 10.38 g/m*3 14.4 C 0 km/h
671 26-08-2004 07:11:01 14.4 C 10.38 g/m*3 14.4 C 0 km/h
672 26-08-2004 07:23:00 14.5 C 10.45 g/m*3 14.5 C 0 km/h
673 26-08-2004 07:35:00 14.7 C 10.45 g/m*3 14.7 C 0 km/h
674 26-08-2004 07:47:02 14.8 C 10.51 g/m*3 14.8 C 0 km/h
675 26-08-2004 07:59:02 14.9 C 10.58 g/m*3 14.9 C 0 km/h
Sensor: Nr:Datum:Temp:Abs-Feuchte:Windchill:Wind:
Aussen-T/F 676 26-08-2004 08:11:02 15.1 C 10.45 g/m*3 15.1 C 0 km/h
677 26-08-2004 08:23:01 15.2 C 10.25 g/m*3 15.2 C 0 km/h
678 26-08-2004 08:35:01 15.4 C 10.38 g/m*3 15.4 C 0 km/h
679 26-08-2004 08:47:01 15.9 C 10.7 g/m*3 15.9 C 0 km/h
680 26-08-2004 08:59:01 16 C 10.49 g/m*3 16 C 0 km/h
681 26-08-2004 09:11:01 16.1 C 10.55 g/m*3 16.1 C 0 km/h
682 26-08-2004 09:23:00 15.5 C 10.71 g/m*3 15.5 C 0 km/h
683 26-08-2004 09:35:00 15 C 11.03 g/m*3 15 C 0 km/h
684 26-08-2004 09:47:01 14.8 C 11.15 g/m*3 14.8 C 0 km/h
685 26-08-2004 09:59:01 14.9 C 11.34 g/m*3 14.9 C 0 km/h
686 26-08-2004 10:11:01 15.3 C 11.62 g/m*3 15.3 C 0 km/h
687 26-08-2004 10:23:01 15.6 C 11.7 g/m*3 15.6 C 0 km/h
688 26-08-2004 10:35:01 16.1 C 11.65 g/m*3 16.1 C 0 km/h
689 26-08-2004 10:47:02 16.2 C 11.31 g/m*3 16.2 C 0 km/h
690 26-08-2004 10:59:02 16.5 C 11.37 g/m*3 16.5 C 0 km/h
691 26-08-2004 11:11:02 17 C 11.43 g/m*3 17 C 0 km/h
692 26-08-2004 11:23:01 17.8 C 11.54 g/m*3 17.8 C 0 km/h
693 26-08-2004 11:35:01 18 C 10.91 g/m*3 18 C 0 km/h
694 26-08-2004 11:47:01 18.1 C 11.12 g/m*3 18.1 C 0 km/h
695 26-08-2004 11:59:01 17.7 C 10.56 g/m*3 17.7 C 0 km/h
696 26-08-2004 12:11:01 19 C 10.59 g/m*3 19 C 0 km/h
697 26-08-2004 12:23:03 18.8 C 9.99 g/m*3 18.8 C 0 km/h
698 26-08-2004 12:35:01 19.4 C 10.18 g/m*3 19.4 C 0 km/h
699 26-08-2004 12:47:01 19.2 C 10.06 g/m*3 19.2 C 0 km/h
700 26-08-2004 12:59:01 19 C 10.1 g/m*3 19 C 0 km/h
Sensor: Nr:Datum:Temp:Abs-Feuchte:Windchill:Wind:
Aussen-T/F 701 26-08-2004 13:11:01 19.4 C 10.18 g/m*3 19.4 C 0 km/h
702 26-08-2004 13:23:05 19.2 C 9.73 g/m*3 19.2 C 0 km/h
703 26-08-2004 13:35:01 19.8 C 10.08 g/m*3 19.8 C 0 km/h
704 26-08-2004 13:47:01 20 C 9.68 g/m*3 20 C 0 km/h
705 26-08-2004 13:59:01 19.5 C 9.9 g/m*3 19.5 C 0 km/h
706 26-08-2004 14:11:01 19.7 C 9.68 g/m*3 19.7 C 0 km/h
707 26-08-2004 14:23:01 20 C 9.68 g/m*3 20 C 0 km/h
708 26-08-2004 14:35:01 20.4 C 9.55 g/m*3 20.4 C 0 km/h
709 26-08-2004 14:47:02 20.1 C 9.39 g/m*3 20.1 C 0 km/h
710 26-08-2004 14:59:02 19.9 C 9.11 g/m*3 19.9 C 0 km/h
711 26-08-2004 15:11:02 20.2 C 10.14 g/m*3 20.2 C 0 km/h
712 26-08-2004 15:23:09 21.2 C 10.19 g/m*3 21.2 C 0 km/h
713 26-08-2004 15:35:01 20.8 C 9.42 g/m*3 20.8 C 0 km/h
714 26-08-2004 15:47:01 20.5 C 9.43 g/m*3 20.5 C 0 km/h
715 26-08-2004 15:59:01 20 C 8.81 g/m*3 20 C 0 km/h
716 26-08-2004 16:11:01 20.5 C 9.25 g/m*3 20.5 C 0 km/h
717 26-08-2004 16:23:01 20.7 C 9.54 g/m*3 20.7 C 0 km/h
718 26-08-2004 16:35:01 20.1 C 8.69 g/m*3 20.1 C 0 km/h
719 26-08-2004 16:47:02 19.9 C 8.59 g/m*3 19.9 C 0 km/h
720 26-08-2004 16:59:02 20.1 C 8.87 g/m*3 20.1 C 0 km/h
721 26-08-2004 17:11:02 20 C 8.99 g/m*3 20 C 0 km/h
722 26-08-2004 17:23:02 20 C 8.99 g/m*3 20 C 0 km/h
723 26-08-2004 17:35:01 19.8 C 9.22 g/m*3 19.8 C 0 km/h
724 26-08-2004 17:47:01 20.1 C 9.04 g/m*3 20.1 C 0 km/h
725 26-08-2004 17:59:01 19.8 C 9.05 g/m*3 19.8 C 0 km/h
Sensor: Nr:Datum:Temp:Abs-Feuchte:Windchill:Wind:
Aussen-T/F 726 26-08-2004 18:11:01 19.6 C 8.95 g/m*3 19.6 C 0 km/h
727 26-08-2004 18:23:01 19.2 C 9.07 g/m*3 19.2 C 0 km/h
728 26-08-2004 18:35:00 19.8 C 9.22 g/m*3 19.8 C 0 km/h
729 26-08-2004 18:47:01 20.5 C 9.25 g/m*3 20.5 C 0 km/h
730 26-08-2004 18:59:01 20.4 C 9.55 g/m*3 20.4 C 0 km/h
731 26-08-2004 19:11:01 20.2 C 9.09 g/m*3 20.2 C 0 km/h
732 26-08-2004 19:23:01 20.2 C 8.92 g/m*3 20.2 C 0 km/h
733 26-08-2004 19:35:01 19.6 C 8.78 g/m*3 19.6 C 0 km/h
734 26-08-2004 19:47:01 19.2 C 9.07 g/m*3 19.2 C 0 km/h
735 26-08-2004 19:59:01 18.8 C 8.7 g/m*3 18.8 C 0 km/h
736 26-08-2004 20:11:01 18.3 C 8.6 g/m*3 18.3 C 0 km/h
737 26-08-2004 20:23:00 17.7 C 8.75 g/m*3 17.7 C 0 km/h
738 26-08-2004 20:35:00 17 C 8.68 g/m*3 17 C 0 km/h
739 26-08-2004 20:47:02 16.8 C 8.44 g/m*3 16.8 C 0 km/h
740 26-08-2004 20:59:03 16.8 C 8.29 g/m*3 16.8 C 0 km/h
741 26-08-2004 21:11:01 16.7 C 8.24 g/m*3 16.7 C 0 km/h
742 26-08-2004 21:23:01 16.5 C 8.14 g/m*3 16.5 C 0 km/h
743 26-08-2004 21:35:01 16.2 C 8.14 g/m*3 16.2 C 0 km/h
744 26-08-2004 21:47:02 15.9 C 8.4 g/m*3 15.9 C 0 km/h
745 26-08-2004 21:59:02 15.6 C 8.38 g/m*3 15.6 C 0 km/h
746 26-08-2004 22:11:02 15.3 C 8.36 g/m*3 15.3 C 0 km/h
747 26-08-2004 22:23:02 15.1 C 8.26 g/m*3 15.1 C 0 km/h
748 26-08-2004 22:35:01 14.8 C 8.49 g/m*3 14.8 C 0 km/h
749 26-08-2004 22:47:01 14.7 C 8.56 g/m*3 14.7 C 0 km/h
750 26-08-2004 22:59:01 14.7 C 8.18 g/m*3 14.7 C 0 km/h
Sensor: Nr:Datum:Temp:Abs-Feuchte:Windchill:Wind:
Aussen-T/F 751 26-08-2004 23:11:01 14.4 C 8.03 g/m*3 14.4 C 0 km/h
752 26-08-2004 23:23:00 14.2 C 7.94 g/m*3 14.2 C 0 km/h
753 26-08-2004 23:35:00 14 C 8.08 g/m*3 14 C 0 km/h
754 26-08-2004 23:47:01 13.7 C 8.05 g/m*3 13.7 C 0 km/h
755 26-08-2004 23:59:01 13.7 C 8.05 g/m*3 13.7 C 0 km/h
756 27-08-2004 00:11:02 13.6 C 8 g/m*3 13.6 C 0 km/h
757 27-08-2004 00:23:02 13.3 C 7.97 g/m*3 13.3 C 0 km/h
758 27-08-2004 00:35:01 13.3 C 8.09 g/m*3 13.3 C 0 km/h
759 27-08-2004 00:47:01 13.3 C 8.09 g/m*3 13.3 C 0 km/h
760 27-08-2004 00:59:01 13 C 7.94 g/m*3 13 C 0 km/h
761 27-08-2004 01:11:01 12.9 C 8.11 g/m*3 12.9 C 0 km/h
762 27-08-2004 01:23:01 12.4 C 8.09 g/m*3 12.4 C 0 km/h
763 27-08-2004 01:35:00 12.1 C 8.26 g/m*3 12.1 C 0 km/h
764 27-08-2004 01:47:01 12 C 8.21 g/m*3 12 C 0 km/h
765 27-08-2004 01:59:01 11.8 C 8.31 g/m*3 11.8 C 0 km/h
766 27-08-2004 02:11:01 11.6 C 8.32 g/m*3 11.6 C 0 km/h
767 27-08-2004 02:23:00 11.5 C 8.37 g/m*3 11.5 C 0 km/h
768 27-08-2004 02:35:00 11.3 C 8.36 g/m*3 11.3 C 0 km/h
769 27-08-2004 02:48:03 11.1 C 8.46 g/m*3 11.1 C 0 km/h
770 27-08-2004 03:00:03 11.1 C 8.46 g/m*3 11.1 C 0 km/h
771 27-08-2004 03:12:03 11.1 C 8.36 g/m*3 11.1 C 0 km/h
772 27-08-2004 03:24:03 11 C 8.31 g/m*3 11 C 0 km/h
773 27-08-2004 03:36:01 11 C 8.31 g/m*3 11 C 0 km/h
774 27-08-2004 03:48:01 11.3 C 8.36 g/m*3 11.3 C 0 km/h
775 27-08-2004 04:00:01 11.5 C 8.37 g/m*3 11.5 C 0 km/h
Sensor: Nr:Datum:Temp:Abs-Feuchte:Windchill:Wind:
Aussen-T/F 776 27-08-2004 04:12:01 11.4 C 8.31 g/m*3 11.4 C 0 km/h
777 27-08-2004 04:24:00 11.2 C 8.31 g/m*3 11.2 C 0 km/h
778 27-08-2004 04:36:00 11.1 C 8.36 g/m*3 11.1 C 0 km/h
779 27-08-2004 04:48:01 11 C 8.31 g/m*3 11 C 0 km/h
780 27-08-2004 05:00:01 10.9 C 8.36 g/m*3 10.9 C 0 km/h
781 27-08-2004 05:12:01 11.1 C 8.46 g/m*3 11.1 C 0 km/h
782 27-08-2004 05:24:01 11.1 C 8.46 g/m*3 11.1 C 0 km/h
783 27-08-2004 05:36:01 11.4 C 8.62 g/m*3 11.4 C 0 km/h
784 27-08-2004 05:48:01 11.6 C 8.63 g/m*3 11.6 C 0 km/h
785 27-08-2004 06:00:01 11.5 C 8.57 g/m*3 11.5 C 0 km/h
786 27-08-2004 06:12:01 11.4 C 8.52 g/m*3 11.4 C 0 km/h
787 27-08-2004 06:24:00 11.4 C 8.62 g/m*3 11.4 C 0 km/h
788 27-08-2004 06:36:00 11.6 C 8.63 g/m*3 11.6 C 0 km/h
789 27-08-2004 06:48:01 11.7 C 8.68 g/m*3 11.7 C 0 km/h
790 27-08-2004 07:00:01 11.9 C 8.79 g/m*3 11.9 C 0 km/h
791 27-08-2004 07:12:01 12 C 8.74 g/m*3 12 C 0 km/h
792 27-08-2004 07:24:00 12 C 8.74 g/m*3 12 C 0 km/h
793 27-08-2004 07:36:00 12.2 C 8.85 g/m*3 12.2 C 0 km/h
794 27-08-2004 07:48:02 12.2 C 8.74 g/m*3 12.2 C 0 km/h
795 27-08-2004 08:00:02 12.4 C 8.85 g/m*3 12.4 C 0 km/h
796 27-08-2004 08:12:02 12.5 C 8.91 g/m*3 12.5 C 0 km/h
797 27-08-2004 08:24:01 12.8 C 9.07 g/m*3 12.8 C 0 km/h
798 27-08-2004 08:36:01 13.2 C 9.07 g/m*3 13.2 C 0 km/h
799 27-08-2004 08:48:02 13.4 C 9.07 g/m*3 13.4 C 0 km/h
800 27-08-2004 09:00:02 13.6 C 9.18 g/m*3 13.6 C 0 km/h
Sensor: Nr:Datum:Temp:Abs-Feuchte:Windchill:Wind:
Aussen-T/F 801 27-08-2004 09:12:01 13.8 C 9.29 g/m*3 13.8 C 0 km/h
802 27-08-2004 09:24:01 14 C 9.29 g/m*3 14 C 0 km/h
803 27-08-2004 09:36:00 14.3 C 9.46 g/m*3 14.3 C 0 km/h
804 27-08-2004 09:48:01 14.5 C 9.45 g/m*3 14.5 C 0 km/h
805 27-08-2004 10:00:01 14.7 C 9.69 g/m*3 14.7 C 0 km/h
806 27-08-2004 10:12:02 15.4 C 9.85 g/m*3 15.4 C 0 km/h
807 27-08-2004 10:24:02 15.9 C 9.89 g/m*3 15.9 C 0 km/h
808 27-08-2004 10:36:02 16.3 C 9.71 g/m*3 16.3 C 0 km/h
809 27-08-2004 10:48:01 16.6 C 9.61 g/m*3 16.6 C 0 km/h
810 27-08-2004 11:00:01 16.5 C 9.55 g/m*3 16.5 C 0 km/h
811 27-08-2004 11:12:01 17.1 C 9.46 g/m*3 17.1 C 0 km/h
812 27-08-2004 11:24:01 17.2 C 9.08 g/m*3 17.2 C 0 km/h
813 27-08-2004 11:36:00 17.3 C 9.28 g/m*3 17.3 C 0 km/h
814 27-08-2004 11:48:01 17.7 C 9.05 g/m*3 17.7 C 0 km/h
815 27-08-2004 12:00:01 17.8 C 8.95 g/m*3 17.8 C 0 km/h
816 27-08-2004 12:12:01 18.1 C 8.96 g/m*3 18.1 C 0 km/h
817 27-08-2004 12:24:00 18.9 C 9.23 g/m*3 18.9 C 0 km/h
818 27-08-2004 12:36:01 19.3 C 8.79 g/m*3 19.3 C 0 km/h
819 27-08-2004 12:48:02 19.6 C 8.78 g/m*3 19.6 C 0 km/h
820 27-08-2004 13:00:02 20.2 C 9.09 g/m*3 20.2 C 0 km/h
821 27-08-2004 13:12:02 20.3 C 8.62 g/m*3 20.3 C 0 km/h
822 27-08-2004 13:24:02 20.3 C 8.27 g/m*3 20.3 C 0 km/h
823 27-08-2004 13:36:01 21.2 C 8.52 g/m*3 21.2 C 0 km/h
824 27-08-2004 13:48:01 20.8 C 8.87 g/m*3 20.8 C 0 km/h
825 27-08-2004 14:00:01 20.2 C 8.57 g/m*3 20.2 C 0 km/h
Sensor: Nr:Datum:Temp:Abs-Feuchte:Windchill:Wind:
Aussen-T/F 826 27-08-2004 14:12:01 20.3 C 8.79 g/m*3 20.3 C 0 km/h
827 27-08-2004 14:24:03 20.3 C 8.62 g/m*3 20.3 C 0 km/h
828 27-08-2004 14:36:01 20.6 C 8.59 g/m*3 20.6 C 0 km/h
829 27-08-2004 14:48:01 20.8 C 8.69 g/m*3 20.8 C 0 km/h
830 27-08-2004 15:00:01 20.9 C 8.74 g/m*3 20.9 C 0 km/h
831 27-08-2004 15:12:01 20.5 C 8.72 g/m*3 20.5 C 0 km/h
832 27-08-2004 15:24:01 20.2 C 8.57 g/m*3 20.2 C 0 km/h
833 27-08-2004 15:36:00 20.2 C 8.39 g/m*3 20.2 C 0 km/h
834 27-08-2004 15:48:02 20 C 8.3 g/m*3 20 C 0 km/h
835 27-08-2004 16:00:02 20 C 8.47 g/m*3 20 C 0 km/h
836 27-08-2004 16:12:01 20 C 8.64 g/m*3 20 C 0 km/h
837 27-08-2004 16:24:00 19.8 C 8.71 g/m*3 19.8 C 0 km/h
838 27-08-2004 16:36:00 19.7 C 8.83 g/m*3 19.7 C 0 km/h
839 27-08-2004 16:48:02 19.7 C 8.83 g/m*3 19.7 C 0 km/h
840 27-08-2004 17:00:02 19.9 C 8.93 g/m*3 19.9 C 0 km/h
841 27-08-2004 17:12:02 20 C 8.81 g/m*3 20 C 0 km/h
842 27-08-2004 17:24:02 18.8 C 9.99 g/m*3 18.8 C 0 km/h
843 27-08-2004 17:36:01 17.8 C 10.78 g/m*3 17.8 C 0 km/h
844 27-08-2004 17:48:01 18.3 C 10.48 g/m*3 18.3 C 0 km/h
845 27-08-2004 18:00:01 18.3 C 10.79 g/m*3 18.3 C 0 km/h
846 27-08-2004 18:12:01 18.2 C 10.88 g/m*3 18.2 C 0 km/h
847 27-08-2004 18:24:01 18.6 C 10.35 g/m*3 18.6 C 0 km/h
848 27-08-2004 18:36:01 18.7 C 10.09 g/m*3 18.7 C 0 km/h
849 27-08-2004 18:48:02 17.8 C 10.62 g/m*3 17.8 C 0 km/h
850 27-08-2004 19:00:02 17.7 C 10.86 g/m*3 17.7 C 0 km/h
Sensor: Nr:Datum:Temp:Abs-Feuchte:Windchill:Wind:
Aussen-T/F 851 27-08-2004 19:12:01 17.3 C 10.9 g/m*3 17.3 C 0 km/h
852 27-08-2004 19:24:03 16.9 C 11.08 g/m*3 16.9 C 0 km/h
853 27-08-2004 19:36:01 17 C 11 g/m*3 17 C 0 km/h
854 27-08-2004 19:48:01 17.1 C 11.06 g/m*3 17.1 C 0 km/h
855 27-08-2004 20:00:01 17.1 C 11.06 g/m*3 17.1 C 0 km/h
856 27-08-2004 20:12:01 17.1 C 11.21 g/m*3 17.1 C 0 km/h
857 27-08-2004 20:24:01 17 C 11.14 g/m*3 17 C 0 km/h
858 27-08-2004 20:36:01 17.1 C 11.06 g/m*3 17.1 C 0 km/h
859 27-08-2004 20:48:02 17.1 C 11.21 g/m*3 17.1 C 0 km/h
860 27-08-2004 21:00:02 17.1 C 11.21 g/m*3 17.1 C 0 km/h
861 27-08-2004 21:12:01 17.2 C 11.28 g/m*3 17.2 C 0 km/h
862 27-08-2004 21:24:02 17.3 C 11.05 g/m*3 17.3 C 0 km/h
863 27-08-2004 21:36:01 17.8 C 10.78 g/m*3 17.8 C 0 km/h
864 27-08-2004 21:48:01 17.9 C 10.69 g/m*3 17.9 C 0 km/h
865 27-08-2004 22:00:01 18 C 10.44 g/m*3 18 C 0 km/h
866 27-08-2004 22:12:01 18.2 C 10.57 g/m*3 18.2 C 0 km/h
867 27-08-2004 22:24:00 18.4 C 10.7 g/m*3 18.4 C 0 km/h
868 27-08-2004 22:36:00 18.1 C 10.66 g/m*3 18.1 C 0 km/h
869 27-08-2004 22:48:01 18.1 C 10.66 g/m*3 18.1 C 0 km/h
870 27-08-2004 23:00:01 18.1 C 10.66 g/m*3 18.1 C 0 km/h
871 27-08-2004 23:12:01 17.9 C 10.99 g/m*3 17.9 C 0 km/h
872 27-08-2004 23:24:00 17.7 C 10.86 g/m*3 17.7 C 0 km/h
873 27-08-2004 23:36:01 17.8 C 10.93 g/m*3 17.8 C 0 km/h
874 27-08-2004 23:48:02 17.7 C 10.86 g/m*3 17.7 C 0 km/h
875 28-08-2004 00:00:02 17.7 C 10.86 g/m*3 17.7 C 0 km/h
Sensor: Nr:Datum:Temp:Abs-Feuchte:Windchill:Wind:
Aussen-T/F 876 28-08-2004 00:12:02 17.6 C 10.8 g/m*3 17.6 C 0 km/h
877 28-08-2004 00:24:01 17.5 C 11.03 g/m*3 17.5 C 0 km/h
878 28-08-2004 00:36:01 17.5 C 11.03 g/m*3 17.5 C 0 km/h
879 28-08-2004 00:48:01 17.2 C 11.28 g/m*3 17.2 C 0 km/h
880 28-08-2004 01:00:01 16.8 C 11.44 g/m*3 16.8 C 0 km/h
881 28-08-2004 01:12:01 16.6 C 11.44 g/m*3 16.6 C 0 km/h
882 28-08-2004 01:24:01 16.7 C 11.51 g/m*3 16.7 C 0 km/h
883 28-08-2004 01:36:01 16.7 C 11.65 g/m*3 16.7 C 0 km/h
884 28-08-2004 01:48:02 16.8 C 11.58 g/m*3 16.8 C 0 km/h
885 28-08-2004 02:00:02 16.9 C 11.51 g/m*3 16.9 C 0 km/h
886 28-08-2004 02:12:02 17 C 11.29 g/m*3 17 C 0 km/h
887 28-08-2004 02:24:02 17 C 11.29 g/m*3 17 C 0 km/h
888 28-08-2004 02:36:01 17 C 11.29 g/m*3 17 C 0 km/h
889 28-08-2004 02:49:02 16.9 C 11.36 g/m*3 16.9 C 0 km/h
890 28-08-2004 03:01:02 16.9 C 11.36 g/m*3 16.9 C 0 km/h
891 28-08-2004 03:13:03 17 C 11.29 g/m*3 17 C 0 km/h
892 28-08-2004 03:25:03 17 C 11.14 g/m*3 17 C 0 km/h
893 28-08-2004 03:37:01 17 C 11.29 g/m*3 17 C 0 km/h
894 28-08-2004 03:49:01 17 C 11.29 g/m*3 17 C 0 km/h
895 28-08-2004 04:01:01 16.9 C 11.36 g/m*3 16.9 C 0 km/h
896 28-08-2004 04:13:01 16.9 C 11.51 g/m*3 16.9 C 0 km/h
897 28-08-2004 04:25:01 16.8 C 11.44 g/m*3 16.8 C 0 km/h
898 28-08-2004 04:37:00 16.6 C 11.58 g/m*3 16.6 C 0 km/h
899 28-08-2004 04:49:01 16.2 C 11.58 g/m*3 16.2 C 0 km/h
900 28-08-2004 05:01:01 16.1 C 11.65 g/m*3 16.1 C 0 km/h
Sensor: Nr:Datum:Temp:Abs-Feuchte:Windchill:Wind:
Aussen-T/F 901 28-08-2004 05:13:01 15.9 C 11.78 g/m*3 15.9 C 0 km/h
902 28-08-2004 05:25:01 15.8 C 11.85 g/m*3 15.8 C 0 km/h
903 28-08-2004 05:37:01 15.9 C 12.05 g/m*3 15.9 C 0 km/h
904 28-08-2004 05:49:02 15.8 C 11.98 g/m*3 15.8 C 0 km/h
905 28-08-2004 06:01:02 15.7 C 12.04 g/m*3 15.7 C 0 km/h
906 28-08-2004 06:13:02 15.7 C 12.18 g/m*3 15.7 C 0 km/h
907 28-08-2004 06:25:01 15.6 C 12.1 g/m*3 15.6 C 0 km/h
908 28-08-2004 06:37:01 15.6 C 12.23 g/m*3 15.6 C 0 km/h
909 28-08-2004 06:49:01 15.5 C 12.16 g/m*3 15.5 C 0 km/h
910 28-08-2004 07:01:01 15.5 C 12.16 g/m*3 15.5 C 0 km/h
911 28-08-2004 07:13:01 15.5 C 12.16 g/m*3 15.5 C 0 km/h
912 28-08-2004 07:25:00 15.9 C 12.46 g/m*3 15.9 C 0 km/h
913 28-08-2004 07:37:00 15.6 C 12.23 g/m*3 15.6 C 0 km/h
914 28-08-2004 07:49:02 15.6 C 12.23 g/m*3 15.6 C 0 km/h
915 28-08-2004 08:01:02 15.8 C 12.38 g/m*3 15.8 C 0 km/h
916 28-08-2004 08:13:02 15.8 C 12.38 g/m*3 15.8 C 0 km/h
917 28-08-2004 08:25:01 15.8 C 12.38 g/m*3 15.8 C 0 km/h
918 28-08-2004 08:37:01 16 C 12.4 g/m*3 16 C 0 km/h
919 28-08-2004 08:49:01 16.1 C 12.47 g/m*3 16.1 C 0 km/h
920 28-08-2004 09:01:01 16.2 C 12.41 g/m*3 16.2 C 0 km/h
921 28-08-2004 09:13:01 16 C 12.26 g/m*3 16 C 0 km/h
922 28-08-2004 09:25:00 16 C 12.26 g/m*3 16 C 0 km/h
923 28-08-2004 09:37:00 16 C 12.26 g/m*3 16 C 0 km/h
924 28-08-2004 09:49:01 16 C 12.26 g/m*3 16 C 0 km/h
925 28-08-2004 10:01:01 16.2 C 12.41 g/m*3 16.2 C 0 km/h
Sensor: Nr:Datum:Temp:Abs-Feuchte:Windchill:Wind:
Aussen-T/F 926 28-08-2004 10:13:01 16.2 C 12.27 g/m*3 16.2 C 0 km/h
927 28-08-2004 10:25:01 16.1 C 12.2 g/m*3 16.1 C 0 km/h
928 28-08-2004 10:37:01 16 C 12.13 g/m*3 16 C 0 km/h
929 28-08-2004 10:49:01 16.1 C 12.2 g/m*3 16.1 C 0 km/h
930 28-08-2004 11:01:01 16 C 12.13 g/m*3 16 C 0 km/h
931 28-08-2004 11:13:01 16.1 C 12.2 g/m*3 16.1 C 0 km/h
932 28-08-2004 11:25:00 16.4 C 12.42 g/m*3 16.4 C 0 km/h
933 28-08-2004 11:37:00 16.6 C 12.71 g/m*3 16.6 C 0 km/h
934 28-08-2004 11:49:01 16.9 C 12.94 g/m*3 16.9 C 0 km/h
935 28-08-2004 12:01:01 16.7 C 12.65 g/m*3 16.7 C 0 km/h
936 28-08-2004 12:13:01 17 C 12.73 g/m*3 17 C 0 km/h
937 28-08-2004 12:25:00 17.4 C 12.89 g/m*3 17.4 C 0 km/h
938 28-08-2004 12:37:01 17.3 C 12.82 g/m*3 17.3 C 0 km/h
939 28-08-2004 12:49:02 17.4 C 12.89 g/m*3 17.4 C 0 km/h
940 28-08-2004 13:01:03 17.9 C 13.13 g/m*3 17.9 C 0 km/h
941 28-08-2004 13:13:03 18.3 C 13.13 g/m*3 18.3 C 0 km/h
942 28-08-2004 13:25:01 18.8 C 13.05 g/m*3 18.8 C 0 km/h
943 28-08-2004 13:37:01 18.6 C 12.89 g/m*3 18.6 C 0 km/h
944 28-08-2004 13:49:01 19.7 C 13.08 g/m*3 19.7 C 0 km/h
945 28-08-2004 14:01:01 19.7 C 12.4 g/m*3 19.7 C 0 km/h
946 28-08-2004 14:13:01 19.7 C 12.4 g/m*3 19.7 C 0 km/h
947 28-08-2004 14:25:00 19.8 C 12.64 g/m*3 19.8 C 0 km/h
948 28-08-2004 14:37:00 20.1 C 12.52 g/m*3 20.1 C 0 km/h
949 28-08-2004 14:49:02 21.2 C 12.6 g/m*3 21.2 C 0 km/h
950 28-08-2004 15:01:02 20.9 C 12.75 g/m*3 20.9 C 0 km/h
Sensor: Nr:Datum:Temp:Abs-Feuchte:Windchill:Wind:
Aussen-T/F 951 28-08-2004 15:13:02 21.5 C 12.26 g/m*3 21.5 C 0 km/h
952 28-08-2004 15:25:02 21.9 C 12.35 g/m*3 21.9 C 0 km/h
953 28-08-2004 15:37:01 22 C 12.03 g/m*3 22 C 0 km/h
954 28-08-2004 15:49:01 21.9 C 11.96 g/m*3 21.9 C 0 km/h
955 28-08-2004 16:01:01 22.1 C 12.1 g/m*3 22.1 C 0 km/h
956 28-08-2004 16:13:01 21.8 C 11.9 g/m*3 21.8 C 0 km/h
957 28-08-2004 16:25:00 21.7 C 11.64 g/m*3 21.7 C 0 km/h
958 28-08-2004 16:37:00 21.6 C 11.76 g/m*3 21.6 C 0 km/h
959 28-08-2004 16:49:01 21.3 C 11.37 g/m*3 21.3 C 0 km/h
960 28-08-2004 17:01:01 21.3 C 11.74 g/m*3 21.3 C 0 km/h
961 28-08-2004 17:13:01 21.2 C 11.86 g/m*3 21.2 C 0 km/h
962 28-08-2004 17:25:01 20.8 C 11.95 g/m*3 20.8 C 0 km/h
963 28-08-2004 17:37:01 20.8 C 12.31 g/m*3 20.8 C 0 km/h
964 28-08-2004 17:49:01 20.8 C 12.49 g/m*3 20.8 C 0 km/h
965 28-08-2004 18:01:01 20.5 C 12.46 g/m*3 20.5 C 0 km/h
966 28-08-2004 18:13:01 20.2 C 12.59 g/m*3 20.2 C 0 km/h
967 28-08-2004 18:25:01 19.9 C 12.71 g/m*3 19.9 C 0 km/h
968 28-08-2004 18:37:00 19.4 C 12.85 g/m*3 19.4 C 0 km/h
969 28-08-2004 18:49:01 18.9 C 13.45 g/m*3 18.9 C 0 km/h
970 28-08-2004 19:01:01 18.6 C 13.53 g/m*3 18.6 C 0 km/h
971 28-08-2004 19:13:01 18.4 C 13.68 g/m*3 18.4 C 0 km/h
972 28-08-2004 19:25:00 18.2 C 13.68 g/m*3 18.2 C 0 km/h
973 28-08-2004 19:37:00 18 C 13.52 g/m*3 18 C 0 km/h
974 28-08-2004 19:49:02 17.9 C 13.59 g/m*3 17.9 C 0 km/h
975 28-08-2004 20:01:02 17.7 C 13.58 g/m*3 17.7 C 0 km/h
Sensor: Nr:Datum:Temp:Abs-Feuchte:Windchill:Wind:
Aussen-T/F 976 28-08-2004 20:13:02 17.4 C 13.34 g/m*3 17.4 C 0 km/h
977 28-08-2004 20:25:01 17.1 C 12.96 g/m*3 17.1 C 0 km/h
978 28-08-2004 20:37:01 17.1 C 12.96 g/m*3 17.1 C 0 km/h
979 28-08-2004 20:49:01 17 C 12.59 g/m*3 17 C 0 km/h
980 28-08-2004 21:01:01 17 C 12.59 g/m*3 17 C 0 km/h
981 28-08-2004 21:13:01 17 C 12.59 g/m*3 17 C 0 km/h
982 28-08-2004 21:25:00 16.9 C 12.66 g/m*3 16.9 C 0 km/h
983 28-08-2004 21:37:00 16.8 C 12.72 g/m*3 16.8 C 0 km/h
984 28-08-2004 21:49:01 16.8 C 12.87 g/m*3 16.8 C 0 km/h
985 28-08-2004 22:01:02 16.8 C 12.87 g/m*3 16.8 C 0 km/h
986 28-08-2004 22:13:02 16.7 C 12.79 g/m*3 16.7 C 0 km/h
987 28-08-2004 22:25:01 16.6 C 12.71 g/m*3 16.6 C 0 km/h
988 28-08-2004 22:37:01 16.6 C 12.71 g/m*3 16.6 C 0 km/h
989 28-08-2004 22:49:01 16.6 C 12.71 g/m*3 16.6 C 0 km/h
990 28-08-2004 23:01:01 16.4 C 12.56 g/m*3 16.4 C 0 km/h
991 28-08-2004 23:13:01 16.5 C 12.78 g/m*3 16.5 C 0 km/h
992 28-08-2004 23:25:01 16.4 C 12.7 g/m*3 16.4 C 0 km/h
993 28-08-2004 23:37:00 16.4 C 12.7 g/m*3 16.4 C 0 km/h
994 28-08-2004 23:49:01 16.4 C 12.7 g/m*3 16.4 C 0 km/h
995 29-08-2004 00:01:01 16.5 C 12.92 g/m*3 16.5 C 0 km/h
996 29-08-2004 00:13:01 16.4 C 12.84 g/m*3 16.4 C 0 km/h
997 29-08-2004 00:25:01 16.4 C 12.7 g/m*3 16.4 C 0 km/h
998 29-08-2004 00:37:01 16.4 C 12.7 g/m*3 16.4 C 0 km/h
999 29-08-2004 00:49:01 16.5 C 12.64 g/m*3 16.5 C 0 km/h
1000 29-08-2004 01:01:01 16.6 C 12.71 g/m*3 16.6 C 0 km/h
Sensor: Nr:Datum:Temp:Abs-Feuchte:Windchill:Wind:
Aussen-T/F 1001 29-08-2004 01:13:01 16.6 C 12.57 g/m*3 16.6 C 0 km/h
1002 29-08-2004 01:25:01 16.3 C 12.49 g/m*3 16.3 C 0 km/h
1003 29-08-2004 01:37:00 16.1 C 12.34 g/m*3 16.1 C 0 km/h
1004 29-08-2004 01:49:01 15.8 C 12.25 g/m*3 15.8 C 0 km/h
1005 29-08-2004 02:01:01 15.8 C 12.25 g/m*3 15.8 C 0 km/h
1006 29-08-2004 02:13:01 15.7 C 12.18 g/m*3 15.7 C 0 km/h
1007 29-08-2004 02:25:00 15.7 C 12.18 g/m*3 15.7 C 0 km/h
1008 29-08-2004 02:37:00 15.7 C 12.18 g/m*3 15.7 C 0 km/h
1009 29-08-2004 02:50:03 15.6 C 12.1 g/m*3 15.6 C 0 km/h
1010 29-08-2004 03:02:03 15.6 C 12.1 g/m*3 15.6 C 0 km/h
1011 29-08-2004 03:14:03 15.4 C 11.96 g/m*3 15.4 C 0 km/h
1012 29-08-2004 03:26:03 15.4 C 12.09 g/m*3 15.4 C 0 km/h
1013 29-08-2004 03:38:01 15.4 C 12.09 g/m*3 15.4 C 0 km/h
1014 29-08-2004 03:50:01 15.4 C 11.96 g/m*3 15.4 C 0 km/h
1015 29-08-2004 04:02:02 15.4 C 11.96 g/m*3 15.4 C 0 km/h
1016 29-08-2004 04:14:02 15.5 C 11.9 g/m*3 15.5 C 0 km/h
1017 29-08-2004 04:26:01 15.7 C 11.91 g/m*3 15.7 C 0 km/h
1018 29-08-2004 04:38:01 15.8 C 11.85 g/m*3 15.8 C 0 km/h
1019 29-08-2004 04:50:01 15.7 C 11.77 g/m*3 15.7 C 0 km/h
1020 29-08-2004 05:02:01 15.7 C 11.91 g/m*3 15.7 C 0 km/h
1021 29-08-2004 05:14:01 15.8 C 11.98 g/m*3 15.8 C 0 km/h
1022 29-08-2004 05:26:00 15.9 C 12.05 g/m*3 15.9 C 0 km/h
1023 29-08-2004 05:38:00 15.9 C 11.92 g/m*3 15.9 C 0 km/h
1024 29-08-2004 05:50:01 15.6 C 11.7 g/m*3 15.6 C 0 km/h
1025 29-08-2004 06:02:01 15.9 C 11.92 g/m*3 15.9 C 0 km/h
Sensor: Nr:Datum:Temp:Abs-Feuchte:Windchill:Wind:
Aussen-T/F 1026 29-08-2004 06:14:01 15.8 C 11.85 g/m*3 15.8 C 0 km/h
1027 29-08-2004 06:26:00 15.6 C 11.84 g/m*3 15.6 C 0 km/h
1028 29-08-2004 06:38:00 15.1 C 11.48 g/m*3 15.1 C 0 km/h
1029 29-08-2004 06:50:02 14.9 C 11.6 g/m*3 14.9 C 0 km/h
1030 29-08-2004 07:02:02 14.8 C 11.53 g/m*3 14.8 C 0 km/h
1031 29-08-2004 07:14:02 14.8 C 11.53 g/m*3 14.8 C 0 km/h
1032 29-08-2004 07:26:01 14.9 C 11.73 g/m*3 14.9 C 0 km/h
1033 29-08-2004 07:38:01 15 C 11.67 g/m*3 15 C 0 km/h
1034 29-08-2004 07:50:01 15.3 C 12.01 g/m*3 15.3 C 0 km/h
1035 29-08-2004 08:02:01 15.7 C 12.31 g/m*3 15.7 C 0 km/h
1036 29-08-2004 08:14:01 16 C 12.4 g/m*3 16 C 0 km/h
1037 29-08-2004 08:26:00 15.9 C 12.46 g/m*3 15.9 C 0 km/h
1038 29-08-2004 08:38:00 16.2 C 12.41 g/m*3 16.2 C 0 km/h
1039 29-08-2004 08:50:01 16.5 C 12.5 g/m*3 16.5 C 0 km/h
1040 29-08-2004 09:02:02 16.8 C 12.58 g/m*3 16.8 C 0 km/h
1041 29-08-2004 09:14:02 17 C 12.3 g/m*3 17 C 0 km/h
1042 29-08-2004 09:26:01 17.5 C 12.37 g/m*3 17.5 C 0 km/h
1043 29-08-2004 09:38:01 18.1 C 12.52 g/m*3 18.1 C 0 km/h
1044 29-08-2004 09:50:01 18.3 C 12.51 g/m*3 18.3 C 0 km/h
1045 29-08-2004 10:02:01 18.5 C 12.5 g/m*3 18.5 C 0 km/h
1046 29-08-2004 10:14:01 18.7 C 12.17 g/m*3 18.7 C 0 km/h
1047 29-08-2004 10:26:00 18.9 C 12.15 g/m*3 18.9 C 0 km/h
1048 29-08-2004 10:38:00 19.2 C 12.04 g/m*3 19.2 C 0 km/h
1049 29-08-2004 10:50:01 19.2 C 11.71 g/m*3 19.2 C 0 km/h
1050 29-08-2004 11:02:01 19.2 C 11.87 g/m*3 19.2 C 0 km/h
Sensor: Nr:Datum:Temp:Abs-Feuchte:Windchill:Wind:
Aussen-T/F 1051 29-08-2004 11:14:01 19.4 C 11.68 g/m*3 19.4 C 0 km/h
1052 29-08-2004 11:26:00 20 C 11.92 g/m*3 20 C 0 km/h
1053 29-08-2004 11:38:00 20 C 11.41 g/m*3 20 C 0 km/h
1054 29-08-2004 11:50:02 20 C 11.23 g/m*3 20 C 0 km/h
1055 29-08-2004 12:02:02 20.8 C 11.59 g/m*3 20.8 C 0 km/h
1056 29-08-2004 12:14:02 20.8 C 11.23 g/m*3 20.8 C 0 km/h
1057 29-08-2004 12:26:01 20.9 C 11.47 g/m*3 20.9 C 0 km/h
1058 29-08-2004 12:38:01 21.5 C 10.75 g/m*3 21.5 C 0 km/h
1059 29-08-2004 12:50:01 21.8 C 9.98 g/m*3 21.8 C 0 km/h
1060 29-08-2004 13:02:01 22.2 C 9.82 g/m*3 22.2 C 0 km/h
1061 29-08-2004 13:14:01 22.5 C 9.79 g/m*3 22.5 C 0 km/h
1062 29-08-2004 13:26:00 22.5 C 9.39 g/m*3 22.5 C 0 km/h
1063 29-08-2004 13:38:00 22.6 C 9.24 g/m*3 22.6 C 0 km/h
1064 29-08-2004 13:50:02 22.9 C 9.61 g/m*3 22.9 C 0 km/h
1065 29-08-2004 14:02:02 22.9 C 9.81 g/m*3 22.9 C 0 km/h
1066 29-08-2004 14:14:02 23.8 C 9.9 g/m*3 23.8 C 0 km/h
1067 29-08-2004 14:26:02 23.3 C 9.62 g/m*3 23.3 C 0 km/h
1068 29-08-2004 14:38:01 22.9 C 9.81 g/m*3 22.9 C 0 km/h
1069 29-08-2004 14:50:01 22.9 C 9.2 g/m*3 22.9 C 0 km/h
1070 29-08-2004 15:02:01 23.1 C 8.89 g/m*3 23.1 C 0 km/h
1071 29-08-2004 15:14:01 23.4 C 9.46 g/m*3 23.4 C 0 km/h
1072 29-08-2004 15:26:00 23.3 C 8.99 g/m*3 23.3 C 0 km/h
1073 29-08-2004 15:38:00 23.1 C 9.72 g/m*3 23.1 C 0 km/h
1074 29-08-2004 15:50:01 22.9 C 9.61 g/m*3 22.9 C 0 km/h
1075 29-08-2004 16:02:01 23.3 C 9.2 g/m*3 23.3 C 0 km/h
Sensor: Nr:Datum:Temp:Abs-Feuchte:Windchill:Wind:
Aussen-T/F 1076 29-08-2004 16:14:01 23.1 C 9.51 g/m*3 23.1 C 0 km/h
1077 29-08-2004 16:26:00 24.3 C 9.52 g/m*3 24.3 C 0 km/h
1078 29-08-2004 16:38:01 23.7 C 9.41 g/m*3 23.7 C 0 km/h
1079 29-08-2004 16:50:01 23.8 C 9.68 g/m*3 23.8 C 0 km/h
1080 29-08-2004 17:02:01 23.1 C 9.51 g/m*3 23.1 C 0 km/h
1081 29-08-2004 17:14:01 23.4 C 9.88 g/m*3 23.4 C 0 km/h
1082 29-08-2004 17:26:01 23.4 C 9.88 g/m*3 23.4 C 0 km/h
1083 29-08-2004 17:38:01 23.3 C 10.04 g/m*3 23.3 C 0 km/h
1084 29-08-2004 17:50:01 22.9 C 10.01 g/m*3 22.9 C 0 km/h
1085 29-08-2004 18:02:02 22.4 C 9.93 g/m*3 22.4 C 0 km/h
1086 29-08-2004 18:14:02 23.5 C 10.15 g/m*3 23.5 C 0 km/h
1087 29-08-2004 18:26:01 23.3 C 10.04 g/m*3 23.3 C 0 km/h
1088 29-08-2004 18:38:00 22.9 C 10.01 g/m*3 22.9 C 0 km/h
1089 29-08-2004 18:50:02 23.1 C 9.92 g/m*3 23.1 C 0 km/h
1090 29-08-2004 19:02:02 22.1 C 9.76 g/m*3 22.1 C 0 km/h
1091 29-08-2004 19:14:02 21.6 C 10.62 g/m*3 21.6 C 0 km/h
1092 29-08-2004 19:26:02 21.1 C 10.5 g/m*3 21.1 C 0 km/h
1093 29-08-2004 19:38:01 20.6 C 10.92 g/m*3 20.6 C 0 km/h
1094 29-08-2004 19:50:01 20 C 10.71 g/m*3 20 C 0 km/h
1095 29-08-2004 20:02:01 19.6 C 10.8 g/m*3 19.6 C 0 km/h
1096 29-08-2004 20:14:01 19.2 C 10.55 g/m*3 19.2 C 0 km/h
1097 29-08-2004 20:26:01 18.7 C 10.73 g/m*3 18.7 C 0 km/h
1098 29-08-2004 20:38:00 18.7 C 10.89 g/m*3 18.7 C 0 km/h
1099 29-08-2004 20:50:01 18.8 C 11.27 g/m*3 18.8 C 0 km/h
1100 29-08-2004 21:02:02 18.7 C 11.37 g/m*3 18.7 C 0 km/h
Sensor: Nr:Datum:Temp:Abs-Feuchte:Windchill:Wind:
Aussen-T/F 1101 29-08-2004 21:14:02 18.8 C 11.43 g/m*3 18.8 C 0 km/h
1102 29-08-2004 21:26:01 18.7 C 11.37 g/m*3 18.7 C 0 km/h
1103 29-08-2004 21:38:01 18.5 C 11.39 g/m*3 18.5 C 0 km/h
1104 29-08-2004 21:50:01 18.3 C 11.26 g/m*3 18.3 C 0 km/h
1105 29-08-2004 22:02:01 18.2 C 11.35 g/m*3 18.2 C 0 km/h
1106 29-08-2004 22:14:01 18.2 C 11.5 g/m*3 18.2 C 0 km/h
1107 29-08-2004 22:26:00 17.9 C 11.45 g/m*3 17.9 C 0 km/h
1108 29-08-2004 22:38:00 17.9 C 11.6 g/m*3 17.9 C 0 km/h
1109 29-08-2004 22:50:01 18 C 11.21 g/m*3 18 C 0 km/h
1110 29-08-2004 23:02:01 18 C 11.37 g/m*3 18 C 0 km/h
1111 29-08-2004 23:14:01 18 C 11.37 g/m*3 18 C 0 km/h
1112 29-08-2004 23:26:00 17.8 C 11.23 g/m*3 17.8 C 0 km/h
1113 29-08-2004 23:38:01 17.7 C 11.32 g/m*3 17.7 C 0 km/h
1114 29-08-2004 23:50:02 17.7 C 11.47 g/m*3 17.7 C 0 km/h
1115 30-08-2004 00:02:02 17.8 C 11.54 g/m*3 17.8 C 0 km/h
1116 30-08-2004 00:14:02 17.9 C 11.45 g/m*3 17.9 C 0 km/h
1117 30-08-2004 00:26:02 17.9 C 11.6 g/m*3 17.9 C 0 km/h
1118 30-08-2004 00:38:01 17.9 C 11.6 g/m*3 17.9 C 0 km/h
1119 30-08-2004 00:50:01 17.8 C 11.38 g/m*3 17.8 C 0 km/h
1120 30-08-2004 01:02:01 17.9 C 11.6 g/m*3 17.9 C 0 km/h
1121 30-08-2004 01:14:01 18 C 11.21 g/m*3 18 C 0 km/h
1122 30-08-2004 01:26:02 18 C 11.21 g/m*3 18 C 0 km/h
1123 30-08-2004 01:38:02 17.8 C 11.23 g/m*3 17.8 C 0 km/h
1124 30-08-2004 01:50:02 17.7 C 11.32 g/m*3 17.7 C 0 km/h
1125 30-08-2004 02:02:02 17.7 C 11.16 g/m*3 17.7 C 0 km/h
Sensor: Nr:Datum:Temp:Abs-Feuchte:Windchill:Wind:
Aussen-T/F 1126 30-08-2004 02:14:02 17.7 C 11.16 g/m*3 17.7 C 0 km/h
1127 30-08-2004 02:26:02 17.6 C 11.1 g/m*3 17.6 C 0 km/h
1128 30-08-2004 02:38:01 17.6 C 11.25 g/m*3 17.6 C 0 km/h
1129 30-08-2004 02:51:03 17.6 C 10.95 g/m*3 17.6 C 0 km/h
1130 30-08-2004 03:03:03 17 C 11.29 g/m*3 17 C 0 km/h
1131 30-08-2004 03:15:03 16.3 C 11.52 g/m*3 16.3 C 0 km/h
1132 30-08-2004 03:27:03 16.1 C 11.65 g/m*3 16.1 C 0 km/h
1133 30-08-2004 03:39:01 15.9 C 11.78 g/m*3 15.9 C 0 km/h
1134 30-08-2004 03:51:01 15.8 C 11.85 g/m*3 15.8 C 0 km/h
1135 30-08-2004 04:03:01 15.8 C 11.85 g/m*3 15.8 C 0 km/h
1136 30-08-2004 04:15:01 16.1 C 11.93 g/m*3 16.1 C 0 km/h
1137 30-08-2004 04:27:01 15.1 C 11.09 g/m*3 15.1 C 0 km/h
1138 30-08-2004 04:39:00 14.7 C 11.08 g/m*3 14.7 C 0 km/h
1139 30-08-2004 04:51:01 14.5 C 11.07 g/m*3 14.5 C 0 km/h
1140 30-08-2004 05:03:02 14.2 C 10.75 g/m*3 14.2 C 0 km/h
1141 30-08-2004 05:15:01 13.9 C 10.55 g/m*3 13.9 C 0 km/h
1142 30-08-2004 05:27:01 13.9 C 10.67 g/m*3 13.9 C 0 km/h
1143 30-08-2004 05:39:01 13.8 C 10.6 g/m*3 13.8 C 0 km/h
1144 30-08-2004 05:51:01 13.6 C 10.47 g/m*3 13.6 C 0 km/h
1145 30-08-2004 06:03:01 13.6 C 10.47 g/m*3 13.6 C 0 km/h
1146 30-08-2004 06:15:01 13.7 C 10.42 g/m*3 13.7 C 0 km/h
1147 30-08-2004 06:27:01 13.6 C 10.24 g/m*3 13.6 C 0 km/h
1148 30-08-2004 06:39:01 13.6 C 10.36 g/m*3 13.6 C 0 km/h
1149 30-08-2004 06:51:01 13.7 C 10.3 g/m*3 13.7 C 0 km/h
1150 30-08-2004 07:03:01 13.7 C 10.18 g/m*3 13.7 C 0 km/h
Sensor: Nr:Datum:Temp:Abs-Feuchte:Windchill:Wind:
Aussen-T/F 1151 30-08-2004 07:15:01 13.7 C 10.18 g/m*3 13.7 C 0 km/h
1152 30-08-2004 07:27:01 13.7 C 10.3 g/m*3 13.7 C 0 km/h
1153 30-08-2004 07:39:01 13.8 C 10.37 g/m*3 13.8 C 0 km/h
1154 30-08-2004 07:51:02 13.8 C 10.37 g/m*3 13.8 C 0 km/h
1155 30-08-2004 08:03:02 14 C 10.25 g/m*3 14 C 0 km/h
1156 30-08-2004 08:15:01 14.2 C 10.26 g/m*3 14.2 C 0 km/h
1157 30-08-2004 08:27:01 14.4 C 10.14 g/m*3 14.4 C 0 km/h
1158 30-08-2004 08:39:01 14.4 C 10.14 g/m*3 14.4 C 0 km/h
1159 30-08-2004 08:51:01 14.6 C 10.01 g/m*3 14.6 C 0 km/h
1160 30-08-2004 09:03:01 14.8 C 10.01 g/m*3 14.8 C 0 km/h
1161 30-08-2004 09:15:01 14.9 C 10.07 g/m*3 14.9 C 0 km/h
1162 30-08-2004 09:27:01 15 C 10 g/m*3 15 C 0 km/h
1163 30-08-2004 09:39:00 15.2 C 9.86 g/m*3 15.2 C 0 km/h
1164 30-08-2004 09:51:02 15.3 C 9.92 g/m*3 15.3 C 0 km/h
1165 30-08-2004 10:03:02 15.6 C 10.11 g/m*3 15.6 C 0 km/h
1166 30-08-2004 10:15:02 15.9 C 10.16 g/m*3 15.9 C 0 km/h
1167 30-08-2004 10:27:02 16 C 9.81 g/m*3 16 C 0 km/h
1168 30-08-2004 10:39:01 16 C 9.81 g/m*3 16 C 0 km/h
1169 30-08-2004 10:51:02 16.1 C 10.01 g/m*3 16.1 C 0 km/h
1170 30-08-2004 11:03:01 16.8 C 10.29 g/m*3 16.8 C 0 km/h
1171 30-08-2004 11:15:00 16.5 C 9.97 g/m*3 16.5 C 0 km/h
1172 30-08-2004 11:27:00 16.2 C 9.93 g/m*3 16.2 C 0 km/h
1173 30-08-2004 11:39:00 14.7 C 10.2 g/m*3 14.7 C 0 km/h
1174 30-08-2004 11:51:01 14.1 C 9.95 g/m*3 14.1 C 0 km/h
1175 30-08-2004 12:03:01 14.4 C 10.26 g/m*3 14.4 C 0 km/h
Sensor: Nr:Datum:Temp:Abs-Feuchte:Windchill:Wind:
Aussen-T/F 1176 30-08-2004 12:15:02 15 C 10.64 g/m*3 15 C 0 km/h
1177 30-08-2004 12:27:02 16.1 C 11.51 g/m*3 16.1 C 0 km/h
1178 30-08-2004 12:39:01 16.8 C 11.15 g/m*3 16.8 C 0 km/h
1179 30-08-2004 12:51:01 17.8 C 10.62 g/m*3 17.8 C 0 km/h
1180 30-08-2004 13:03:01 18.3 C 10.16 g/m*3 18.3 C 0 km/h
1181 30-08-2004 13:15:00 18.5 C 9.97 g/m*3 18.5 C 0 km/h
1182 30-08-2004 13:27:00 17.6 C 9.45 g/m*3 17.6 C 0 km/h
1183 30-08-2004 13:39:00 18.7 C 9.77 g/m*3 18.7 C 0 km/h
1184 30-08-2004 13:51:01 18.5 C 9.49 g/m*3 18.5 C 0 km/h
1185 30-08-2004 14:03:01 17.1 C 9.75 g/m*3 17.1 C 0 km/h
1186 30-08-2004 14:15:00 15.7 C 10.44 g/m*3 15.7 C 0 km/h
1187 30-08-2004 14:27:00 16.2 C 10.76 g/m*3 16.2 C 0 km/h
1188 30-08-2004 14:39:01 17.6 C 10.8 g/m*3 17.6 C 0 km/h
1189 30-08-2004 14:51:02 18.6 C 10.5 g/m*3 18.6 C 0 km/h
1190 30-08-2004 15:03:02 19.3 C 9.95 g/m*3 19.3 C 0 km/h
1191 30-08-2004 15:15:01 18.4 C 9.44 g/m*3 18.4 C 0 km/h
1192 30-08-2004 15:27:01 15.7 C 10.17 g/m*3 15.7 C 0 km/h
1193 30-08-2004 15:39:01 14.7 C 10.2 g/m*3 14.7 C 0 km/h
1194 30-08-2004 15:51:01 14 C 10.13 g/m*3 14 C 0 km/h
1195 30-08-2004 16:03:01 13.9 C 10.55 g/m*3 13.9 C 0 km/h
1196 30-08-2004 16:15:00 15.5 C 11.37 g/m*3 15.5 C 0 km/h
1197 30-08-2004 16:27:00 17.2 C 11.57 g/m*3 17.2 C 0 km/h
1198 30-08-2004 16:39:00 18.4 C 11.48 g/m*3 18.4 C 0 km/h
1199 30-08-2004 16:51:01 19.5 C 11.92 g/m*3 19.5 C 0 km/h
1200 30-08-2004 17:03:02 19.1 C 9.67 g/m*3 19.1 C 0 km/h
Sensor: Nr:Datum:Temp:Abs-Feuchte:Windchill:Wind:
Aussen-T/F 1201 30-08-2004 17:15:02 18.8 C 10.15 g/m*3 18.8 C 0 km/h
1202 30-08-2004 17:27:02 17.6 C 9.6 g/m*3 17.6 C 0 km/h
1203 30-08-2004 17:39:01 17.6 C 9.9 g/m*3 17.6 C 0 km/h
1204 30-08-2004 17:51:01 17.4 C 9.78 g/m*3 17.4 C 0 km/h
1205 30-08-2004 18:03:01 15.7 C 10.03 g/m*3 15.7 C 0 km/h
1206 30-08-2004 18:15:01 15.5 C 10.31 g/m*3 15.5 C 0 km/h
1207 30-08-2004 18:27:01 15.9 C 10.02 g/m*3 15.9 C 0 km/h
1208 30-08-2004 18:39:01 16.2 C 9.79 g/m*3 16.2 C 0 km/h
1209 30-08-2004 18:51:01 16 C 9.67 g/m*3 16 C 0 km/h
1210 30-08-2004 19:03:01 16.3 C 10.13 g/m*3 16.3 C 0 km/h
1211 30-08-2004 19:15:01 16.4 C 10.05 g/m*3 16.4 C 0 km/h
1212 30-08-2004 19:27:01 17.2 C 10.1 g/m*3 17.2 C 0 km/h
1213 30-08-2004 19:39:01 17 C 9.26 g/m*3 17 C 0 km/h
1214 30-08-2004 19:51:02 16.4 C 9.21 g/m*3 16.4 C 0 km/h
1215 30-08-2004 20:03:02 15.7 C 9.23 g/m*3 15.7 C 0 km/h
1216 30-08-2004 20:15:01 15.3 C 9.27 g/m*3 15.3 C 0 km/h
1217 30-08-2004 20:27:01 15 C 9.36 g/m*3 15 C 0 km/h
1218 30-08-2004 20:39:01 14.9 C 9.43 g/m*3 14.9 C 0 km/h
1219 30-08-2004 20:51:01 14.8 C 9.37 g/m*3 14.8 C 0 km/h
1220 30-08-2004 21:03:02 14.7 C 9.57 g/m*3 14.7 C 0 km/h
1221 30-08-2004 21:15:00 14.4 C 9.64 g/m*3 14.4 C 0 km/h
1222 30-08-2004 21:27:00 14.3 C 9.71 g/m*3 14.3 C 0 km/h
1223 30-08-2004 21:39:00 14.4 C 9.77 g/m*3 14.4 C 0 km/h
1224 30-08-2004 21:51:02 14.4 C 9.77 g/m*3 14.4 C 0 km/h
1225 30-08-2004 22:03:02 14.5 C 9.83 g/m*3 14.5 C 0 km/h
Sensor: Nr:Datum:Temp:Abs-Feuchte:Windchill:Wind:
Aussen-T/F 1226 30-08-2004 22:15:02 14.4 C 9.89 g/m*3 14.4 C 0 km/h
1227 30-08-2004 22:27:02 14.3 C 9.83 g/m*3 14.3 C 0 km/h
1228 30-08-2004 22:39:01 14.4 C 9.77 g/m*3 14.4 C 0 km/h
1229 30-08-2004 22:51:01 14.2 C 10.01 g/m*3 14.2 C 0 km/h
1230 30-08-2004 23:03:01 14.1 C 10.07 g/m*3 14.1 C 0 km/h
1231 30-08-2004 23:15:01 13.5 C 10.18 g/m*3 13.5 C 0 km/h
1232 30-08-2004 23:27:01 12.8 C 9.86 g/m*3 12.8 C 0 km/h
1233 30-08-2004 23:39:00 12.8 C 10.08 g/m*3 12.8 C 0 km/h
1234 30-08-2004 23:51:01 12.9 C 10.26 g/m*3 12.9 C 0 km/h
1235 31-08-2004 00:03:01 13 C 10.32 g/m*3 13 C 0 km/h
1236 31-08-2004 00:15:02 12.8 C 10.3 g/m*3 12.8 C 0 km/h
1237 31-08-2004 00:27:03 12.6 C 9.96 g/m*3 12.6 C 0 km/h
1238 31-08-2004 00:39:01 12.4 C 9.72 g/m*3 12.4 C 0 km/h
1239 31-08-2004 00:51:02 12.2 C 9.5 g/m*3 12.2 C 0 km/h
1240 31-08-2004 01:03:01 11.9 C 9.43 g/m*3 11.9 C 0 km/h
1241 31-08-2004 01:15:02 11.7 C 9.31 g/m*3 11.7 C 0 km/h
1242 31-08-2004 01:27:02 11.7 C 9.31 g/m*3 11.7 C 0 km/h
1243 31-08-2004 01:39:02 11.6 C 9.25 g/m*3 11.6 C 0 km/h
1244 31-08-2004 01:51:01 11.5 C 9.19 g/m*3 11.5 C 0 km/h
1245 31-08-2004 02:03:01 11.5 C 9.09 g/m*3 11.5 C 0 km/h
1246 31-08-2004 02:15:01 11.5 C 9.09 g/m*3 11.5 C 0 km/h
1247 31-08-2004 02:27:01 11.4 C 8.93 g/m*3 11.4 C 0 km/h
1248 31-08-2004 02:39:00 11.4 C 8.93 g/m*3 11.4 C 0 km/h
1249 31-08-2004 02:52:03 11.3 C 8.87 g/m*3 11.3 C 0 km/h
1250 31-08-2004 03:04:03 11.4 C 8.83 g/m*3 11.4 C 0 km/h
Sensor: Nr:Datum:Temp:Abs-Feuchte:Windchill:Wind:
Aussen-T/F 1251 31-08-2004 03:16:03 11.3 C 8.87 g/m*3 11.3 C 0 km/h
1252 31-08-2004 03:28:03 11.1 C 8.86 g/m*3 11.1 C 0 km/h
1253 31-08-2004 03:40:01 11.3 C 8.98 g/m*3 11.3 C 0 km/h
1254 31-08-2004 03:52:01 11.6 C 9.04 g/m*3 11.6 C 0 km/h
1255 31-08-2004 04:04:01 11.9 C 8.9 g/m*3 11.9 C 0 km/h
1256 31-08-2004 04:16:01 12.2 C 8.85 g/m*3 12.2 C 0 km/h
1257 31-08-2004 04:28:01 12 C 8.74 g/m*3 12 C 0 km/h
1258 31-08-2004 04:40:00 11.6 C 8.83 g/m*3 11.6 C 0 km/h
1259 31-08-2004 04:52:02 11.4 C 8.83 g/m*3 11.4 C 0 km/h
1260 31-08-2004 05:04:02 11.2 C 8.82 g/m*3 11.2 C 0 km/h
1261 31-08-2004 05:16:01 11.3 C 8.87 g/m*3 11.3 C 0 km/h
1262 31-08-2004 05:28:01 11.2 C 8.82 g/m*3 11.2 C 0 km/h
1263 31-08-2004 05:40:01 11.4 C 8.93 g/m*3 11.4 C 0 km/h
1264 31-08-2004 05:52:01 11.4 C 8.83 g/m*3 11.4 C 0 km/h
1265 31-08-2004 06:04:01 11.4 C 8.72 g/m*3 11.4 C 0 km/h
1266 31-08-2004 06:16:00 11.5 C 8.78 g/m*3 11.5 C 0 km/h
1267 31-08-2004 06:28:00 11.5 C 8.68 g/m*3 11.5 C 0 km/h
1268 31-08-2004 06:40:00 11.6 C 8.63 g/m*3 11.6 C 0 km/h
1269 31-08-2004 06:52:01 11.6 C 8.63 g/m*3 11.6 C 0 km/h
1270 31-08-2004 07:04:02 11.5 C 8.57 g/m*3 11.5 C 0 km/h
1271 31-08-2004 07:16:01 11.4 C 8.52 g/m*3 11.4 C 0 km/h
1272 31-08-2004 07:28:01 11.6 C 8.63 g/m*3 11.6 C 0 km/h
1273 31-08-2004 07:40:01 11.8 C 8.63 g/m*3 11.8 C 0 km/h
1274 31-08-2004 07:52:01 12 C 8.53 g/m*3 12 C 0 km/h
1275 31-08-2004 08:04:01 12.3 C 8.58 g/m*3 12.3 C 0 km/h
Sensor: Nr:Datum:Temp:Abs-Feuchte:Windchill:Wind:
Aussen-T/F 1276 31-08-2004 08:16:01 12.4 C 8.74 g/m*3 12.4 C 0 km/h
1277 31-08-2004 08:28:01 12.5 C 8.69 g/m*3 12.5 C 0 km/h
1278 31-08-2004 08:40:00 12.5 C 8.69 g/m*3 12.5 C 0 km/h
1279 31-08-2004 08:52:01 12.5 C 8.69 g/m*3 12.5 C 0 km/h
1280 31-08-2004 09:04:02 12.8 C 8.85 g/m*3 12.8 C 0 km/h
1281 31-08-2004 09:16:01 12.9 C 8.9 g/m*3 12.9 C 0 km/h
1282 31-08-2004 09:28:01 13.1 C 8.9 g/m*3 13.1 C 0 km/h
1283 31-08-2004 09:40:01 13.9 C 9.11 g/m*3 13.9 C 0 km/h
1284 31-08-2004 09:52:01 14.4 C 9.02 g/m*3 14.4 C 0 km/h
1285 31-08-2004 10:04:01 14.7 C 9.19 g/m*3 14.7 C 0 km/h
1286 31-08-2004 10:16:01 14.5 C 9.08 g/m*3 14.5 C 0 km/h
1287 31-08-2004 10:28:01 15 C 9.23 g/m*3 15 C 0 km/h
1288 31-08-2004 10:40:00 15.2 C 9.09 g/m*3 15.2 C 0 km/h
1289 31-08-2004 10:52:01 15.5 C 9.25 g/m*3 15.5 C 0 km/h
1290 31-08-2004 11:04:01 15.6 C 9.18 g/m*3 15.6 C 0 km/h
1291 31-08-2004 11:16:00 16.2 C 9.24 g/m*3 16.2 C 0 km/h
1292 31-08-2004 11:28:00 16.6 C 9.32 g/m*3 16.6 C 0 km/h
1293 31-08-2004 11:40:00 16.9 C 9.21 g/m*3 16.9 C 0 km/h
1294 31-08-2004 11:52:02 16.9 C 8.77 g/m*3 16.9 C 0 km/h
1295 31-08-2004 12:04:02 16.9 C 8.49 g/m*3 16.9 C 0 km/h
1296 31-08-2004 12:16:01 17.1 C 8.3 g/m*3 17.1 C 0 km/h
1297 31-08-2004 12:28:01 17.2 C 8.2 g/m*3 17.2 C 0 km/h
1298 31-08-2004 12:40:01 16.8 C 9.01 g/m*3 16.8 C 0 km/h
1299 31-08-2004 12:52:01 17.1 C 8.59 g/m*3 17.1 C 0 km/h
1300 31-08-2004 13:04:01 17.7 C 8.9 g/m*3 17.7 C 0 km/h
Sensor: Nr:Datum:Temp:Abs-Feuchte:Windchill:Wind:
Aussen-T/F 1301 31-08-2004 13:16:00 18.3 C 8.29 g/m*3 18.3 C 0 km/h
1302 31-08-2004 13:28:00 17.8 C 8.65 g/m*3 17.8 C 0 km/h
1303 31-08-2004 13:40:00 17.7 C 9.05 g/m*3 17.7 C 0 km/h
1304 31-08-2004 13:52:02 17.7 C 8.3 g/m*3 17.7 C 0 km/h
1305 31-08-2004 14:04:02 17.4 C 7.85 g/m*3 17.4 C 0 km/h
1306 31-08-2004 14:16:01 17.5 C 8.35 g/m*3 17.5 C 0 km/h
1307 31-08-2004 14:28:01 18.5 C 8.07 g/m*3 18.5 C 0 km/h
1308 31-08-2004 14:40:01 18.9 C 8.75 g/m*3 18.9 C 0 km/h
1309 31-08-2004 14:52:01 19.7 C 8.32 g/m*3 19.7 C 0 km/h
1310 31-08-2004 15:04:01 19.5 C 7.89 g/m*3 19.5 C 0 km/h
1311 31-08-2004 15:16:00 19 C 7.82 g/m*3 19 C 0 km/h
1312 31-08-2004 15:28:00 18.8 C 9.34 g/m*3 18.8 C 0 km/h
1313 31-08-2004 15:40:00 18.8 C 9.5 g/m*3 18.8 C 0 km/h
1314 31-08-2004 15:52:01 18.1 C 9.27 g/m*3 18.1 C 0 km/h
1315 31-08-2004 16:04:01 18.6 C 8.12 g/m*3 18.6 C 0 km/h
1316 31-08-2004 16:16:01 19.2 C 7.91 g/m*3 19.2 C 0 km/h
1317 31-08-2004 16:28:01 19.1 C 7.87 g/m*3 19.1 C 0 km/h
1318 31-08-2004 16:40:01 18.8 C 8.7 g/m*3 18.8 C 0 km/h
1319 31-08-2004 16:52:01 18.7 C 7.84 g/m*3 18.7 C 0 km/h
1320 31-08-2004 17:04:01 18.9 C 8.26 g/m*3 18.9 C 0 km/h
1321 31-08-2004 17:16:00 19.3 C 8.63 g/m*3 19.3 C 0 km/h
1322 31-08-2004 17:28:00 19.6 C 8.61 g/m*3 19.6 C 0 km/h
1323 31-08-2004 17:40:00 19.1 C 8.03 g/m*3 19.1 C 0 km/h
1324 31-08-2004 17:52:01 19.4 C 8.01 g/m*3 19.4 C 0 km/h
1325 31-08-2004 18:04:02 19.2 C 7.59 g/m*3 19.2 C 0 km/h
Sensor: Nr:Datum:Temp:Abs-Feuchte:Windchill:Wind:
Aussen-T/F 1326 31-08-2004 18:16:01 18.9 C 7.29 g/m*3 18.9 C 0 km/h
1327 31-08-2004 18:28:01 19.4 C 7.84 g/m*3 19.4 C 0 km/h
1328 31-08-2004 18:40:01 19.1 C 8.36 g/m*3 19.1 C 0 km/h
1329 31-08-2004 18:52:01 18.4 C 8.18 g/m*3 18.4 C 0 km/h
1330 31-08-2004 19:04:01 18 C 7.68 g/m*3 18 C 0 km/h
1331 31-08-2004 19:16:00 17.4 C 7.71 g/m*3 17.4 C 0 km/h
1332 31-08-2004 19:28:00 17.2 C 7.91 g/m*3 17.2 C 0 km/h
1333 31-08-2004 19:40:00 16.4 C 8.1 g/m*3 16.4 C 0 km/h
1334 31-08-2004 19:52:01 16.3 C 8.19 g/m*3 16.3 C 0 km/h
1335 31-08-2004 20:04:01 16.1 C 7.68 g/m*3 16.1 C 0 km/h
1336 31-08-2004 20:16:01 15.9 C 7.85 g/m*3 15.9 C 0 km/h
1337 31-08-2004 20:28:01 15.8 C 8.21 g/m*3 15.8 C 0 km/h
1338 31-08-2004 20:40:01 15.8 C 8.08 g/m*3 15.8 C 0 km/h
1339 31-08-2004 20:52:02 15.7 C 8.16 g/m*3 15.7 C 0 km/h
1340 31-08-2004 21:04:02 15.8 C 8.08 g/m*3 15.8 C 0 km/h
1341 31-08-2004 21:16:03 15.7 C 8.16 g/m*3 15.7 C 0 km/h
1342 31-08-2004 21:28:03 15.6 C 8.51 g/m*3 15.6 C 0 km/h
1343 31-08-2004 21:40:02 15.3 C 8.62 g/m*3 15.3 C 0 km/h
1344 31-08-2004 21:52:02 15.1 C 8.64 g/m*3 15.1 C 0 km/h
1345 31-08-2004 22:04:01 14.9 C 8.54 g/m*3 14.9 C 0 km/h
1346 31-08-2004 22:16:02 14.8 C 8.74 g/m*3 14.8 C 0 km/h
1347 31-08-2004 22:28:02 14.7 C 8.81 g/m*3 14.7 C 0 km/h
1348 31-08-2004 22:40:02 14.5 C 8.95 g/m*3 14.5 C 0 km/h
1349 31-08-2004 22:52:01 14.2 C 8.91 g/m*3 14.2 C 0 km/h
1350 31-08-2004 23:04:01 13.8 C 8.82 g/m*3 13.8 C 0 km/h
Sensor: Nr:Datum:Temp:Abs-Feuchte:Windchill:Wind:
Aussen-T/F 1351 31-08-2004 23:16:01 13.5 C 8.66 g/m*3 13.5 C 0 km/h
1352 31-08-2004 23:28:01 13.3 C 8.55 g/m*3 13.3 C 0 km/h
1353 31-08-2004 23:40:00 13.1 C 8.79 g/m*3 13.1 C 0 km/h
1354 31-08-2004 23:52:01 13 C 8.73 g/m*3 13 C 0 km/h
1355 01-09-2004 00:04:01 12.7 C 8.68 g/m*3 12.7 C 0 km/h
1356 01-09-2004 00:16:01 12.6 C 8.63 g/m*3 12.6 C 0 km/h
1357 01-09-2004 00:28:01 12.3 C 8.47 g/m*3 12.3 C 0 km/h
1358 01-09-2004 00:40:01 12.1 C 8.36 g/m*3 12.1 C 0 km/h
1359 01-09-2004 00:52:01 11.9 C 8.58 g/m*3 11.9 C 0 km/h
1360 01-09-2004 01:04:01 11.7 C 8.47 g/m*3 11.7 C 0 km/h
1361 01-09-2004 01:16:01 11.5 C 8.37 g/m*3 11.5 C 0 km/h
1362 01-09-2004 01:28:01 11.1 C 8.16 g/m*3 11.1 C 0 km/h
1363 01-09-2004 01:40:01 11 C 8.21 g/m*3 11 C 0 km/h
1364 01-09-2004 01:52:01 11 C 8.31 g/m*3 11 C 0 km/h
1365 01-09-2004 02:04:02 10.8 C 8.3 g/m*3 10.8 C 0 km/h
1366 01-09-2004 02:16:02 10.8 C 8.4 g/m*3 10.8 C 0 km/h
1367 01-09-2004 02:28:02 10.5 C 8.34 g/m*3 10.5 C 0 km/h
1368 01-09-2004 02:40:01 10.2 C 8.18 g/m*3 10.2 C 0 km/h
1369 01-09-2004 02:53:02 10.2 C 8.18 g/m*3 10.2 C 0 km/h
1370 01-09-2004 03:05:02 10.1 C 8.23 g/m*3 10.1 C 0 km/h
1371 01-09-2004 03:17:02 10 C 8.17 g/m*3 10 C 0 km/h
1372 01-09-2004 03:29:02 9.8 C 8.16 g/m*3 9.8 C 0 km/h
1373 01-09-2004 03:41:02 9.7 C 8.2 g/m*3 9.7 C 0 km/h
1374 01-09-2004 03:53:02 9.8 C 8.26 g/m*3 9.8 C 0 km/h
1375 01-09-2004 04:05:02 9.8 C 8.35 g/m*3 9.8 C 0 km/h
Sensor: Nr:Datum:Temp:Abs-Feuchte:Windchill:Wind:
Aussen-T/F 1376 01-09-2004 04:17:01 9.8 C 8.35 g/m*3 9.8 C 0 km/h
1377 01-09-2004 04:29:01 10 C 8.36 g/m*3 10 C 0 km/h
1378 01-09-2004 04:41:01 10 C 8.36 g/m*3 10 C 0 km/h
1379 01-09-2004 04:53:01 10 C 8.36 g/m*3 10 C 0 km/h
1380 01-09-2004 05:05:01 9.8 C 8.35 g/m*3 9.8 C 0 km/h
1381 01-09-2004 05:17:00 9.9 C 8.4 g/m*3 9.9 C 0 km/h
1382 01-09-2004 05:29:00 10 C 8.36 g/m*3 10 C 0 km/h
1383 01-09-2004 05:41:00 10 C 8.36 g/m*3 10 C 0 km/h
1384 01-09-2004 05:53:02 10 C 8.36 g/m*3 10 C 0 km/h
1385 01-09-2004 06:05:02 10 C 8.36 g/m*3 10 C 0 km/h
1386 01-09-2004 06:17:01 10 C 8.46 g/m*3 10 C 0 km/h
1387 01-09-2004 06:29:01 9.8 C 8.44 g/m*3 9.8 C 0 km/h
1388 01-09-2004 06:41:01 9.8 C 8.44 g/m*3 9.8 C 0 km/h
1389 01-09-2004 06:53:01 9.8 C 8.54 g/m*3 9.8 C 0 km/h
1390 01-09-2004 07:05:01 9.9 C 8.59 g/m*3 9.9 C 0 km/h
1391 01-09-2004 07:17:00 9.9 C 8.59 g/m*3 9.9 C 0 km/h
1392 01-09-2004 07:29:00 9.8 C 8.44 g/m*3 9.8 C 0 km/h
1393 01-09-2004 07:41:01 10 C 8.46 g/m*3 10 C 0 km/h
1394 01-09-2004 07:53:01 10.3 C 8.71 g/m*3 10.3 C 0 km/h
1395 01-09-2004 08:05:02 10.6 C 8.88 g/m*3 10.6 C 0 km/h
1396 01-09-2004 08:17:01 11 C 9.11 g/m*3 11 C 0 km/h
1397 01-09-2004 08:29:01 11.3 C 9.18 g/m*3 11.3 C 0 km/h
1398 01-09-2004 08:41:01 11.7 C 9.31 g/m*3 11.7 C 0 km/h
1399 01-09-2004 08:53:01 12.1 C 9.33 g/m*3 12.1 C 0 km/h
1400 01-09-2004 09:05:01 12.2 C 8.96 g/m*3 12.2 C 0 km/h
Sensor: Nr:Datum:Temp:Abs-Feuchte:Windchill:Wind:
Aussen-T/F 1401 01-09-2004 09:17:00 12.6 C 9.07 g/m*3 12.6 C 0 km/h
1402 01-09-2004 09:29:00 13 C 8.96 g/m*3 13 C 0 km/h
1403 01-09-2004 09:41:00 13.5 C 9.12 g/m*3 13.5 C 0 km/h
1404 01-09-2004 09:53:01 13.2 C 8.84 g/m*3 13.2 C 0 km/h
1405 01-09-2004 10:05:01 13.2 C 8.96 g/m*3 13.2 C 0 km/h
1406 01-09-2004 10:17:01 13.6 C 9.3 g/m*3 13.6 C 0 km/h
1407 01-09-2004 10:29:01 14.8 C 9.75 g/m*3 14.8 C 0 km/h
1408 01-09-2004 10:41:01 15.4 C 9.72 g/m*3 15.4 C 0 km/h
1409 01-09-2004 10:53:02 15.4 C 9.72 g/m*3 15.4 C 0 km/h
1410 01-09-2004 11:05:02 16 C 9.95 g/m*3 16 C 0 km/h
1411 01-09-2004 11:17:01 16.2 C 9.79 g/m*3 16.2 C 0 km/h
1412 01-09-2004 11:29:01 17 C 9.84 g/m*3 17 C 0 km/h
1413 01-09-2004 11:41:01 17.7 C 9.66 g/m*3 17.7 C 0 km/h
1414 01-09-2004 11:53:01 17.8 C 9.41 g/m*3 17.8 C 0 km/h
1415 01-09-2004 12:05:01 18.6 C 9.39 g/m*3 18.6 C 0 km/h
1416 01-09-2004 12:17:56 19.1 C 9.34 g/m*3 19.1 C 0 km/h
1417 01-09-2004 12:29:56 19.3 C 8.46 g/m*3 19.3 C 0 km/h
1418 01-09-2004 12:41:56 19.9 C 8.08 g/m*3 19.9 C 0 km/h
1419 01-09-2004 12:53:56 20.8 C 7.79 g/m*3 20.8 C 0 km/h
1420 01-09-2004 13:05:56 20.8 C 7.97 g/m*3 20.8 C 0 km/h
1421 01-09-2004 13:17:56 21.2 C 9.27 g/m*3 21.2 C 0 km/h
1422 01-09-2004 13:29:56 21.2 C 9.27 g/m*3 21.2 C 0 km/h
1423 01-09-2004 13:41:57 21 C 9.53 g/m*3 21 C 0 km/h
1424 01-09-2004 13:53:57 21.2 C 9.82 g/m*3 21.2 C 0 km/h
1425 01-09-2004 14:05:57 22.2 C 8.44 g/m*3 22.2 C 0 km/h
Sensor: Nr:Datum:Temp:Abs-Feuchte:Windchill:Wind:
Aussen-T/F 1426 01-09-2004 14:17:57 22 C 7.96 g/m*3 22 C 0 km/h
1427 01-09-2004 14:29:57 22.9 C 8.17 g/m*3 22.9 C 0 km/h
1428 01-09-2004 14:41:57 22.7 C 8.69 g/m*3 22.7 C 0 km/h
1429 01-09-2004 14:53:57 22.5 C 8.59 g/m*3 22.5 C 0 km/h
1430 01-09-2004 15:05:57 22.8 C 8.13 g/m*3 22.8 C 0 km/h
1431 01-09-2004 15:17:57 23.5 C 8.04 g/m*3 23.5 C 0 km/h
1432 01-09-2004 15:29:57 23.9 C 8.44 g/m*3 23.9 C 0 km/h
1433 01-09-2004 15:41:57 24.6 C 8.1 g/m*3 24.6 C 0 km/h
1434 01-09-2004 15:53:57 25.7 C 7.42 g/m*3 25.7 C 0 km/h
1435 01-09-2004 16:05:57 25.3 C 7.26 g/m*3 25.3 C 0 km/h
1436 01-09-2004 16:17:57 25.4 C 7.3 g/m*3 25.4 C 0 km/h
1437 01-09-2004 16:29:57 26 C 8.03 g/m*3 26 C 0 km/h
1438 01-09-2004 16:41:57 26.4 C 7.47 g/m*3 26.4 C 0 km/h
1439 01-09-2004 16:53:57 26.7 C 7.34 g/m*3 26.7 C 0 km/h
1440 01-09-2004 17:05:57 25.9 C 6.78 g/m*3 25.9 C 0 km/h
1441 01-09-2004 17:17:57 25.9 C 8.23 g/m*3 25.9 C 0 km/h
1442 01-09-2004 17:29:57 26 C 6.82 g/m*3 26 C 0 km/h
1443 01-09-2004 17:41:57 26.5 C 7.76 g/m*3 26.5 C 0 km/h
1444 01-09-2004 17:53:01 26.3 C 7.18 g/m*3 26.3 C 0 km/h
1445 01-09-2004 18:05:01 26.4 C 6.97 g/m*3 26.4 C 0 km/h
1446 01-09-2004 18:17:01 26 C 7.79 g/m*3 26 C 0 km/h
1447 01-09-2004 18:29:01 26.2 C 8.62 g/m*3 26.2 C 0 km/h
1448 01-09-2004 18:41:01 24.5 C 8.95 g/m*3 24.5 C 0 km/h
1449 01-09-2004 18:53:01 22.3 C 9.08 g/m*3 22.3 C 0 km/h
1450 01-09-2004 19:05:00 20.4 C 8.85 g/m*3 20.4 C 0 km/h
Sensor: Nr:Datum:Temp:Abs-Feuchte:Windchill:Wind:
Aussen-T/F 1451 01-09-2004 19:17:00 19.5 C 9.06 g/m*3 19.5 C 0 km/h
1452 01-09-2004 19:29:00 19.3 C 8.96 g/m*3 19.3 C 0 km/h
1453 01-09-2004 19:41:00 18.9 C 9.07 g/m*3 18.9 C 0 km/h
1454 01-09-2004 19:53:00 18.4 C 8.81 g/m*3 18.4 C 0 km/h
1455 01-09-2004 20:05:01 17.7 C 8.6 g/m*3 17.7 C 0 km/h
1456 01-09-2004 20:17:01 17 C 8.39 g/m*3 17 C 0 km/h
1457 01-09-2004 20:29:01 16.3 C 8.32 g/m*3 16.3 C 0 km/h
1458 01-09-2004 20:41:01 15.8 C 8.35 g/m*3 15.8 C 0 km/h
1459 01-09-2004 20:53:01 15.6 C 8.25 g/m*3 15.6 C 0 km/h
1460 01-09-2004 21:05:01 15.4 C 8.41 g/m*3 15.4 C 0 km/h
1461 01-09-2004 21:17:01 15.2 C 8.44 g/m*3 15.2 C 0 km/h
1462 01-09-2004 21:29:01 15.2 C 8.44 g/m*3 15.2 C 0 km/h
1463 01-09-2004 21:41:00 14.9 C 8.54 g/m*3 14.9 C 0 km/h
1464 01-09-2004 21:53:00 14.7 C 8.44 g/m*3 14.7 C 0 km/h
1465 01-09-2004 22:05:00 14.5 C 8.21 g/m*3 14.5 C 0 km/h
1466 01-09-2004 22:17:00 14.3 C 8.35 g/m*3 14.3 C 0 km/h
1467 01-09-2004 22:29:00 14.2 C 8.43 g/m*3 14.2 C 0 km/h
1468 01-09-2004 22:41:00 14 C 8.2 g/m*3 14 C 0 km/h
1469 01-09-2004 22:53:00 13.8 C 8.34 g/m*3 13.8 C 0 km/h
1470 01-09-2004 23:05:00 13.6 C 8.47 g/m*3 13.6 C 0 km/h
1471 01-09-2004 23:17:00 13.4 C 8.37 g/m*3 13.4 C 0 km/h
1472 01-09-2004 23:29:00 13.3 C 8.66 g/m*3 13.3 C 0 km/h
1473 01-09-2004 23:41:00 13.2 C 8.73 g/m*3 13.2 C 0 km/h
1474 01-09-2004 23:53:00 13 C 8.62 g/m*3 13 C 0 km/h
1475 02-09-2004 00:05:01 12.7 C 8.46 g/m*3 12.7 C 0 km/h
Sensor: Nr:Datum:Temp:Abs-Feuchte:Windchill:Wind:
Aussen-T/F 1476 02-09-2004 00:17:01 12.5 C 8.36 g/m*3 12.5 C 0 km/h
1477 02-09-2004 00:29:01 12.4 C 8.41 g/m*3 12.4 C 0 km/h
1478 02-09-2004 00:41:00 12.2 C 8.42 g/m*3 12.2 C 0 km/h
1479 02-09-2004 00:53:00 12.1 C 8.36 g/m*3 12.1 C 0 km/h
1480 02-09-2004 01:05:00 12 C 8.53 g/m*3 12 C 0 km/h
1481 02-09-2004 01:17:00 11.9 C 8.58 g/m*3 11.9 C 0 km/h
1482 02-09-2004 01:29:00 11.7 C 8.58 g/m*3 11.7 C 0 km/h
1483 02-09-2004 01:41:00 11.7 C 8.58 g/m*3 11.7 C 0 km/h
1484 02-09-2004 01:53:00 11.5 C 8.57 g/m*3 11.5 C 0 km/h
1485 02-09-2004 02:05:00 11.4 C 8.52 g/m*3 11.4 C 0 km/h
1486 02-09-2004 02:17:59 11.2 C 8.41 g/m*3 11.2 C 0 km/h
1487 02-09-2004 02:29:59 11 C 8.31 g/m*3 11 C 0 km/h
1488 02-09-2004 02:40:59 10.7 C 8.25 g/m*3 10.7 C 0 km/h
1489 02-09-2004 02:54:01 10.5 C 8.15 g/m*3 10.5 C 0 km/h
1490 02-09-2004 03:06:01 10.3 C 8.14 g/m*3 10.3 C 0 km/h
1491 02-09-2004 03:18:01 10.2 C 8.09 g/m*3 10.2 C 0 km/h
1492 02-09-2004 03:30:01 10.1 C 8.13 g/m*3 10.1 C 0 km/h
1493 02-09-2004 03:42:01 10 C 8.08 g/m*3 10 C 0 km/h
1494 02-09-2004 03:54:01 9.8 C 8.07 g/m*3 9.8 C 0 km/h
1495 02-09-2004 04:06:01 9.7 C 8.11 g/m*3 9.7 C 0 km/h
1496 02-09-2004 04:18:01 9.5 C 8.01 g/m*3 9.5 C 0 km/h
1497 02-09-2004 04:30:01 9.5 C 8.01 g/m*3 9.5 C 0 km/h
1498 02-09-2004 04:42:01 9.4 C 7.96 g/m*3 9.4 C 0 km/h
1499 02-09-2004 04:54:02 9.2 C 7.86 g/m*3 9.2 C 0 km/h
1500 02-09-2004 05:06:01 9.2 C 7.86 g/m*3 9.2 C 0 km/h
Sensor: Nr:Datum:Temp:Abs-Feuchte:Windchill:Wind:
Aussen-T/F 1501 02-09-2004 05:18:01 9.1 C 7.9 g/m*3 9.1 C 0 km/h
1502 02-09-2004 05:30:01 9.1 C 7.9 g/m*3 9.1 C 0 km/h
1503 02-09-2004 05:42:01 9.3 C 8 g/m*3 9.3 C 0 km/h
1504 02-09-2004 05:54:01 9.5 C 8.19 g/m*3 9.5 C 0 km/h
1505 02-09-2004 06:06:01 9.6 C 8.24 g/m*3 9.6 C 0 km/h
1506 02-09-2004 06:18:01 9.7 C 8.3 g/m*3 9.7 C 0 km/h
1507 02-09-2004 06:30:01 9.6 C 8.24 g/m*3 9.6 C 0 km/h
1508 02-09-2004 06:42:01 9.6 C 8.24 g/m*3 9.6 C 0 km/h
1509 02-09-2004 06:54:01 9.6 C 8.15 g/m*3 9.6 C 0 km/h
1510 02-09-2004 07:06:02 9.8 C 8.26 g/m*3 9.8 C 0 km/h
1511 02-09-2004 07:18:01 10 C 8.27 g/m*3 10 C 0 km/h
1512 02-09-2004 07:30:01 10.2 C 8.37 g/m*3 10.2 C 0 km/h
1513 02-09-2004 07:42:01 10.4 C 8.38 g/m*3 10.4 C 0 km/h
1514 02-09-2004 07:54:00 10.5 C 8.34 g/m*3 10.5 C 0 km/h
1515 02-09-2004 08:06:00 10.4 C 8.1 g/m*3 10.4 C 0 km/h
1516 02-09-2004 08:18:00 10.7 C 8.25 g/m*3 10.7 C 0 km/h
1517 02-09-2004 08:30:00 10.7 C 8.25 g/m*3 10.7 C 0 km/h
1518 02-09-2004 08:42:01 10.7 C 8.25 g/m*3 10.7 C 0 km/h
1519 02-09-2004 08:54:01 10.7 C 8.25 g/m*3 10.7 C 0 km/h
1520 02-09-2004 09:06:02 10.7 C 8.35 g/m*3 10.7 C 0 km/h
1521 02-09-2004 09:18:01 10.9 C 8.55 g/m*3 10.9 C 0 km/h
1522 02-09-2004 09:30:01 11.2 C 8.72 g/m*3 11.2 C 0 km/h
1523 02-09-2004 09:42:01 11.7 C 8.99 g/m*3 11.7 C 0 km/h
1524 02-09-2004 09:54:01 12.2 C 9.06 g/m*3 12.2 C 0 km/h
1525 02-09-2004 10:06:01 12.7 C 9.24 g/m*3 12.7 C 0 km/h
Sensor: Nr:Datum:Temp:Abs-Feuchte:Windchill:Wind:
Aussen-T/F 1526 02-09-2004 10:18:01 13.3 C 9.47 g/m*3 13.3 C 0 km/h
1527 02-09-2004 10:30:01 14 C 9.65 g/m*3 14 C 0 km/h
1528 02-09-2004 10:42:00 14.5 C 9.7 g/m*3 14.5 C 0 km/h
1529 02-09-2004 10:54:00 15.1 C 9.68 g/m*3 15.1 C 0 km/h
1530 02-09-2004 11:06:00 15.6 C 9.84 g/m*3 15.6 C 0 km/h
1531 02-09-2004 11:18:00 16.2 C 10.07 g/m*3 16.2 C 0 km/h
1532 02-09-2004 11:30:00 17 C 9.98 g/m*3 17 C 0 km/h
1533 02-09-2004 11:42:00 17.7 C 9.05 g/m*3 17.7 C 0 km/h
1534 02-09-2004 11:54:00 18.7 C 9.29 g/m*3 18.7 C 0 km/h
1535 02-09-2004 12:06:00 19.3 C 9.12 g/m*3 19.3 C 0 km/h
1536 02-09-2004 12:18:00 19.8 C 8.54 g/m*3 19.8 C 0 km/h
1537 02-09-2004 12:30:00 20.4 C 9.02 g/m*3 20.4 C 0 km/h
1538 02-09-2004 12:42:01 20.8 C 8.87 g/m*3 20.8 C 0 km/h
1539 02-09-2004 12:54:01 21.1 C 8.84 g/m*3 21.1 C 0 km/h
1540 02-09-2004 13:06:01 21.6 C 9.1 g/m*3 21.6 C 0 km/h
1541 02-09-2004 13:18:00 22.1 C 9.17 g/m*3 22.1 C 0 km/h
1542 02-09-2004 13:30:00 22.6 C 9.24 g/m*3 22.6 C 0 km/h
1543 02-09-2004 13:42:00 23.1 C 9.3 g/m*3 23.1 C 0 km/h
1544 02-09-2004 13:54:00 23.7 C 8.98 g/m*3 23.7 C 0 km/h
1545 02-09-2004 14:06:00 24.1 C 9.19 g/m*3 24.1 C 0 km/h
1546 02-09-2004 14:18:00 24.9 C 9.39 g/m*3 24.9 C 0 km/h
1547 02-09-2004 14:30:00 25.6 C 9.05 g/m*3 25.6 C 0 km/h
1548 02-09-2004 14:42:00 26.5 C 10.26 g/m*3 26.5 C 0 km/h
1549 02-09-2004 14:54:00 26.8 C 8.91 g/m*3 26.8 C 0 km/h
1550 02-09-2004 15:06:00 27.1 C 8.02 g/m*3 27.1 C 0 km/h
Sensor: Nr:Datum:Temp:Abs-Feuchte:Windchill:Wind:
Aussen-T/F 1551 02-09-2004 15:18:00 27.4 C 7.89 g/m*3 27.4 C 0 km/h
1552 02-09-2004 15:30:00 27.5 C 8.2 g/m*3 27.5 C 0 km/h
1553 02-09-2004 15:42:00 27.9 C 8.38 g/m*3 27.9 C 0 km/h
1554 02-09-2004 15:54:00 27.4 C 6.84 g/m*3 27.4 C 0 km/h
1555 02-09-2004 16:06:59 27.7 C 7.22 g/m*3 27.7 C 0 km/h
1556 02-09-2004 16:29:59 27.4 C 6.84 g/m*3 27.4 C 0 km/h
1557 02-09-2004 16:30:00 27.4 C 7.89 g/m*3 27.4 C 0 km/h
1558 02-09-2004 16:42:00 27.5 C 7.41 g/m*3 27.5 C 0 km/h
1559 02-09-2004 16:54:00 28.1 C 7.93 g/m*3 28.1 C 0 km/h
1560 02-09-2004 17:06:00 28.2 C 7.7 g/m*3 28.2 C 0 km/h
1561 02-09-2004 17:18:00 28.9 C 8.57 g/m*3 28.9 C 0 km/h
1562 02-09-2004 17:30:00 29.3 C 9.63 g/m*3 29.3 C 0 km/h
1563 02-09-2004 17:42:00 29.3 C 9.93 g/m*3 29.3 C 0 km/h
1564 02-09-2004 17:54:00 29.3 C 9.05 g/m*3 29.3 C 0 km/h
1565 02-09-2004 18:06:00 29.1 C 9.82 g/m*3 29.1 C 0 km/h
1566 02-09-2004 18:18:00 28.6 C 10.12 g/m*3 28.6 C 0 km/h
1567 02-09-2004 18:30:00 28.2 C 10.17 g/m*3 28.2 C 0 km/h
1568 02-09-2004 18:42:00 27.4 C 10.26 g/m*3 27.4 C 0 km/h
1569 02-09-2004 18:54:59 26.9 C 10.49 g/m*3 26.9 C 0 km/h
1570 02-09-2004 19:06:59 25.9 C 10.17 g/m*3 25.9 C 0 km/h
1571 02-09-2004 19:18:59 25.3 C 10.3 g/m*3 25.3 C 0 km/h
1572 02-09-2004 19:30:59 24.5 C 10.07 g/m*3 24.5 C 0 km/h
1573 02-09-2004 19:42:59 23.7 C 10.05 g/m*3 23.7 C 0 km/h
1574 02-09-2004 19:54:59 22 C 10.09 g/m*3 22 C 0 km/h
1575 02-09-2004 20:05:59 21 C 9.89 g/m*3 21 C 0 km/h
Sensor: Nr:Datum:Temp:Abs-Feuchte:Windchill:Wind:
Aussen-T/F 1576 02-09-2004 20:30:00 19.8 C 10.08 g/m*3 19.8 C 0 km/h
1577 02-09-2004 20:42:00 19.5 C 10.07 g/m*3 19.5 C 0 km/h
1578 02-09-2004 20:54:00 19.1 C 10.16 g/m*3 19.1 C 0 km/h
1579 02-09-2004 21:06:00 18.8 C 10.15 g/m*3 18.8 C 0 km/h
1580 02-09-2004 21:18:59 18.6 C 10.19 g/m*3 18.6 C 0 km/h
1581 02-09-2004 21:30:59 18.4 C 10.38 g/m*3 18.4 C 0 km/h
1582 02-09-2004 21:42:59 18.3 C 10.32 g/m*3 18.3 C 0 km/h
1583 02-09-2004 21:54:59 18 C 10.29 g/m*3 18 C 0 km/h
1584 02-09-2004 22:05:59 17.9 C 10.38 g/m*3 17.9 C 0 km/h
1585 02-09-2004 22:18:00 17.7 C 10.41 g/m*3 17.7 C 0 km/h
1586 02-09-2004 22:30:00 17.4 C 10.37 g/m*3 17.4 C 0 km/h
1587 02-09-2004 22:42:00 17.2 C 10.4 g/m*3 17.2 C 0 km/h
1588 02-09-2004 22:54:59 17.1 C 10.48 g/m*3 17.1 C 0 km/h
1589 02-09-2004 23:06:59 16.9 C 10.5 g/m*3 16.9 C 0 km/h
1590 02-09-2004 23:18:59 16.6 C 10.45 g/m*3 16.6 C 0 km/h
1591 02-09-2004 23:30:59 16.4 C 10.47 g/m*3 16.4 C 0 km/h
1592 02-09-2004 23:42:59 16.3 C 10.41 g/m*3 16.3 C 0 km/h
1593 02-09-2004 23:54:59 16 C 10.35 g/m*3 16 C 0 km/h
1594 03-09-2004 00:06:59 15.9 C 10.56 g/m*3 15.9 C 0 km/h
1595 03-09-2004 00:30:00 15.6 C 10.51 g/m*3 15.6 C 0 km/h
1596 03-09-2004 00:30:59 15.4 C 10.51 g/m*3 15.4 C 0 km/h
1597 03-09-2004 00:42:59 15.4 C 10.64 g/m*3 15.4 C 0 km/h
1598 03-09-2004 00:54:59 15.1 C 10.45 g/m*3 15.1 C 0 km/h
1599 03-09-2004 01:06:59 15.1 C 10.45 g/m*3 15.1 C 0 km/h
1600 03-09-2004 01:18:59 14.9 C 10.45 g/m*3 14.9 C 0 km/h
Sensor: Nr:Datum:Temp:Abs-Feuchte:Windchill:Wind:
Aussen-T/F 1601 03-09-2004 01:30:59 14.9 C 10.45 g/m*3 14.9 C 0 km/h
1602 03-09-2004 01:42:59 14.7 C 10.45 g/m*3 14.7 C 0 km/h
1603 03-09-2004 01:54:59 14.5 C 10.32 g/m*3 14.5 C 0 km/h
1604 03-09-2004 02:06:58 14.4 C 10.26 g/m*3 14.4 C 0 km/h
1605 03-09-2004 02:18:58 14.3 C 10.2 g/m*3 14.3 C 0 km/h
1606 03-09-2004 02:30:58 14.2 C 10.26 g/m*3 14.2 C 0 km/h
1607 03-09-2004 02:42:58 14 C 10.01 g/m*3 14 C 0 km/h
1608 03-09-2004 02:55:00 14 C 10.13 g/m*3 14 C 0 km/h
1609 03-09-2004 03:07:00 13.9 C 10.07 g/m*3 13.9 C 0 km/h
1610 03-09-2004 03:19:00 13.9 C 10.19 g/m*3 13.9 C 0 km/h
1611 03-09-2004 03:31:00 13.7 C 9.95 g/m*3 13.7 C 0 km/h
1612 03-09-2004 03:43:00 13.6 C 10 g/m*3 13.6 C 0 km/h
1613 03-09-2004 03:55:00 13.5 C 9.94 g/m*3 13.5 C 0 km/h
1614 03-09-2004 04:07:00 13.4 C 9.88 g/m*3 13.4 C 0 km/h
1615 03-09-2004 04:19:00 13.4 C 10 g/m*3 13.4 C 0 km/h
1616 03-09-2004 04:31:00 13.2 C 9.76 g/m*3 13.2 C 0 km/h
1617 03-09-2004 04:43:00 13.1 C 9.7 g/m*3 13.1 C 0 km/h
1618 03-09-2004 04:55:00 13.2 C 9.87 g/m*3 13.2 C 0 km/h
1619 03-09-2004 05:07:00 13 C 9.75 g/m*3 13 C 0 km/h
1620 03-09-2004 05:19:00 12.9 C 9.81 g/m*3 12.9 C 0 km/h
1621 03-09-2004 05:31:00 12.8 C 9.74 g/m*3 12.8 C 0 km/h
1622 03-09-2004 05:43:00 12.7 C 9.68 g/m*3 12.7 C 0 km/h
1623 03-09-2004 05:55:00 12.7 C 9.68 g/m*3 12.7 C 0 km/h
1624 03-09-2004 06:07:00 12.8 C 9.86 g/m*3 12.8 C 0 km/h
1625 03-09-2004 06:19:00 12.7 C 9.68 g/m*3 12.7 C 0 km/h
Sensor: Nr:Datum:Temp:Abs-Feuchte:Windchill:Wind:
Aussen-T/F 1626 03-09-2004 06:31:00 12.7 C 9.8 g/m*3 12.7 C 0 km/h
1627 03-09-2004 06:43:01 13 C 9.87 g/m*3 13 C 0 km/h
1628 03-09-2004 06:55:00 13 C 9.75 g/m*3 13 C 0 km/h
1629 03-09-2004 07:07:00 13 C 9.64 g/m*3 13 C 0 km/h
1630 03-09-2004 07:19:00 13 C 9.64 g/m*3 13 C 0 km/h
1631 03-09-2004 07:31:59 12.9 C 9.69 g/m*3 12.9 C 0 km/h
1632 03-09-2004 07:43:59 13.1 C 9.81 g/m*3 13.1 C 0 km/h
1633 03-09-2004 07:55:59 13.3 C 9.94 g/m*3 13.3 C 0 km/h
1634 03-09-2004 08:07:59 13.5 C 9.94 g/m*3 13.5 C 0 km/h
1635 03-09-2004 08:18:59 13.8 C 10.13 g/m*3 13.8 C 0 km/h
1636 03-09-2004 08:31:00 13.8 C 10.01 g/m*3 13.8 C 0 km/h
1637 03-09-2004 08:43:00 14.1 C 10.19 g/m*3 14.1 C 0 km/h
1638 03-09-2004 08:55:00 14.8 C 10.64 g/m*3 14.8 C 0 km/h
1639 03-09-2004 09:07:00 15.4 C 10.51 g/m*3 15.4 C 0 km/h
1640 03-09-2004 09:19:00 15.2 C 10.25 g/m*3 15.2 C 0 km/h
1641 03-09-2004 09:31:00 15.7 C 10.57 g/m*3 15.7 C 0 km/h
1642 03-09-2004 09:43:00 15.7 C 10.3 g/m*3 15.7 C 0 km/h
1643 03-09-2004 09:55:00 15.7 C 10.57 g/m*3 15.7 C 0 km/h
1644 03-09-2004 10:07:00 16.3 C 10.41 g/m*3 16.3 C 0 km/h
1645 03-09-2004 10:19:59 17.3 C 10.9 g/m*3 17.3 C 0 km/h
1646 03-09-2004 10:31:59 18.2 C 10.57 g/m*3 18.2 C 0 km/h
1647 03-09-2004 10:43:59 19.1 C 10.82 g/m*3 19.1 C 0 km/h
1648 03-09-2004 10:55:59 19.7 C 11.21 g/m*3 19.7 C 0 km/h
1649 03-09-2004 11:07:59 19.7 C 10.87 g/m*3 19.7 C 0 km/h
1650 03-09-2004 11:19:59 20 C 11.58 g/m*3 20 C 0 km/h
Sensor: Nr:Datum:Temp:Abs-Feuchte:Windchill:Wind:
Aussen-T/F 1651 03-09-2004 11:31:59 20.6 C 11.63 g/m*3 20.6 C 0 km/h
1652 03-09-2004 11:43:59 21.1 C 11.98 g/m*3 21.1 C 0 km/h
1653 03-09-2004 11:55:59 21.5 C 12.07 g/m*3 21.5 C 0 km/h
1654 03-09-2004 12:07:59 22 C 12.42 g/m*3 22 C 0 km/h
1655 03-09-2004 12:19:00 22.7 C 12.73 g/m*3 22.7 C 0 km/h
1656 03-09-2004 12:31:00 22.9 C 12.47 g/m*3 22.9 C 0 km/h
1657 03-09-2004 12:43:00 23.1 C 12.61 g/m*3 23.1 C 0 km/h
1658 03-09-2004 12:55:00 23.4 C 13.25 g/m*3 23.4 C 0 km/h
1659 03-09-2004 13:07:59 23.8 C 13.12 g/m*3 23.8 C 0 km/h
1660 03-09-2004 13:19:59 24.3 C 13.28 g/m*3 24.3 C 0 km/h
1661 03-09-2004 13:31:59 24.9 C 13.28 g/m*3 24.9 C 0 km/h
1662 03-09-2004 13:43:59 25.5 C 11.84 g/m*3 25.5 C 0 km/h
1663 03-09-2004 13:55:59 26.1 C 11.26 g/m*3 26.1 C 0 km/h
1664 03-09-2004 14:07:59 26.5 C 12.02 g/m*3 26.5 C 0 km/h
1665 03-09-2004 14:19:59 26.9 C 11.26 g/m*3 26.9 C 0 km/h
1666 03-09-2004 14:31:59 27.6 C 10.64 g/m*3 27.6 C 0 km/h
1667 03-09-2004 14:43:59 28.3 C 11.06 g/m*3 28.3 C 0 km/h
1668 03-09-2004 14:55:59 28.6 C 11.24 g/m*3 28.6 C 0 km/h
1669 03-09-2004 15:07:59 29.1 C 10.97 g/m*3 29.1 C 0 km/h
1670 03-09-2004 15:19:59 29.6 C 11.28 g/m*3 29.6 C 0 km/h
1671 03-09-2004 15:31:59 30 C 12.13 g/m*3 30 C 0 km/h
1672 03-09-2004 15:43:59 30.2 C 11.96 g/m*3 30.2 C 0 km/h
1673 03-09-2004 15:55:59 30.6 C 10.02 g/m*3 30.6 C 0 km/h
1674 03-09-2004 16:07:58 30.6 C 10.65 g/m*3 30.6 C 0 km/h
1675 03-09-2004 16:19:59 30.7 C 11.97 g/m*3 30.7 C 0 km/h
Sensor: Nr:Datum:Temp:Abs-Feuchte:Windchill:Wind:
Aussen-T/F 1676 03-09-2004 16:31:59 30.4 C 12.39 g/m*3 30.4 C 0 km/h
1677 03-09-2004 16:43:59 30.4 C 12.08 g/m*3 30.4 C 0 km/h
1678 03-09-2004 16:55:59 28.9 C 12.86 g/m*3 28.9 C 0 km/h
1679 03-09-2004 17:07:59 27.6 C 13.04 g/m*3 27.6 C 0 km/h
1680 03-09-2004 17:19:59 27.5 C 12.7 g/m*3 27.5 C 0 km/h
1681 03-09-2004 17:31:59 28.6 C 12.93 g/m*3 28.6 C 0 km/h
1682 03-09-2004 17:43:59 29.3 C 12.85 g/m*3 29.3 C 0 km/h
1683 03-09-2004 17:55:59 29.5 C 12.69 g/m*3 29.5 C 0 km/h
1684 03-09-2004 18:07:59 29.4 C 12.62 g/m*3 29.4 C 0 km/h
1685 03-09-2004 18:19:58 28.9 C 13.14 g/m*3 28.9 C 0 km/h
1686 03-09-2004 18:31:58 28.6 C 12.65 g/m*3 28.6 C 0 km/h
1687 03-09-2004 18:43:58 28.5 C 12.02 g/m*3 28.5 C 0 km/h
1688 03-09-2004 18:55:58 28.6 C 12.65 g/m*3 28.6 C 0 km/h
1689 03-09-2004 19:07:58 28.3 C 11.89 g/m*3 28.3 C 0 km/h
1690 03-09-2004 19:19:58 27.5 C 12.7 g/m*3 27.5 C 0 km/h
1691 03-09-2004 19:31:58 26.6 C 12.59 g/m*3 26.6 C 0 km/h
1692 03-09-2004 19:43:58 25.6 C 13.09 g/m*3 25.6 C 0 km/h
1693 03-09-2004 19:55:59 24 C 12.84 g/m*3 24 C 0 km/h
1694 03-09-2004 20:07:59 23.5 C 13.11 g/m*3 23.5 C 0 km/h
1695 03-09-2004 20:19:59 23.1 C 12.61 g/m*3 23.1 C 0 km/h
1696 03-09-2004 20:31:59 22.7 C 12.73 g/m*3 22.7 C 0 km/h
1697 03-09-2004 20:43:59 22.1 C 12.49 g/m*3 22.1 C 0 km/h
1698 03-09-2004 20:55:59 21.9 C 12.93 g/m*3 21.9 C 0 km/h
1699 03-09-2004 21:07:58 21.5 C 12.82 g/m*3 21.5 C 0 km/h
1700 03-09-2004 21:19:58 21.3 C 12.68 g/m*3 21.3 C 0 km/h
Sensor: Nr:Datum:Temp:Abs-Feuchte:Windchill:Wind:
Aussen-T/F 1701 03-09-2004 21:31:58 21.1 C 12.71 g/m*3 21.1 C 0 km/h
1702 03-09-2004 21:43:58 21.1 C 12.53 g/m*3 21.1 C 0 km/h
1703 03-09-2004 21:55:58 20.8 C 12.49 g/m*3 20.8 C 0 km/h
1704 03-09-2004 22:07:58 20.7 C 12.78 g/m*3 20.7 C 0 km/h
1705 03-09-2004 22:19:58 20.3 C 12.49 g/m*3 20.3 C 0 km/h
1706 03-09-2004 22:31:58 20 C 12.44 g/m*3 20 C 0 km/h
1707 03-09-2004 22:43:58 20 C 12.62 g/m*3 20 C 0 km/h
1708 03-09-2004 22:55:58 19.7 C 12.57 g/m*3 19.7 C 0 km/h
1709 03-09-2004 23:07:58 19.6 C 12.66 g/m*3 19.6 C 0 km/h
1710 03-09-2004 23:19:58 19.4 C 12.51 g/m*3 19.4 C 0 km/h
1711 03-09-2004 23:31:58 19.1 C 12.46 g/m*3 19.1 C 0 km/h
1712 03-09-2004 23:43:58 18.9 C 12.64 g/m*3 18.9 C 0 km/h
1713 03-09-2004 23:55:57 18.8 C 12.56 g/m*3 18.8 C 0 km/h
1714 04-09-2004 00:07:58 18.6 C 12.57 g/m*3 18.6 C 0 km/h
1715 04-09-2004 00:19:58 18.3 C 12.35 g/m*3 18.3 C 0 km/h
1716 04-09-2004 00:31:57 18.2 C 12.43 g/m*3 18.2 C 0 km/h
1717 04-09-2004 00:43:57 18.1 C 12.36 g/m*3 18.1 C 0 km/h
1718 04-09-2004 00:55:58 18 C 12.44 g/m*3 18 C 0 km/h
1719 04-09-2004 01:07:58 17.8 C 12.6 g/m*3 17.8 C 0 km/h
1720 04-09-2004 01:19:58 17.7 C 12.52 g/m*3 17.7 C 0 km/h
1721 04-09-2004 01:31:58 17.5 C 12.37 g/m*3 17.5 C 0 km/h
1722 04-09-2004 01:43:58 17.5 C 12.37 g/m*3 17.5 C 0 km/h
1723 04-09-2004 01:55:58 17.2 C 12.3 g/m*3 17.2 C 0 km/h
1724 04-09-2004 02:07:58 17.1 C 12.23 g/m*3 17.1 C 0 km/h
1725 04-09-2004 02:19:58 16.9 C 12.23 g/m*3 16.9 C 0 km/h
Sensor: Nr:Datum:Temp:Abs-Feuchte:Windchill:Wind:
Aussen-T/F 1726 04-09-2004 02:31:58 16.8 C 12.15 g/m*3 16.8 C 0 km/h
1727 04-09-2004 02:43:58 16.5 C 12.08 g/m*3 16.5 C 0 km/h
1728 04-09-2004 02:56:00 16.5 C 12.08 g/m*3 16.5 C 0 km/h
1729 04-09-2004 03:08:00 16.4 C 12 g/m*3 16.4 C 0 km/h
1730 04-09-2004 03:20:59 16.3 C 11.93 g/m*3 16.3 C 0 km/h
1731 04-09-2004 03:32:59 16.2 C 11.86 g/m*3 16.2 C 0 km/h
1732 04-09-2004 03:44:59 16 C 11.72 g/m*3 16 C 0 km/h
1733 04-09-2004 03:56:59 16 C 11.72 g/m*3 16 C 0 km/h
1734 04-09-2004 04:08:59 15.9 C 11.78 g/m*3 15.9 C 0 km/h
1735 04-09-2004 04:20:59 15.8 C 11.71 g/m*3 15.8 C 0 km/h
1736 04-09-2004 04:32:59 15.6 C 11.44 g/m*3 15.6 C 0 km/h
1737 04-09-2004 04:44:59 15.6 C 11.57 g/m*3 15.6 C 0 km/h
1738 04-09-2004 04:57:00 15.4 C 11.43 g/m*3 15.4 C 0 km/h
1739 04-09-2004 05:08:59 15.2 C 11.29 g/m*3 15.2 C 0 km/h
1740 04-09-2004 05:20:59 15.2 C 11.29 g/m*3 15.2 C 0 km/h
1741 04-09-2004 05:32:59 15.2 C 11.29 g/m*3 15.2 C 0 km/h
1742 04-09-2004 05:44:58 15 C 11.28 g/m*3 15 C 0 km/h
1743 04-09-2004 05:56:58 14.9 C 11.22 g/m*3 14.9 C 0 km/h
1744 04-09-2004 06:08:58 14.7 C 11.21 g/m*3 14.7 C 0 km/h
1745 04-09-2004 06:20:58 14.6 C 11.14 g/m*3 14.6 C 0 km/h
1746 04-09-2004 06:32:59 14.7 C 11.21 g/m*3 14.7 C 0 km/h
1747 04-09-2004 06:44:59 14.5 C 11.07 g/m*3 14.5 C 0 km/h
1748 04-09-2004 06:56:59 14.2 C 10.99 g/m*3 14.2 C 0 km/h
1749 04-09-2004 07:08:59 14.3 C 11.06 g/m*3 14.3 C 0 km/h
1750 04-09-2004 07:20:59 14.3 C 11.06 g/m*3 14.3 C 0 km/h
Sensor: Nr:Datum:Temp:Abs-Feuchte:Windchill:Wind:
Aussen-T/F 1751 04-09-2004 07:32:59 14.2 C 11.11 g/m*3 14.2 C 0 km/h
1752 04-09-2004 07:44:59 14.5 C 11.32 g/m*3 14.5 C 0 km/h
1753 04-09-2004 07:56:59 14.6 C 11.26 g/m*3 14.6 C 0 km/h
1754 04-09-2004 08:08:59 15 C 11.41 g/m*3 15 C 0 km/h
1755 04-09-2004 08:20:59 14.9 C 11.22 g/m*3 14.9 C 0 km/h
1756 04-09-2004 08:32:58 15.4 C 11.43 g/m*3 15.4 C 0 km/h
1757 04-09-2004 08:43:59 15.5 C 11.24 g/m*3 15.5 C 0 km/h
1758 04-09-2004 08:55:59 15.4 C 11.04 g/m*3 15.4 C 0 km/h
1759 04-09-2004 09:08:58 15.6 C 11.17 g/m*3 15.6 C 0 km/h
1760 04-09-2004 09:20:58 16 C 11.31 g/m*3 16 C 0 km/h
1761 04-09-2004 09:32:58 16.4 C 11.45 g/m*3 16.4 C 0 km/h
1762 04-09-2004 09:44:58 16.7 C 11.37 g/m*3 16.7 C 0 km/h
1763 04-09-2004 09:56:58 17.2 C 11.57 g/m*3 17.2 C 0 km/h
1764 04-09-2004 10:08:58 17 C 11.43 g/m*3 17 C 0 km/h
1765 04-09-2004 10:20:59 17.3 C 11.79 g/m*3 17.3 C 0 km/h
1766 04-09-2004 10:32:59 17.8 C 11.99 g/m*3 17.8 C 0 km/h
1767 04-09-2004 10:44:59 18.2 C 12.12 g/m*3 18.2 C 0 km/h
1768 04-09-2004 10:56:59 18.7 C 12.33 g/m*3 18.7 C 0 km/h
1769 04-09-2004 11:08:59 19.2 C 12.37 g/m*3 19.2 C 0 km/h
1770 04-09-2004 11:20:59 19.8 C 12.47 g/m*3 19.8 C 0 km/h
1771 04-09-2004 11:32:00 20.5 C 12.63 g/m*3 20.5 C 0 km/h
1772 04-09-2004 11:44:00 21.3 C 12.12 g/m*3 21.3 C 0 km/h
1773 04-09-2004 11:56:58 21.9 C 13.12 g/m*3 21.9 C 0 km/h
1774 04-09-2004 12:08:58 22.6 C 12.86 g/m*3 22.6 C 0 km/h
1775 04-09-2004 12:20:58 23.2 C 13.1 g/m*3 23.2 C 0 km/h
Sensor: Nr:Datum:Temp:Abs-Feuchte:Windchill:Wind:
Aussen-T/F 1776 04-09-2004 12:32:58 23.6 C 13.4 g/m*3 23.6 C 0 km/h
1777 04-09-2004 12:44:58 24 C 13.05 g/m*3 24 C 0 km/h
1778 04-09-2004 12:56:58 24.6 C 13.95 g/m*3 24.6 C 0 km/h
1779 04-09-2004 13:08:58 24.8 C 12.97 g/m*3 24.8 C 0 km/h
1780 04-09-2004 13:20:58 25.4 C 13.18 g/m*3 25.4 C 0 km/h
1781 04-09-2004 13:32:58 25.8 C 12.52 g/m*3 25.8 C 0 km/h
1782 04-09-2004 13:44:58 26 C 12.17 g/m*3 26 C 0 km/h
1783 04-09-2004 13:56:58 26.6 C 12.84 g/m*3 26.6 C 0 km/h
1784 04-09-2004 14:08:58 27.2 C 12.49 g/m*3 27.2 C 0 km/h
1785 04-09-2004 14:20:58 27.8 C 13.72 g/m*3 27.8 C 0 km/h
1786 04-09-2004 14:32:58 28.2 C 12.65 g/m*3 28.2 C 0 km/h
1787 04-09-2004 14:44:58 28.6 C 12.65 g/m*3 28.6 C 0 km/h
1788 04-09-2004 14:56:58 29.4 C 13.21 g/m*3 29.4 C 0 km/h
1789 04-09-2004 15:08:58 29.4 C 12.33 g/m*3 29.4 C 0 km/h
1790 04-09-2004 15:20:58 30 C 12.13 g/m*3 30 C 0 km/h
1791 04-09-2004 15:32:58 30.1 C 11.89 g/m*3 30.1 C 0 km/h
1792 04-09-2004 15:44:58 30.2 C 11.96 g/m*3 30.2 C 0 km/h
1793 04-09-2004 15:56:58 30.6 C 10.96 g/m*3 30.6 C 0 km/h
1794 04-09-2004 16:08:57 30.6 C 10.65 g/m*3 30.6 C 0 km/h
1795 04-09-2004 16:20:57 30.6 C 10.65 g/m*3 30.6 C 0 km/h
1796 04-09-2004 16:32:57 30.7 C 11.34 g/m*3 30.7 C 0 km/h
1797 04-09-2004 16:44:57 30.7 C 10.39 g/m*3 30.7 C 0 km/h
1798 04-09-2004 16:56:57 30.8 C 10.13 g/m*3 30.8 C 0 km/h
1799 04-09-2004 17:08:58 31 C 11.52 g/m*3 31 C 0 km/h
1800 04-09-2004 17:20:58 31.2 C 11.32 g/m*3 31.2 C 0 km/h
Sensor: Nr:Datum:Temp:Abs-Feuchte:Windchill:Wind:
Aussen-T/F 1801 04-09-2004 17:32:58 30.9 C 10.19 g/m*3 30.9 C 0 km/h
1802 04-09-2004 17:44:58 30.9 C 10.82 g/m*3 30.9 C 0 km/h
1803 04-09-2004 17:56:58 30 C 9.7 g/m*3 30 C 0 km/h
1804 04-09-2004 18:08:58 30.1 C 10.67 g/m*3 30.1 C 0 km/h
1805 04-09-2004 18:20:58 30.2 C 10.73 g/m*3 30.2 C 0 km/h
1806 04-09-2004 18:32:58 30 C 11.22 g/m*3 30 C 0 km/h
1807 04-09-2004 18:44:57 29.8 C 11.7 g/m*3 29.8 C 0 km/h
1808 04-09-2004 18:56:57 29 C 11.49 g/m*3 29 C 0 km/h
1809 04-09-2004 19:08:57 27.6 C 11.97 g/m*3 27.6 C 0 km/h
1810 04-09-2004 19:20:57 26.9 C 12.29 g/m*3 26.9 C 0 km/h
1811 04-09-2004 19:32:57 25.7 C 12.45 g/m*3 25.7 C 0 km/h
1812 04-09-2004 19:44:57 24.8 C 12.52 g/m*3 24.8 C 0 km/h
1813 04-09-2004 19:56:57 24.1 C 12.25 g/m*3 24.1 C 0 km/h
1814 04-09-2004 20:08:57 23.3 C 11.92 g/m*3 23.3 C 0 km/h
1815 04-09-2004 20:20:57 23.1 C 12.2 g/m*3 23.1 C 0 km/h
1816 04-09-2004 20:32:57 22.6 C 12.25 g/m*3 22.6 C 0 km/h
1817 04-09-2004 20:44:58 22.2 C 12.17 g/m*3 22.2 C 0 km/h
1818 04-09-2004 20:56:58 22 C 12.42 g/m*3 22 C 0 km/h
1819 04-09-2004 21:08:58 22.1 C 12.49 g/m*3 22.1 C 0 km/h
1820 04-09-2004 21:20:58 21.7 C 12.78 g/m*3 21.7 C 0 km/h
1821 04-09-2004 21:32:57 21.7 C 12.97 g/m*3 21.7 C 0 km/h
1822 04-09-2004 21:44:57 21.4 C 12.94 g/m*3 21.4 C 0 km/h
1823 04-09-2004 21:56:57 21.3 C 13.05 g/m*3 21.3 C 0 km/h
1824 04-09-2004 22:08:57 20.9 C 12.93 g/m*3 20.9 C 0 km/h
1825 04-09-2004 22:20:57 20.8 C 13.04 g/m*3 20.8 C 0 km/h
Sensor: Nr:Datum:Temp:Abs-Feuchte:Windchill:Wind:
Aussen-T/F 1826 04-09-2004 22:32:57 20.6 C 13.07 g/m*3 20.6 C 0 km/h
1827 04-09-2004 22:44:57 20.4 C 12.91 g/m*3 20.4 C 0 km/h
1828 04-09-2004 22:56:57 20.3 C 13.01 g/m*3 20.3 C 0 km/h
1829 04-09-2004 23:08:57 20 C 12.96 g/m*3 20 C 0 km/h
1830 04-09-2004 23:20:57 19.8 C 13.15 g/m*3 19.8 C 0 km/h
1831 04-09-2004 23:32:57 19.7 C 13.08 g/m*3 19.7 C 0 km/h
1832 04-09-2004 23:44:57 19.4 C 12.85 g/m*3 19.4 C 0 km/h
1833 04-09-2004 23:56:57 19.3 C 12.94 g/m*3 19.3 C 0 km/h
1834 05-09-2004 00:08:57 19.1 C 12.95 g/m*3 19.1 C 0 km/h
1835 05-09-2004 00:20:58 18.9 C 12.96 g/m*3 18.9 C 0 km/h
1836 05-09-2004 00:32:57 18.8 C 13.05 g/m*3 18.8 C 0 km/h
1837 05-09-2004 00:44:57 18.6 C 12.89 g/m*3 18.6 C 0 km/h
1838 05-09-2004 00:56:57 18.5 C 12.82 g/m*3 18.5 C 0 km/h
1839 05-09-2004 01:08:57 18.3 C 12.66 g/m*3 18.3 C 0 km/h
1840 05-09-2004 01:20:56 18.2 C 12.59 g/m*3 18.2 C 0 km/h
1841 05-09-2004 01:32:56 18.1 C 12.52 g/m*3 18.1 C 0 km/h
1842 05-09-2004 01:44:56 17.9 C 12.67 g/m*3 17.9 C 0 km/h
1843 05-09-2004 01:56:56 17.7 C 12.52 g/m*3 17.7 C 0 km/h
1844 05-09-2004 02:08:56 17.6 C 12.45 g/m*3 17.6 C 0 km/h
1845 05-09-2004 02:20:57 17.5 C 12.37 g/m*3 17.5 C 0 km/h
1846 05-09-2004 02:32:57 17.3 C 12.23 g/m*3 17.3 C 0 km/h
1847 05-09-2004 02:45:58 17.2 C 12.3 g/m*3 17.2 C 0 km/h
1848 05-09-2004 02:57:58 17.1 C 12.08 g/m*3 17.1 C 0 km/h
1849 05-09-2004 03:09:58 17 C 12.15 g/m*3 17 C 0 km/h
1850 05-09-2004 03:21:58 16.7 C 12.22 g/m*3 16.7 C 0 km/h
Sensor: Nr:Datum:Temp:Abs-Feuchte:Windchill:Wind:
Aussen-T/F 1851 05-09-2004 03:33:58 16.6 C 12.15 g/m*3 16.6 C 0 km/h
1852 05-09-2004 03:45:58 16.6 C 12.01 g/m*3 16.6 C 0 km/h
1853 05-09-2004 03:57:58 16.5 C 12.08 g/m*3 16.5 C 0 km/h
1854 05-09-2004 04:09:58 16.4 C 12 g/m*3 16.4 C 0 km/h
1855 05-09-2004 04:21:58 16.4 C 12 g/m*3 16.4 C 0 km/h
1856 05-09-2004 04:33:58 16.2 C 11.86 g/m*3 16.2 C 0 km/h
1857 05-09-2004 04:45:58 16 C 11.72 g/m*3 16 C 0 km/h
1858 05-09-2004 04:57:58 15.9 C 11.78 g/m*3 15.9 C 0 km/h
1859 05-09-2004 05:09:58 15.8 C 11.85 g/m*3 15.8 C 0 km/h
1860 05-09-2004 05:21:58 15.8 C 11.85 g/m*3 15.8 C 0 km/h
1861 05-09-2004 05:33:58 15.6 C 11.7 g/m*3 15.6 C 0 km/h
1862 05-09-2004 05:45:58 15.5 C 11.63 g/m*3 15.5 C 0 km/h
1863 05-09-2004 05:57:58 15.5 C 11.63 g/m*3 15.5 C 0 km/h
1864 05-09-2004 06:09:58 15.3 C 11.36 g/m*3 15.3 C 0 km/h
1865 05-09-2004 06:21:58 15.2 C 11.29 g/m*3 15.2 C 0 km/h
1866 05-09-2004 06:33:58 15.1 C 11.35 g/m*3 15.1 C 0 km/h
1867 05-09-2004 06:45:57 15.1 C 11.48 g/m*3 15.1 C 0 km/h
1868 05-09-2004 06:57:57 15.2 C 11.55 g/m*3 15.2 C 0 km/h
1869 05-09-2004 07:09:57 15.4 C 11.69 g/m*3 15.4 C 0 km/h
1870 05-09-2004 07:21:58 15.6 C 11.7 g/m*3 15.6 C 0 km/h
1871 05-09-2004 07:33:58 15.8 C 11.85 g/m*3 15.8 C 0 km/h
1872 05-09-2004 07:45:58 15.9 C 12.05 g/m*3 15.9 C 0 km/h
1873 05-09-2004 07:57:59 15.8 C 11.98 g/m*3 15.8 C 0 km/h
1874 05-09-2004 08:09:58 16.1 C 12.2 g/m*3 16.1 C 0 km/h
1875 05-09-2004 08:21:58 16.5 C 12.5 g/m*3 16.5 C 0 km/h
Sensor: Nr:Datum:Temp:Abs-Feuchte:Windchill:Wind:
Aussen-T/F 1876 05-09-2004 08:33:58 16.8 C 12.44 g/m*3 16.8 C 0 km/h
1877 05-09-2004 08:45:58 16.9 C 12.37 g/m*3 16.9 C 0 km/h
1878 05-09-2004 08:57:58 17.1 C 12.37 g/m*3 17.1 C 0 km/h
1879 05-09-2004 09:09:58 17.2 C 12.3 g/m*3 17.2 C 0 km/h
1880 05-09-2004 09:21:57 17.4 C 12.45 g/m*3 17.4 C 0 km/h
1881 05-09-2004 09:33:57 17.6 C 12.6 g/m*3 17.6 C 0 km/h
1882 05-09-2004 09:45:57 17.7 C 12.52 g/m*3 17.7 C 0 km/h
1883 05-09-2004 09:57:57 18.1 C 12.67 g/m*3 18.1 C 0 km/h
1884 05-09-2004 10:09:57 18.3 C 12.66 g/m*3 18.3 C 0 km/h
1885 05-09-2004 10:21:57 18.2 C 12.43 g/m*3 18.2 C 0 km/h
1886 05-09-2004 10:33:57 18.1 C 12.98 g/m*3 18.1 C 0 km/h
1887 05-09-2004 10:45:57 18.7 C 13.29 g/m*3 18.7 C 0 km/h
1888 05-09-2004 10:57:57 19.6 C 13.51 g/m*3 19.6 C 0 km/h
1889 05-09-2004 11:09:57 20.3 C 13.37 g/m*3 20.3 C 0 km/h
1890 05-09-2004 11:21:58 21.2 C 13.53 g/m*3 21.2 C 0 km/h
1891 05-09-2004 11:33:58 21.8 C 13.43 g/m*3 21.8 C 0 km/h
1892 05-09-2004 11:45:57 22.3 C 13.62 g/m*3 22.3 C 0 km/h
1893 05-09-2004 11:57:57 22.9 C 14.1 g/m*3 22.9 C 0 km/h
1894 05-09-2004 12:09:57 23.5 C 14.38 g/m*3 23.5 C 0 km/h
1895 05-09-2004 12:21:57 24.2 C 13.86 g/m*3 24.2 C 0 km/h
1896 05-09-2004 12:33:57 24.6 C 14.18 g/m*3 24.6 C 0 km/h
1897 05-09-2004 12:45:57 24.9 C 14.42 g/m*3 24.9 C 0 km/h
1898 05-09-2004 12:57:57 25.1 C 14.12 g/m*3 25.1 C 0 km/h
1899 05-09-2004 13:09:57 25.8 C 13.96 g/m*3 25.8 C 0 km/h
1900 05-09-2004 13:21:57 26.6 C 13.84 g/m*3 26.6 C 0 km/h
Sensor: Nr:Datum:Temp:Abs-Feuchte:Windchill:Wind:
Aussen-T/F 1901 05-09-2004 13:33:57 26.8 C 13.74 g/m*3 26.8 C 0 km/h
1902 05-09-2004 13:45:57 27.5 C 12.17 g/m*3 27.5 C 0 km/h
1903 05-09-2004 13:57:57 27.9 C 11.63 g/m*3 27.9 C 0 km/h
1904 05-09-2004 14:09:57 28.2 C 11.27 g/m*3 28.2 C 0 km/h
1905 05-09-2004 14:21:57 28.8 C 10.51 g/m*3 28.8 C 0 km/h
1906 05-09-2004 14:33:56 29.4 C 10.57 g/m*3 29.4 C 0 km/h
1907 05-09-2004 14:45:56 29.4 C 10.57 g/m*3 29.4 C 0 km/h
1908 05-09-2004 14:57:56 29.9 C 11.46 g/m*3 29.9 C 0 km/h
1909 05-09-2004 15:09:56 30.1 C 10.98 g/m*3 30.1 C 0 km/h
1910 05-09-2004 15:21:57 30.3 C 10.17 g/m*3 30.3 C 0 km/h
1911 05-09-2004 15:33:57 30.4 C 10.54 g/m*3 30.4 C 0 km/h
1912 05-09-2004 15:45:57 30.3 C 10.48 g/m*3 30.3 C 0 km/h
1913 05-09-2004 15:57:57 30 C 11.83 g/m*3 30 C 0 km/h
1914 05-09-2004 16:09:57 30.4 C 9.92 g/m*3 30.4 C 0 km/h
1915 05-09-2004 16:21:57 31 C 9.6 g/m*3 31 C 0 km/h
1916 05-09-2004 16:33:57 31.3 C 9.76 g/m*3 31.3 C 0 km/h
1917 05-09-2004 16:45:57 31.2 C 9.06 g/m*3 31.2 C 0 km/h
1918 05-09-2004 16:57:57 31 C 9.92 g/m*3 31 C 0 km/h
1919 05-09-2004 17:09:57 31 C 9.92 g/m*3 31 C 0 km/h
1920 05-09-2004 17:21:56 31 C 9.92 g/m*3 31 C 0 km/h
1921 05-09-2004 17:33:56 30.7 C 9.76 g/m*3 30.7 C 0 km/h
1922 05-09-2004 17:45:56 30.8 C 9.81 g/m*3 30.8 C 0 km/h
1923 05-09-2004 17:57:56 30.8 C 10.13 g/m*3 30.8 C 0 km/h
1924 05-09-2004 18:09:56 30.7 C 10.39 g/m*3 30.7 C 0 km/h
1925 05-09-2004 18:21:56 30.4 C 11.47 g/m*3 30.4 C 0 km/h
Sensor: Nr:Datum:Temp:Abs-Feuchte:Windchill:Wind:
Aussen-T/F 1926 05-09-2004 18:33:56 30.1 C 11.59 g/m*3 30.1 C 0 km/h
1927 05-09-2004 18:45:56 29.7 C 11.93 g/m*3 29.7 C 0 km/h
1928 05-09-2004 18:57:57 29.3 C 11.68 g/m*3 29.3 C 0 km/h
1929 05-09-2004 19:09:57 28.6 C 11.52 g/m*3 28.6 C 0 km/h
1930 05-09-2004 19:21:57 27.6 C 11.17 g/m*3 27.6 C 0 km/h
1931 05-09-2004 19:33:57 26.6 C 11.33 g/m*3 26.6 C 0 km/h
1932 05-09-2004 19:45:56 25.6 C 10.95 g/m*3 25.6 C 0 km/h
1933 05-09-2004 19:57:56 24.8 C 10.93 g/m*3 24.8 C 0 km/h
1934 05-09-2004 20:09:56 24.2 C 10.78 g/m*3 24.2 C 0 km/h
1935 05-09-2004 20:21:56 23.5 C 11 g/m*3 23.5 C 0 km/h
1936 05-09-2004 20:33:56 22.9 C 11.04 g/m*3 22.9 C 0 km/h
1937 05-09-2004 20:45:56 22.1 C 10.74 g/m*3 22.1 C 0 km/h
1938 05-09-2004 20:57:56 22 C 10.87 g/m*3 22 C 0 km/h
1939 05-09-2004 21:09:56 21.5 C 11.13 g/m*3 21.5 C 0 km/h
1940 05-09-2004 21:21:56 21.3 C 11 g/m*3 21.3 C 0 km/h
1941 05-09-2004 21:33:56 21 C 10.81 g/m*3 21 C 0 km/h
1942 05-09-2004 21:45:56 20.9 C 11.29 g/m*3 20.9 C 0 km/h
1943 05-09-2004 21:57:56 20.4 C 10.97 g/m*3 20.4 C 0 km/h
1944 05-09-2004 22:09:56 20 C 11.41 g/m*3 20 C 0 km/h
1945 05-09-2004 22:21:56 19.7 C 11.55 g/m*3 19.7 C 0 km/h
1946 05-09-2004 22:33:55 19.5 C 11.41 g/m*3 19.5 C 0 km/h
1947 05-09-2004 22:45:56 19.3 C 11.61 g/m*3 19.3 C 0 km/h
1948 05-09-2004 22:57:56 19.1 C 11.64 g/m*3 19.1 C 0 km/h
1949 05-09-2004 23:09:56 18.9 C 11.66 g/m*3 18.9 C 0 km/h
1950 05-09-2004 23:21:56 18.6 C 11.46 g/m*3 18.6 C 0 km/h
Sensor: Nr:Datum:Temp:Abs-Feuchte:Windchill:Wind:
Aussen-T/F 1951 05-09-2004 23:33:56 18.5 C 11.39 g/m*3 18.5 C 0 km/h
1952 05-09-2004 23:45:56 18.3 C 11.41 g/m*3 18.3 C 0 km/h
1953 05-09-2004 23:57:56 18.1 C 11.43 g/m*3 18.1 C 0 km/h
1954 06-09-2004 00:09:56 18.2 C 11.35 g/m*3 18.2 C 0 km/h
1955 06-09-2004 00:21:56 17.8 C 10.93 g/m*3 17.8 C 0 km/h
1956 06-09-2004 00:33:55 17.5 C 11.03 g/m*3 17.5 C 0 km/h
1957 06-09-2004 00:45:56 17.2 C 10.98 g/m*3 17.2 C 0 km/h
1958 06-09-2004 00:57:56 17 C 10.71 g/m*3 17 C 0 km/h
1959 06-09-2004 01:09:56 16.8 C 10.87 g/m*3 16.8 C 0 km/h
1960 06-09-2004 01:21:56 16.5 C 10.81 g/m*3 16.5 C 0 km/h
1961 06-09-2004 01:33:56 16.3 C 10.82 g/m*3 16.3 C 0 km/h
1962 06-09-2004 01:45:56 16.1 C 10.69 g/m*3 16.1 C 0 km/h
1963 06-09-2004 01:57:56 16 C 10.63 g/m*3 16 C 0 km/h
1964 06-09-2004 02:09:56 15.9 C 10.7 g/m*3 15.9 C 0 km/h
1965 06-09-2004 02:21:56 15.8 C 10.5 g/m*3 15.8 C 0 km/h
1966 06-09-2004 02:33:55 15.7 C 10.57 g/m*3 15.7 C 0 km/h
1967 06-09-2004 02:46:57 15.6 C 10.51 g/m*3 15.6 C 0 km/h
1968 06-09-2004 02:58:57 15.4 C 10.38 g/m*3 15.4 C 0 km/h
1969 06-09-2004 03:10:57 15.1 C 10.06 g/m*3 15.1 C 0 km/h
1970 06-09-2004 03:22:57 14.9 C 10.2 g/m*3 14.9 C 0 km/h
1971 06-09-2004 03:34:57 14.8 C 10.13 g/m*3 14.8 C 0 km/h
1972 06-09-2004 03:46:57 14.6 C 10.01 g/m*3 14.6 C 0 km/h
1973 06-09-2004 03:58:57 14.4 C 9.77 g/m*3 14.4 C 0 km/h
1974 06-09-2004 04:10:57 14.4 C 9.89 g/m*3 14.4 C 0 km/h
1975 06-09-2004 04:22:57 14.3 C 9.83 g/m*3 14.3 C 0 km/h
Sensor: Nr:Datum:Temp:Abs-Feuchte:Windchill:Wind:
Aussen-T/F 1976 06-09-2004 04:34:57 14.1 C 9.71 g/m*3 14.1 C 0 km/h
1977 06-09-2004 04:46:57 14.1 C 9.83 g/m*3 14.1 C 0 km/h
1978 06-09-2004 04:58:57 13.8 C 9.65 g/m*3 13.8 C 0 km/h
1979 06-09-2004 05:10:57 13.8 C 9.77 g/m*3 13.8 C 0 km/h
1980 06-09-2004 05:22:56 13.8 C 9.77 g/m*3 13.8 C 0 km/h
1981 06-09-2004 05:34:56 13.6 C 9.65 g/m*3 13.6 C 0 km/h
1982 06-09-2004 05:46:56 13.6 C 9.65 g/m*3 13.6 C 0 km/h
1983 06-09-2004 05:58:56 13.5 C 9.71 g/m*3 13.5 C 0 km/h
1984 06-09-2004 06:10:56 13.4 C 9.65 g/m*3 13.4 C 0 km/h
1985 06-09-2004 06:22:56 13.4 C 9.76 g/m*3 13.4 C 0 km/h
1986 06-09-2004 06:34:57 13.1 C 9.59 g/m*3 13.1 C 0 km/h
1987 06-09-2004 06:46:57 13.2 C 9.64 g/m*3 13.2 C 0 km/h
1988 06-09-2004 06:58:57 13 C 9.64 g/m*3 13 C 0 km/h
1989 06-09-2004 07:10:57 13 C 9.64 g/m*3 13 C 0 km/h
1990 06-09-2004 07:22:57 12.9 C 9.81 g/m*3 12.9 C 0 km/h
1991 06-09-2004 07:34:57 12.9 C 9.81 g/m*3 12.9 C 0 km/h
1992 06-09-2004 07:46:57 12.9 C 9.81 g/m*3 12.9 C 0 km/h
1993 06-09-2004 07:58:57 12.9 C 9.92 g/m*3 12.9 C 0 km/h
1994 06-09-2004 08:10:56 13 C 9.87 g/m*3 13 C 0 km/h
1995 06-09-2004 08:22:56 13.3 C 10.05 g/m*3 13.3 C 0 km/h
1996 06-09-2004 08:34:56 13.3 C 10.05 g/m*3 13.3 C 0 km/h
1997 06-09-2004 08:46:56 13.3 C 10.05 g/m*3 13.3 C 0 km/h
1998 06-09-2004 08:58:56 13.7 C 10.3 g/m*3 13.7 C 0 km/h
1999 06-09-2004 09:10:56 13.9 C 10.43 g/m*3 13.9 C 0 km/h
2000 06-09-2004 09:22:56 14.2 C 10.5 g/m*3 14.2 C 0 km/h
Sensor: Nr:Datum:Temp:Abs-Feuchte:Windchill:Wind:
Aussen-T/F 2001 06-09-2004 09:34:56 14.6 C 10.76 g/m*3 14.6 C 0 km/h
2002 06-09-2004 09:46:56 15.2 C 10.9 g/m*3 15.2 C 0 km/h
2003 06-09-2004 09:58:56 15.9 C 10.97 g/m*3 15.9 C 0 km/h
2004 06-09-2004 10:10:56 16.5 C 11.09 g/m*3 16.5 C 0 km/h
2005 06-09-2004 10:22:57 17 C 11.29 g/m*3 17 C 0 km/h
2006 06-09-2004 10:34:57 17.5 C 11.48 g/m*3 17.5 C 0 km/h
2007 06-09-2004 10:46:56 18.3 C 11.57 g/m*3 18.3 C 0 km/h
2008 06-09-2004 10:58:56 18.8 C 11.76 g/m*3 18.8 C 0 km/h
2009 06-09-2004 11:10:56 19.3 C 11.61 g/m*3 19.3 C 0 km/h
2010 06-09-2004 11:22:56 19.8 C 11.79 g/m*3 19.8 C 0 km/h
2011 06-09-2004 11:34:56 20.4 C 11.68 g/m*3 20.4 C 0 km/h
2012 06-09-2004 11:46:56 21.4 C 11.62 g/m*3 21.4 C 0 km/h
2013 06-09-2004 11:58:56 22.1 C 11.52 g/m*3 22.1 C 0 km/h
2014 06-09-2004 12:10:56 22.7 C 11.52 g/m*3 22.7 C 0 km/h
2015 06-09-2004 12:22:56 23 C 12.33 g/m*3 23 C 0 km/h
2016 06-09-2004 12:34:56 23.2 C 11.23 g/m*3 23.2 C 0 km/h
2017 06-09-2004 12:46:56 23.8 C 10.97 g/m*3 23.8 C 0 km/h
2018 06-09-2004 12:58:56 24 C 10.01 g/m*3 24 C 0 km/h
2019 06-09-2004 13:10:56 24.5 C 9.4 g/m*3 24.5 C 0 km/h
2020 06-09-2004 13:22:56 24.8 C 9.33 g/m*3 24.8 C 0 km/h
2021 06-09-2004 13:34:55 25.2 C 9.08 g/m*3 25.2 C 0 km/h
2022 06-09-2004 13:46:55 25.8 C 9.63 g/m*3 25.8 C 0 km/h
2023 06-09-2004 13:58:55 26.4 C 9.21 g/m*3 26.4 C 0 km/h
2024 06-09-2004 14:10:55 26.5 C 9.01 g/m*3 26.5 C 0 km/h
2025 06-09-2004 14:22:56 27.2 C 9.37 g/m*3 27.2 C 0 km/h
Sensor: Nr:Datum:Temp:Abs-Feuchte:Windchill:Wind:
Aussen-T/F 2026 06-09-2004 14:34:56 27.4 C 8.42 g/m*3 27.4 C 0 km/h
2027 06-09-2004 14:46:56 27.8 C 8.34 g/m*3 27.8 C 0 km/h
2028 06-09-2004 14:58:56 28.4 C 8.9 g/m*3 28.4 C 0 km/h
2029 06-09-2004 15:10:56 28.9 C 8.57 g/m*3 28.9 C 0 km/h
2030 06-09-2004 15:22:56 29.4 C 8.51 g/m*3 29.4 C 0 km/h
2031 06-09-2004 15:34:56 29.4 C 8.81 g/m*3 29.4 C 0 km/h
2032 06-09-2004 15:46:56 29.5 C 8.56 g/m*3 29.5 C 0 km/h
2033 06-09-2004 15:58:56 30 C 8.79 g/m*3 30 C 0 km/h
2034 06-09-2004 16:10:56 30.3 C 8.63 g/m*3 30.3 C 0 km/h
2035 06-09-2004 16:22:55 30.6 C 8.14 g/m*3 30.6 C 0 km/h
2036 06-09-2004 16:34:55 30.3 C 8.63 g/m*3 30.3 C 0 km/h
2037 06-09-2004 16:46:55 30.4 C 8.37 g/m*3 30.4 C 0 km/h
2038 06-09-2004 16:58:55 30.6 C 8.46 g/m*3 30.6 C 0 km/h
2039 06-09-2004 17:10:56 30.9 C 8.59 g/m*3 30.9 C 0 km/h
2040 06-09-2004 17:22:55 30.7 C 8.19 g/m*3 30.7 C 0 km/h
2041 06-09-2004 17:34:55 30.9 C 8.59 g/m*3 30.9 C 0 km/h
2042 06-09-2004 17:46:55 30.6 C 8.46 g/m*3 30.6 C 0 km/h
2043 06-09-2004 17:58:55 30.7 C 8.5 g/m*3 30.7 C 0 km/h
2044 06-09-2004 18:10:56 30.7 C 9.45 g/m*3 30.7 C 0 km/h
2045 06-09-2004 18:22:56 30.3 C 8.94 g/m*3 30.3 C 0 km/h
2046 06-09-2004 18:34:56 30.1 C 9.45 g/m*3 30.1 C 0 km/h
2047 06-09-2004 18:46:56 29.6 C 8.9 g/m*3 29.6 C 0 km/h
2048 06-09-2004 18:58:56 29.1 C 10.11 g/m*3 29.1 C 0 km/h
2049 06-09-2004 19:10:55 28.2 C 10.17 g/m*3 28.2 C 0 km/h
2050 06-09-2004 19:22:55 27.3 C 10.2 g/m*3 27.3 C 0 km/h
Sensor: Nr:Datum:Temp:Abs-Feuchte:Windchill:Wind:
Aussen-T/F 2051 06-09-2004 19:34:56 26.4 C 10.21 g/m*3 26.4 C 0 km/h
2052 06-09-2004 19:46:55 25.2 C 10.24 g/m*3 25.2 C 0 km/h
2053 06-09-2004 19:58:55 24.3 C 10.4 g/m*3 24.3 C 0 km/h
2054 06-09-2004 20:10:55 23.7 C 10.91 g/m*3 23.7 C 0 km/h
2055 06-09-2004 20:22:55 22.6 C 10.65 g/m*3 22.6 C 0 km/h
2056 06-09-2004 20:34:55 22.1 C 10.54 g/m*3 22.1 C 0 km/h
2057 06-09-2004 20:46:55 21.5 C 10.94 g/m*3 21.5 C 0 km/h
2058 06-09-2004 20:58:55 21.3 C 10.81 g/m*3 21.3 C 0 km/h
2059 06-09-2004 21:10:55 21.2 C 10.93 g/m*3 21.2 C 0 km/h
2060 06-09-2004 21:22:55 20.9 C 11.11 g/m*3 20.9 C 0 km/h
2061 06-09-2004 21:34:55 20.7 C 10.98 g/m*3 20.7 C 0 km/h
2062 06-09-2004 21:46:55 20.4 C 10.61 g/m*3 20.4 C 0 km/h
2063 06-09-2004 21:58:55 20 C 10.37 g/m*3 20 C 0 km/h
2064 06-09-2004 22:10:55 20 C 10.71 g/m*3 20 C 0 km/h
2065 06-09-2004 22:22:55 19.7 C 10.7 g/m*3 19.7 C 0 km/h
2066 06-09-2004 22:34:55 19.5 C 10.74 g/m*3 19.5 C 0 km/h
2067 06-09-2004 22:46:55 19.2 C 10.72 g/m*3 19.2 C 0 km/h
2068 06-09-2004 22:58:55 19.1 C 10.66 g/m*3 19.1 C 0 km/h
2069 06-09-2004 23:10:55 18.9 C 10.85 g/m*3 18.9 C 0 km/h
2070 06-09-2004 23:22:55 18.6 C 10.82 g/m*3 18.6 C 0 km/h
2071 06-09-2004 23:34:55 18.4 C 10.54 g/m*3 18.4 C 0 km/h
2072 06-09-2004 23:46:55 18.1 C 10.97 g/m*3 18.1 C 0 km/h
2073 06-09-2004 23:58:55 18.2 C 10.72 g/m*3 18.2 C 0 km/h
2074 07-09-2004 00:10:55 18.3 C 11.1 g/m*3 18.3 C 0 km/h
2075 07-09-2004 00:22:55 17.9 C 10.84 g/m*3 17.9 C 0 km/h
Sensor: Nr:Datum:Temp:Abs-Feuchte:Windchill:Wind:
Aussen-T/F 2076 07-09-2004 00:34:55 17.6 C 10.65 g/m*3 17.6 C 0 km/h
2077 07-09-2004 00:46:55 17.6 C 10.8 g/m*3 17.6 C 0 km/h
2078 07-09-2004 00:58:56 17.5 C 10.73 g/m*3 17.5 C 0 km/h
2079 07-09-2004 01:10:55 17.4 C 10.97 g/m*3 17.4 C 0 km/h
2080 07-09-2004 01:22:55 17.3 C 10.9 g/m*3 17.3 C 0 km/h
2081 07-09-2004 01:34:55 17.3 C 10.75 g/m*3 17.3 C 0 km/h
2082 07-09-2004 01:46:55 17 C 10.56 g/m*3 17 C 0 km/h
2083 07-09-2004 01:58:55 16.8 C 10.72 g/m*3 16.8 C 0 km/h
2084 07-09-2004 02:10:55 16.5 C 10.53 g/m*3 16.5 C 0 km/h
2085 07-09-2004 02:22:54 16.4 C 10.61 g/m*3 16.4 C 0 km/h
2086 07-09-2004 02:34:54 16.1 C 10.42 g/m*3 16.1 C 0 km/h
2087 07-09-2004 02:47:56 15.9 C 10.56 g/m*3 15.9 C 0 km/h
2088 07-09-2004 02:59:56 15.8 C 10.5 g/m*3 15.8 C 0 km/h
2089 07-09-2004 03:11:56 15.8 C 10.63 g/m*3 15.8 C 0 km/h
2090 07-09-2004 03:23:56 15.6 C 10.64 g/m*3 15.6 C 0 km/h
2091 07-09-2004 03:35:56 15.3 C 10.45 g/m*3 15.3 C 0 km/h
2092 07-09-2004 03:47:56 15.2 C 10.64 g/m*3 15.2 C 0 km/h
2093 07-09-2004 03:59:57 15.1 C 10.45 g/m*3 15.1 C 0 km/h
2094 07-09-2004 04:11:56 14.9 C 10.45 g/m*3 14.9 C 0 km/h
2095 07-09-2004 04:23:56 14.8 C 10.51 g/m*3 14.8 C 0 km/h
2096 07-09-2004 04:35:56 14.7 C 10.45 g/m*3 14.7 C 0 km/h
2097 07-09-2004 04:47:56 14.6 C 10.39 g/m*3 14.6 C 0 km/h
2098 07-09-2004 04:59:56 14.5 C 10.45 g/m*3 14.5 C 0 km/h
2099 07-09-2004 05:11:55 14.4 C 10.38 g/m*3 14.4 C 0 km/h
2100 07-09-2004 05:23:55 14.3 C 10.32 g/m*3 14.3 C 0 km/h
Sensor: Nr:Datum:Temp:Abs-Feuchte:Windchill:Wind:
Aussen-T/F 2101 07-09-2004 05:35:55 14.2 C 10.26 g/m*3 14.2 C 0 km/h
2102 07-09-2004 05:47:55 14.2 C 10.26 g/m*3 14.2 C 0 km/h
2103 07-09-2004 05:59:55 14.1 C 10.32 g/m*3 14.1 C 0 km/h
2104 07-09-2004 06:11:55 14 C 10.25 g/m*3 14 C 0 km/h
2105 07-09-2004 06:23:56 14 C 10.13 g/m*3 14 C 0 km/h
2106 07-09-2004 06:35:56 14 C 10.25 g/m*3 14 C 0 km/h
2107 07-09-2004 06:47:57 13.8 C 10.25 g/m*3 13.8 C 0 km/h
2108 07-09-2004 06:59:58 13.8 C 10.25 g/m*3 13.8 C 0 km/h
2109 07-09-2004 07:11:56 13.8 C 10.25 g/m*3 13.8 C 0 km/h
2110 07-09-2004 07:23:55 13.7 C 10.18 g/m*3 13.7 C 0 km/h
2111 07-09-2004 07:35:55 13.7 C 10.3 g/m*3 13.7 C 0 km/h
2112 07-09-2004 07:47:55 14 C 10.37 g/m*3 14 C 0 km/h
2113 07-09-2004 07:59:55 14 C 10.37 g/m*3 14 C 0 km/h
2114 07-09-2004 08:11:55 14.1 C 10.32 g/m*3 14.1 C 0 km/h
2115 07-09-2004 08:23:55 14.2 C 10.5 g/m*3 14.2 C 0 km/h
2116 07-09-2004 08:35:55 14.3 C 10.57 g/m*3 14.3 C 0 km/h
2117 07-09-2004 08:47:55 14.7 C 10.83 g/m*3 14.7 C 0 km/h
2118 07-09-2004 08:59:55 15 C 10.77 g/m*3 15 C 0 km/h
2119 07-09-2004 09:11:55 15.3 C 10.84 g/m*3 15.3 C 0 km/h
2120 07-09-2004 09:23:55 15.6 C 11.04 g/m*3 15.6 C 0 km/h
2121 07-09-2004 09:35:55 15.9 C 10.97 g/m*3 15.9 C 0 km/h
2122 07-09-2004 09:47:56 16.3 C 10.82 g/m*3 16.3 C 0 km/h
2123 07-09-2004 09:59:56 17.1 C 11.21 g/m*3 17.1 C 0 km/h
2124 07-09-2004 10:11:56 17.8 C 11.38 g/m*3 17.8 C 0 km/h
2125 07-09-2004 10:23:55 18.9 C 11.66 g/m*3 18.9 C 0 km/h
Sensor: Nr:Datum:Temp:Abs-Feuchte:Windchill:Wind:
Aussen-T/F 2126 07-09-2004 10:35:55 20 C 11.23 g/m*3 20 C 0 km/h
2127 07-09-2004 10:47:55 20.6 C 11.28 g/m*3 20.6 C 0 km/h
2128 07-09-2004 10:59:55 21 C 11.91 g/m*3 21 C 0 km/h
2129 07-09-2004 11:11:55 21.3 C 12.12 g/m*3 21.3 C 0 km/h
2130 07-09-2004 11:23:55 21.4 C 12.19 g/m*3 21.4 C 0 km/h
2131 07-09-2004 11:35:55 21.8 C 11.13 g/m*3 21.8 C 0 km/h
2132 07-09-2004 11:47:55 22.1 C 10.93 g/m*3 22.1 C 0 km/h
2133 07-09-2004 11:59:56 22.7 C 11.11 g/m*3 22.7 C 0 km/h
2134 07-09-2004 12:11:55 23.3 C 11.08 g/m*3 23.3 C 0 km/h
2135 07-09-2004 12:23:55 23.8 C 10.76 g/m*3 23.8 C 0 km/h
2136 07-09-2004 12:35:55 24.2 C 10.34 g/m*3 24.2 C 0 km/h
2137 07-09-2004 12:47:55 24.7 C 10.64 g/m*3 24.7 C 0 km/h
2138 07-09-2004 12:59:55 25 C 10.59 g/m*3 25 C 0 km/h
2139 07-09-2004 13:11:54 25.3 C 10.3 g/m*3 25.3 C 0 km/h
2140 07-09-2004 13:23:54 25.6 C 9.28 g/m*3 25.6 C 0 km/h
2141 07-09-2004 13:35:55 26.1 C 9.55 g/m*3 26.1 C 0 km/h
2142 07-09-2004 13:47:55 26.6 C 9.82 g/m*3 26.6 C 0 km/h
2143 07-09-2004 13:59:55 26.9 C 9.21 g/m*3 26.9 C 0 km/h
2144 07-09-2004 14:11:55 27.3 C 9.16 g/m*3 27.3 C 0 km/h
2145 07-09-2004 14:23:55 27.7 C 9.36 g/m*3 27.7 C 0 km/h
2146 07-09-2004 14:35:55 28.2 C 8.52 g/m*3 28.2 C 0 km/h
2147 07-09-2004 14:47:55 28.7 C 9.32 g/m*3 28.7 C 0 km/h
2148 07-09-2004 14:59:55 28.9 C 9.14 g/m*3 28.9 C 0 km/h
2149 07-09-2004 15:11:55 29.3 C 9.05 g/m*3 29.3 C 0 km/h
2150 07-09-2004 15:23:55 29.6 C 8.9 g/m*3 29.6 C 0 km/h
Sensor: Nr:Datum:Temp:Abs-Feuchte:Windchill:Wind:
Aussen-T/F 2151 07-09-2004 15:35:55 29.9 C 8.75 g/m*3 29.9 C 0 km/h
2152 07-09-2004 15:47:54 30.3 C 8.63 g/m*3 30.3 C 0 km/h
2153 07-09-2004 15:59:54 30.4 C 8.68 g/m*3 30.4 C 0 km/h
2154 07-09-2004 16:11:54 30.4 C 8.37 g/m*3 30.4 C 0 km/h
2155 07-09-2004 16:23:54 30.3 C 8.01 g/m*3 30.3 C 0 km/h
2156 07-09-2004 16:35:54 30.2 C 8.28 g/m*3 30.2 C 0 km/h
2157 07-09-2004 16:47:54 30.4 C 8.37 g/m*3 30.4 C 0 km/h
2158 07-09-2004 16:59:54 30.6 C 8.46 g/m*3 30.6 C 0 km/h
2159 07-09-2004 17:11:54 30.7 C 8.19 g/m*3 30.7 C 0 km/h
2160 07-09-2004 17:23:54 30.7 C 7.87 g/m*3 30.7 C 0 km/h
2161 07-09-2004 17:35:55 30.6 C 7.83 g/m*3 30.6 C 0 km/h
2162 07-09-2004 17:47:55 30.3 C 8.01 g/m*3 30.3 C 0 km/h
2163 07-09-2004 17:59:55 30.4 C 8.37 g/m*3 30.4 C 0 km/h
2164 07-09-2004 18:11:55 30.4 C 8.68 g/m*3 30.4 C 0 km/h
2165 07-09-2004 18:23:55 30.3 C 8.32 g/m*3 30.3 C 0 km/h
2166 07-09-2004 18:35:54 30.2 C 9.2 g/m*3 30.2 C 0 km/h
2167 07-09-2004 18:47:54 29.8 C 9.6 g/m*3 29.8 C 0 km/h
2168 07-09-2004 18:59:54 29.6 C 9.79 g/m*3 29.6 C 0 km/h
2169 07-09-2004 19:11:54 28.8 C 9.94 g/m*3 28.8 C 0 km/h
2170 07-09-2004 19:23:54 28.1 C 9.57 g/m*3 28.1 C 0 km/h
2171 07-09-2004 19:35:54 26.7 C 9.87 g/m*3 26.7 C 0 km/h
2172 07-09-2004 19:47:54 25.7 C 10.06 g/m*3 25.7 C 0 km/h
2173 07-09-2004 19:59:54 24.7 C 9.96 g/m*3 24.7 C 0 km/h
2174 07-09-2004 20:11:54 24 C 10.44 g/m*3 24 C 0 km/h
2175 07-09-2004 20:23:54 23.4 C 10.72 g/m*3 23.4 C 0 km/h
Sensor: Nr:Datum:Temp:Abs-Feuchte:Windchill:Wind:
Aussen-T/F 2176 07-09-2004 20:35:54 22.9 C 11.04 g/m*3 22.9 C 0 km/h
2177 07-09-2004 20:47:54 22.5 C 10.79 g/m*3 22.5 C 0 km/h
2178 07-09-2004 20:59:54 22.1 C 10.93 g/m*3 22.1 C 0 km/h
2179 07-09-2004 21:11:54 21.8 C 11.13 g/m*3 21.8 C 0 km/h
2180 07-09-2004 21:23:53 21.4 C 10.69 g/m*3 21.4 C 0 km/h
2181 07-09-2004 21:35:54 21.1 C 10.87 g/m*3 21.1 C 0 km/h
2182 07-09-2004 21:47:54 20.8 C 10.68 g/m*3 20.8 C 0 km/h
2183 07-09-2004 21:59:54 20.5 C 10.68 g/m*3 20.5 C 0 km/h
2184 07-09-2004 22:11:54 20.3 C 10.73 g/m*3 20.3 C 0 km/h
2185 07-09-2004 22:23:54 20 C 10.71 g/m*3 20 C 0 km/h
2186 07-09-2004 22:35:54 19.6 C 10.8 g/m*3 19.6 C 0 km/h
2187 07-09-2004 22:47:54 19.4 C 11.01 g/m*3 19.4 C 0 km/h
2188 07-09-2004 22:59:54 19.3 C 10.95 g/m*3 19.3 C 0 km/h
2189 07-09-2004 23:11:54 19.3 C 11.11 g/m*3 19.3 C 0 km/h
2190 07-09-2004 23:23:54 18.9 C 10.85 g/m*3 18.9 C 0 km/h
2191 07-09-2004 23:35:54 18.8 C 11.11 g/m*3 18.8 C 0 km/h
2192 07-09-2004 23:47:54 18.8 C 11.11 g/m*3 18.8 C 0 km/h
2193 07-09-2004 23:59:54 18.6 C 11.14 g/m*3 18.6 C 0 km/h
2194 08-09-2004 00:11:53 18.5 C 11.08 g/m*3 18.5 C 0 km/h
2195 08-09-2004 00:23:54 18.4 C 11.17 g/m*3 18.4 C 0 km/h
2196 08-09-2004 00:35:54 18.2 C 11.04 g/m*3 18.2 C 0 km/h
2197 08-09-2004 00:47:54 18.1 C 10.97 g/m*3 18.1 C 0 km/h
2198 08-09-2004 00:59:54 17.8 C 11.23 g/m*3 17.8 C 0 km/h
2199 08-09-2004 01:11:54 17.7 C 11.16 g/m*3 17.7 C 0 km/h
2200 08-09-2004 01:23:53 17.5 C 11.03 g/m*3 17.5 C 0 km/h
Sensor: Nr:Datum:Temp:Abs-Feuchte:Windchill:Wind:
Aussen-T/F 2201 08-09-2004 01:35:53 17.4 C 11.12 g/m*3 17.4 C 0 km/h
2202 08-09-2004 01:47:53 17.2 C 10.98 g/m*3 17.2 C 0 km/h
2203 08-09-2004 01:59:53 17.1 C 11.06 g/m*3 17.1 C 0 km/h
2204 08-09-2004 02:11:53 16.9 C 11.08 g/m*3 16.9 C 0 km/h
2205 08-09-2004 02:23:53 16.9 C 11.22 g/m*3 16.9 C 0 km/h
2206 08-09-2004 02:35:53 16.8 C 11.15 g/m*3 16.8 C 0 km/h
2207 08-09-2004 02:48:55 16.5 C 11.09 g/m*3 16.5 C 0 km/h
2208 08-09-2004 03:00:56 16.4 C 11.03 g/m*3 16.4 C 0 km/h
2209 08-09-2004 03:12:56 16.2 C 11.03 g/m*3 16.2 C 0 km/h
2210 08-09-2004 03:24:56 16 C 11.04 g/m*3 16 C 0 km/h
2211 08-09-2004 03:36:56 15.8 C 11.04 g/m*3 15.8 C 0 km/h
2212 08-09-2004 03:48:56 15.9 C 11.1 g/m*3 15.9 C 0 km/h
2213 08-09-2004 04:00:55 15.5 C 10.97 g/m*3 15.5 C 0 km/h
2214 08-09-2004 04:12:55 15.7 C 10.97 g/m*3 15.7 C 0 km/h
2215 08-09-2004 04:24:55 15.3 C 10.71 g/m*3 15.3 C 0 km/h
2216 08-09-2004 04:36:55 15.3 C 10.84 g/m*3 15.3 C 0 km/h
2217 08-09-2004 04:48:55 15.2 C 10.77 g/m*3 15.2 C 0 km/h
2218 08-09-2004 05:00:55 15.1 C 10.71 g/m*3 15.1 C 0 km/h
2219 08-09-2004 05:12:55 15.1 C 10.71 g/m*3 15.1 C 0 km/h
2220 08-09-2004 05:24:55 14.9 C 10.71 g/m*3 14.9 C 0 km/h
2221 08-09-2004 05:36:55 14.8 C 10.64 g/m*3 14.8 C 0 km/h
2222 08-09-2004 05:48:55 14.7 C 10.58 g/m*3 14.7 C 0 km/h
2223 08-09-2004 06:00:55 14.7 C 10.7 g/m*3 14.7 C 0 km/h
2224 08-09-2004 06:12:55 14.6 C 10.76 g/m*3 14.6 C 0 km/h
2225 08-09-2004 06:24:55 14.4 C 10.63 g/m*3 14.4 C 0 km/h
Sensor: Nr:Datum:Temp:Abs-Feuchte:Windchill:Wind:
Aussen-T/F 2226 08-09-2004 06:36:55 14.3 C 10.57 g/m*3 14.3 C 0 km/h
2227 08-09-2004 06:48:54 14.2 C 10.5 g/m*3 14.2 C 0 km/h
2228 08-09-2004 07:00:55 14.2 C 10.5 g/m*3 14.2 C 0 km/h
2229 08-09-2004 07:12:55 14.1 C 10.44 g/m*3 14.1 C 0 km/h
2230 08-09-2004 07:24:55 14.2 C 10.5 g/m*3 14.2 C 0 km/h
2231 08-09-2004 07:36:55 14 C 10.49 g/m*3 14 C 0 km/h
2232 08-09-2004 07:48:55 14.3 C 10.69 g/m*3 14.3 C 0 km/h
2233 08-09-2004 08:00:55 14.5 C 10.7 g/m*3 14.5 C 0 km/h
2234 08-09-2004 08:12:55 14.7 C 10.83 g/m*3 14.7 C 0 km/h
2235 08-09-2004 08:24:55 14.9 C 10.96 g/m*3 14.9 C 0 km/h
2236 08-09-2004 08:36:55 15 C 10.77 g/m*3 15 C 0 km/h
2237 08-09-2004 08:48:55 15.2 C 10.77 g/m*3 15.2 C 0 km/h
2238 08-09-2004 09:00:55 15.4 C 10.9 g/m*3 15.4 C 0 km/h
2239 08-09-2004 09:12:55 15.8 C 11.17 g/m*3 15.8 C 0 km/h
2240 08-09-2004 09:24:54 16.3 C 11.38 g/m*3 16.3 C 0 km/h
2241 08-09-2004 09:36:54 16.8 C 11.58 g/m*3 16.8 C 0 km/h
2242 08-09-2004 09:48:54 17.1 C 11.5 g/m*3 17.1 C 0 km/h
2243 08-09-2004 10:00:55 17.6 C 11.7 g/m*3 17.6 C 0 km/h
2244 08-09-2004 10:12:55 18 C 11.52 g/m*3 18 C 0 km/h
2245 08-09-2004 10:24:54 18.3 C 11.73 g/m*3 18.3 C 0 km/h
2246 08-09-2004 10:36:54 18.7 C 11.85 g/m*3 18.7 C 0 km/h
2247 08-09-2004 10:48:54 19.2 C 11.71 g/m*3 19.2 C 0 km/h
2248 08-09-2004 11:00:54 19.5 C 11.41 g/m*3 19.5 C 0 km/h
2249 08-09-2004 11:12:54 20 C 11.41 g/m*3 20 C 0 km/h
2250 08-09-2004 11:24:55 20.5 C 11.39 g/m*3 20.5 C 0 km/h
Sensor: Nr:Datum:Temp:Abs-Feuchte:Windchill:Wind:
Aussen-T/F 2251 08-09-2004 11:36:55 20.8 C 11.41 g/m*3 20.8 C 0 km/h
2252 08-09-2004 11:48:55 21.1 C 10.87 g/m*3 21.1 C 0 km/h
2253 08-09-2004 12:00:55 21.5 C 11.13 g/m*3 21.5 C 0 km/h
2254 08-09-2004 12:12:55 21.8 C 11.32 g/m*3 21.8 C 0 km/h
2255 08-09-2004 12:24:55 21.9 C 11.19 g/m*3 21.9 C 0 km/h
2256 08-09-2004 12:36:54 22 C 11.65 g/m*3 22 C 0 km/h
2257 08-09-2004 12:48:54 22.2 C 11.19 g/m*3 22.2 C 0 km/h
2258 08-09-2004 13:00:54 22.5 C 10.99 g/m*3 22.5 C 0 km/h
2259 08-09-2004 13:12:54 22.9 C 11.24 g/m*3 22.9 C 0 km/h
2260 08-09-2004 13:24:54 23.3 C 11.29 g/m*3 23.3 C 0 km/h
2261 08-09-2004 13:36:54 23.7 C 10.27 g/m*3 23.7 C 0 km/h
2262 08-09-2004 13:48:54 24.3 C 10.84 g/m*3 24.3 C 0 km/h
2263 08-09-2004 14:00:54 24.8 C 10.47 g/m*3 24.8 C 0 km/h
2264 08-09-2004 14:12:54 25.2 C 9.08 g/m*3 25.2 C 0 km/h
2265 08-09-2004 14:24:54 25.2 C 8.85 g/m*3 25.2 C 0 km/h
2266 08-09-2004 14:36:54 25.5 C 8.52 g/m*3 25.5 C 0 km/h
2267 08-09-2004 14:48:54 26.1 C 8.08 g/m*3 26.1 C 0 km/h
2268 08-09-2004 15:00:54 26.5 C 7.76 g/m*3 26.5 C 0 km/h
2269 08-09-2004 15:12:54 27.9 C 8.11 g/m*3 27.9 C 0 km/h
2270 08-09-2004 15:24:54 28.4 C 6.95 g/m*3 28.4 C 0 km/h
2271 08-09-2004 15:36:54 28.6 C 7.59 g/m*3 28.6 C 0 km/h
2272 08-09-2004 15:48:54 28.8 C 6.82 g/m*3 28.8 C 0 km/h
2273 08-09-2004 16:00:54 28.8 C 7.39 g/m*3 28.8 C 0 km/h
2274 08-09-2004 16:12:54 29.2 C 7.84 g/m*3 29.2 C 0 km/h
2275 08-09-2004 16:24:54 29.3 C 7.59 g/m*3 29.3 C 0 km/h
Sensor: Nr:Datum:Temp:Abs-Feuchte:Windchill:Wind:
Aussen-T/F 2276 08-09-2004 16:36:54 29 C 7.18 g/m*3 29 C 0 km/h
2277 08-09-2004 16:48:54 28.9 C 7.43 g/m*3 28.9 C 0 km/h
2278 08-09-2004 17:00:54 29.3 C 7.01 g/m*3 29.3 C 0 km/h
2279 08-09-2004 17:12:54 29.4 C 6.75 g/m*3 29.4 C 0 km/h
2280 08-09-2004 17:24:54 29.6 C 6.53 g/m*3 29.6 C 0 km/h
2281 08-09-2004 17:36:54 29.7 C 6.86 g/m*3 29.7 C 0 km/h
2282 08-09-2004 17:48:54 29.8 C 6.9 g/m*3 29.8 C 0 km/h
2283 08-09-2004 18:00:53 29.6 C 7.12 g/m*3 29.6 C 0 km/h
2284 08-09-2004 18:12:53 29 C 7.18 g/m*3 29 C 0 km/h
2285 08-09-2004 18:24:53 28.1 C 6.56 g/m*3 28.1 C 0 km/h
2286 08-09-2004 18:36:53 28.2 C 7.15 g/m*3 28.2 C 0 km/h
2287 08-09-2004 18:48:53 27.8 C 6.99 g/m*3 27.8 C 0 km/h
2288 08-09-2004 19:00:53 27.4 C 7.37 g/m*3 27.4 C 0 km/h
2289 08-09-2004 19:12:53 27 C 7.21 g/m*3 27 C 0 km/h
2290 08-09-2004 19:24:54 25.6 C 6.9 g/m*3 25.6 C 0 km/h
2291 08-09-2004 19:36:54 24.5 C 7.83 g/m*3 24.5 C 0 km/h
2292 08-09-2004 19:48:54 23.8 C 7.53 g/m*3 23.8 C 0 km/h
2293 08-09-2004 20:00:54 22.8 C 7.92 g/m*3 22.8 C 0 km/h
2294 08-09-2004 20:12:54 22 C 7.76 g/m*3 22 C 0 km/h
2295 08-09-2004 20:24:54 21.2 C 7.97 g/m*3 21.2 C 0 km/h
2296 08-09-2004 20:36:54 20.7 C 8.28 g/m*3 20.7 C 0 km/h
2297 08-09-2004 20:48:53 19.7 C 8.32 g/m*3 19.7 C 0 km/h
2298 08-09-2004 21:00:53 19.5 C 8.22 g/m*3 19.5 C 0 km/h
2299 08-09-2004 21:12:53 19.3 C 8.29 g/m*3 19.3 C 0 km/h
2300 08-09-2004 21:24:53 18.9 C 8.26 g/m*3 18.9 C 0 km/h
Sensor: Nr:Datum:Temp:Abs-Feuchte:Windchill:Wind:
Aussen-T/F 2301 08-09-2004 21:36:53 18.5 C 8.23 g/m*3 18.5 C 0 km/h
2302 08-09-2004 21:48:53 18.2 C 8.24 g/m*3 18.2 C 0 km/h
2303 08-09-2004 22:00:53 17.9 C 8.55 g/m*3 17.9 C 0 km/h
2304 08-09-2004 22:12:53 17.8 C 8.65 g/m*3 17.8 C 0 km/h
2305 08-09-2004 22:24:53 17.6 C 8.55 g/m*3 17.6 C 0 km/h
2306 08-09-2004 22:36:53 17.6 C 8.7 g/m*3 17.6 C 0 km/h
2307 08-09-2004 22:48:53 17.3 C 8.25 g/m*3 17.3 C 0 km/h
2308 08-09-2004 23:00:54 17.2 C 8.49 g/m*3 17.2 C 0 km/h
2309 08-09-2004 23:12:54 16.9 C 8.77 g/m*3 16.9 C 0 km/h
2310 08-09-2004 23:24:54 16.5 C 8.71 g/m*3 16.5 C 0 km/h
2311 08-09-2004 23:36:53 16.3 C 8.6 g/m*3 16.3 C 0 km/h
2312 08-09-2004 23:48:53 15.9 C 8.67 g/m*3 15.9 C 0 km/h
2313 09-09-2004 00:00:53 15.7 C 8.7 g/m*3 15.7 C 0 km/h
2314 09-09-2004 00:12:53 15.8 C 8.48 g/m*3 15.8 C 0 km/h
2315 09-09-2004 00:24:53 15.7 C 8.3 g/m*3 15.7 C 0 km/h
2316 09-09-2004 00:36:53 16.1 C 8.22 g/m*3 16.1 C 0 km/h
2317 09-09-2004 00:48:53 16 C 7.77 g/m*3 16 C 0 km/h
2318 09-09-2004 01:00:53 16 C 7.49 g/m*3 16 C 0 km/h
2319 09-09-2004 01:12:53 15.9 C 7.72 g/m*3 15.9 C 0 km/h
2320 09-09-2004 01:24:53 15.8 C 7.67 g/m*3 15.8 C 0 km/h
2321 09-09-2004 01:36:53 15.7 C 7.89 g/m*3 15.7 C 0 km/h
2322 09-09-2004 01:48:53 15.4 C 7.88 g/m*3 15.4 C 0 km/h
2323 09-09-2004 02:00:53 15.1 C 7.87 g/m*3 15.1 C 0 km/h
2324 09-09-2004 02:12:53 14.8 C 7.98 g/m*3 14.8 C 0 km/h
2325 09-09-2004 02:24:53 14.4 C 7.91 g/m*3 14.4 C 0 km/h
Sensor: Nr:Datum:Temp:Abs-Feuchte:Windchill:Wind:
Aussen-T/F 2326 09-09-2004 02:36:53 14.3 C 7.86 g/m*3 14.3 C 0 km/h
2327 09-09-2004 02:49:54 14 C 7.84 g/m*3 14 C 0 km/h
2328 09-09-2004 03:01:54 13.7 C 7.82 g/m*3 13.7 C 0 km/h
2329 09-09-2004 03:13:54 13.6 C 7.89 g/m*3 13.6 C 0 km/h
2330 09-09-2004 03:25:54 13.5 C 7.95 g/m*3 13.5 C 0 km/h
2331 09-09-2004 03:37:54 13.5 C 7.95 g/m*3 13.5 C 0 km/h
2332 09-09-2004 03:49:54 13.4 C 7.9 g/m*3 13.4 C 0 km/h
2333 09-09-2004 04:01:54 13.4 C 7.9 g/m*3 13.4 C 0 km/h
2334 09-09-2004 04:13:54 13.3 C 7.86 g/m*3 13.3 C 0 km/h
2335 09-09-2004 04:25:54 13.1 C 7.87 g/m*3 13.1 C 0 km/h
2336 09-09-2004 04:37:54 13 C 7.83 g/m*3 13 C 0 km/h
2337 09-09-2004 04:49:54 12.7 C 7.9 g/m*3 12.7 C 0 km/h
2338 09-09-2004 05:01:54 12.6 C 7.97 g/m*3 12.6 C 0 km/h
2339 09-09-2004 05:13:54 12.4 C 7.87 g/m*3 12.4 C 0 km/h
2340 09-09-2004 05:25:54 12.1 C 7.72 g/m*3 12.1 C 0 km/h
2341 09-09-2004 05:37:54 12 C 7.78 g/m*3 12 C 0 km/h
2342 09-09-2004 05:49:54 11.8 C 7.79 g/m*3 11.8 C 0 km/h
2343 09-09-2004 06:01:54 11.8 C 7.89 g/m*3 11.8 C 0 km/h
2344 09-09-2004 06:13:54 11.5 C 7.85 g/m*3 11.5 C 0 km/h
2345 09-09-2004 06:25:54 11.4 C 8.01 g/m*3 11.4 C 0 km/h
2346 09-09-2004 06:37:54 11.2 C 8.01 g/m*3 11.2 C 0 km/h
2347 09-09-2004 06:49:54 11 C 8.01 g/m*3 11 C 0 km/h
2348 09-09-2004 07:01:54 11 C 8.01 g/m*3 11 C 0 km/h
2349 09-09-2004 07:13:55 11 C 8.01 g/m*3 11 C 0 km/h
2350 09-09-2004 07:25:54 11 C 8.11 g/m*3 11 C 0 km/h
Sensor: Nr:Datum:Temp:Abs-Feuchte:Windchill:Wind:
Aussen-T/F 2351 09-09-2004 07:37:54 11 C 8.01 g/m*3 11 C 0 km/h
2352 09-09-2004 07:49:54 11 C 8.01 g/m*3 11 C 0 km/h
2353 09-09-2004 08:01:54 11 C 8.01 g/m*3 11 C 0 km/h
2354 09-09-2004 08:13:54 11.1 C 8.06 g/m*3 11.1 C 0 km/h
2355 09-09-2004 08:25:53 11.2 C 8.11 g/m*3 11.2 C 0 km/h
2356 09-09-2004 08:37:53 11.2 C 8.11 g/m*3 11.2 C 0 km/h
2357 09-09-2004 08:49:53 11.4 C 8.21 g/m*3 11.4 C 0 km/h
2358 09-09-2004 09:01:53 11.6 C 8.21 g/m*3 11.6 C 0 km/h
2359 09-09-2004 09:13:53 11.8 C 8.31 g/m*3 11.8 C 0 km/h
2360 09-09-2004 09:25:53 12.1 C 8.26 g/m*3 12.1 C 0 km/h
2361 09-09-2004 09:37:54 12.5 C 8.47 g/m*3 12.5 C 0 km/h
2362 09-09-2004 09:49:54 13.2 C 8.61 g/m*3 13.2 C 0 km/h
2363 09-09-2004 10:01:54 13.8 C 8.7 g/m*3 13.8 C 0 km/h
2364 09-09-2004 10:13:54 14.7 C 8.56 g/m*3 14.7 C 0 km/h
2365 09-09-2004 10:25:54 15.4 C 8.54 g/m*3 15.4 C 0 km/h
2366 09-09-2004 10:37:54 16.1 C 8.36 g/m*3 16.1 C 0 km/h
2367 09-09-2004 10:49:54 16.8 C 8.29 g/m*3 16.8 C 0 km/h
2368 09-09-2004 11:01:53 17.5 C 8.2 g/m*3 17.5 C 0 km/h
2369 09-09-2004 11:13:53 18 C 8.6 g/m*3 18 C 0 km/h
2370 09-09-2004 11:25:53 18.7 C 8.81 g/m*3 18.7 C 0 km/h
2371 09-09-2004 11:37:53 19.1 C 8.03 g/m*3 19.1 C 0 km/h
2372 09-09-2004 11:49:53 19.7 C 8.15 g/m*3 19.7 C 0 km/h
2373 09-09-2004 12:01:53 20.2 C 7.69 g/m*3 20.2 C 0 km/h
2374 09-09-2004 12:13:53 20.7 C 7.38 g/m*3 20.7 C 0 km/h
2375 09-09-2004 12:25:53 21.2 C 6.67 g/m*3 21.2 C 0 km/h
Sensor: Nr:Datum:Temp:Abs-Feuchte:Windchill:Wind:
Aussen-T/F 2376 09-09-2004 12:37:53 21.4 C 6.94 g/m*3 21.4 C 0 km/h
2377 09-09-2004 12:49:53 21.6 C 6.45 g/m*3 21.6 C 0 km/h
2378 09-09-2004 13:01:53 21.9 C 6.37 g/m*3 21.9 C 0 km/h
2379 09-09-2004 13:13:53 22.4 C 6.55 g/m*3 22.4 C 0 km/h
2380 09-09-2004 13:25:53 22.7 C 6.26 g/m*3 22.7 C 0 km/h
2381 09-09-2004 13:37:54 23.1 C 6.41 g/m*3 23.1 C 0 km/h
2382 09-09-2004 13:49:53 23.6 C 6.38 g/m*3 23.6 C 0 km/h
2383 09-09-2004 14:01:53 24 C 5.87 g/m*3 24 C 0 km/h
2384 09-09-2004 14:13:53 24.3 C 6.42 g/m*3 24.3 C 0 km/h
2385 09-09-2004 14:25:53 25 C 5.99 g/m*3 25 C 0 km/h
2386 09-09-2004 14:37:53 25.6 C 6.43 g/m*3 25.6 C 0 km/h
2387 09-09-2004 14:49:53 25.9 C 6.29 g/m*3 25.9 C 0 km/h
2388 09-09-2004 15:01:53 26.6 C 6.29 g/m*3 26.6 C 0 km/h
2389 09-09-2004 15:13:53 27.1 C 6.73 g/m*3 27.1 C 0 km/h
2390 09-09-2004 15:25:53 27.7 C 6.42 g/m*3 27.7 C 0 km/h
2391 09-09-2004 15:37:53 28.4 C 6.67 g/m*3 28.4 C 0 km/h
2392 09-09-2004 15:49:53 28.5 C 6.43 g/m*3 28.5 C 0 km/h
2393 09-09-2004 16:01:53 28.5 C 6.15 g/m*3 28.5 C 0 km/h
2394 09-09-2004 16:13:53 28.8 C 7.1 g/m*3 28.8 C 0 km/h
2395 09-09-2004 16:25:53 29 C 6.03 g/m*3 29 C 0 km/h
2396 09-09-2004 16:37:52 29.2 C 6.1 g/m*3 29.2 C 0 km/h
2397 09-09-2004 16:49:52 29.4 C 6.16 g/m*3 29.4 C 0 km/h
2398 09-09-2004 17:01:52 29.7 C 6.56 g/m*3 29.7 C 0 km/h
2399 09-09-2004 17:13:52 29.4 C 6.16 g/m*3 29.4 C 0 km/h
2400 09-09-2004 17:25:52 30.1 C 6.4 g/m*3 30.1 C 0 km/h
Sensor: Nr:Datum:Temp:Abs-Feuchte:Windchill:Wind:
Aussen-T/F 2401 09-09-2004 17:37:53 29.8 C 6 g/m*3 29.8 C 0 km/h
2402 09-09-2004 17:49:53 29.8 C 6 g/m*3 29.8 C 0 km/h
2403 09-09-2004 18:01:53 30 C 6.06 g/m*3 30 C 0 km/h
2404 09-09-2004 18:13:53 29.3 C 5.84 g/m*3 29.3 C 0 km/h
2405 09-09-2004 18:25:53 28.2 C 5.5 g/m*3 28.2 C 0 km/h
2406 09-09-2004 18:37:53 27.9 C 5.95 g/m*3 27.9 C 0 km/h
2407 09-09-2004 18:49:53 27.9 C 7.3 g/m*3 27.9 C 0 km/h
2408 09-09-2004 19:01:53 27 C 7.46 g/m*3 27 C 0 km/h
2409 09-09-2004 19:13:53 26.3 C 6.93 g/m*3 26.3 C 0 km/h
2410 09-09-2004 19:25:52 25.3 C 7.26 g/m*3 25.3 C 0 km/h
2411 09-09-2004 19:37:52 23.9 C 7.57 g/m*3 23.9 C 0 km/h
2412 09-09-2004 19:49:52 22.2 C 7.66 g/m*3 22.2 C 0 km/h
2413 09-09-2004 20:01:52 20.8 C 7.24 g/m*3 20.8 C 0 km/h
2414 09-09-2004 20:13:52 19.8 C 7.17 g/m*3 19.8 C 0 km/h
2415 09-09-2004 20:25:52 19.3 C 7.13 g/m*3 19.3 C 0 km/h
2416 09-09-2004 20:37:52 19 C 7.17 g/m*3 19 C 0 km/h
2417 09-09-2004 20:49:52 18.8 C 7.25 g/m*3 18.8 C 0 km/h
2418 09-09-2004 21:01:52 18.6 C 7 g/m*3 18.6 C 0 km/h
2419 09-09-2004 21:13:52 18.4 C 6.76 g/m*3 18.4 C 0 km/h
2420 09-09-2004 21:25:53 18.2 C 6.84 g/m*3 18.2 C 0 km/h
2421 09-09-2004 21:37:53 17.9 C 6.72 g/m*3 17.9 C 0 km/h
2422 09-09-2004 21:49:53 17.6 C 6.75 g/m*3 17.6 C 0 km/h
2423 09-09-2004 22:01:52 17.4 C 6.67 g/m*3 17.4 C 0 km/h
2424 09-09-2004 22:13:52 17.2 C 6.74 g/m*3 17.2 C 0 km/h
2425 09-09-2004 22:25:52 16.9 C 6.76 g/m*3 16.9 C 0 km/h
Sensor: Nr:Datum:Temp:Abs-Feuchte:Windchill:Wind:
Aussen-T/F 2426 09-09-2004 22:37:52 16.7 C 6.68 g/m*3 16.7 C 0 km/h
2427 09-09-2004 22:49:52 16.2 C 6.62 g/m*3 16.2 C 0 km/h
2428 09-09-2004 23:01:52 15.9 C 6.77 g/m*3 15.9 C 0 km/h
2429 09-09-2004 23:13:52 15.8 C 6.87 g/m*3 15.8 C 0 km/h
2430 09-09-2004 23:25:52 15.6 C 6.65 g/m*3 15.6 C 0 km/h
2431 09-09-2004 23:37:52 15.3 C 6.66 g/m*3 15.3 C 0 km/h
2432 09-09-2004 23:49:52 15.2 C 6.88 g/m*3 15.2 C 0 km/h
2433 10-09-2004 00:01:52 14.9 C 6.75 g/m*3 14.9 C 0 km/h
2434 10-09-2004 00:13:52 14.6 C 6.63 g/m*3 14.6 C 0 km/h
2435 10-09-2004 00:25:53 14.4 C 6.43 g/m*3 14.4 C 0 km/h
2436 10-09-2004 00:37:52 14.4 C 6.43 g/m*3 14.4 C 0 km/h
2437 10-09-2004 00:49:52 14.2 C 6.35 g/m*3 14.2 C 0 km/h
2438 10-09-2004 01:01:52 14.1 C 6.19 g/m*3 14.1 C 0 km/h
2439 10-09-2004 01:13:52 13.8 C 6.55 g/m*3 13.8 C 0 km/h
2440 10-09-2004 01:25:51 13.6 C 6.47 g/m*3 13.6 C 0 km/h
2441 10-09-2004 01:37:51 13.2 C 6.43 g/m*3 13.2 C 0 km/h
2442 10-09-2004 01:49:52 13.2 C 6.2 g/m*3 13.2 C 0 km/h
2443 10-09-2004 02:01:52 13 C 6.35 g/m*3 13 C 0 km/h
2444 10-09-2004 02:13:52 12.8 C 6.38 g/m*3 12.8 C 0 km/h
2445 10-09-2004 02:25:52 12.5 C 6.38 g/m*3 12.5 C 0 km/h
2446 10-09-2004 02:37:52 12.3 C 6.3 g/m*3 12.3 C 0 km/h
2447 10-09-2004 02:50:53 12.1 C 6.65 g/m*3 12.1 C 0 km/h
2448 10-09-2004 03:02:53 12.1 C 6.54 g/m*3 12.1 C 0 km/h
2449 10-09-2004 03:14:53 11.7 C 6.38 g/m*3 11.7 C 0 km/h
2450 10-09-2004 03:26:53 11.4 C 6.26 g/m*3 11.4 C 0 km/h
Sensor: Nr:Datum:Temp:Abs-Feuchte:Windchill:Wind:
Aussen-T/F 2451 10-09-2004 03:38:53 11.2 C 6.28 g/m*3 11.2 C 0 km/h
2452 10-09-2004 03:50:53 11.2 C 6.39 g/m*3 11.2 C 0 km/h
2453 10-09-2004 04:02:53 11.1 C 6.45 g/m*3 11.1 C 0 km/h
2454 10-09-2004 04:14:53 10.9 C 6.56 g/m*3 10.9 C 0 km/h
2455 10-09-2004 04:26:53 10.7 C 6.68 g/m*3 10.7 C 0 km/h
2456 10-09-2004 04:38:53 10.6 C 6.54 g/m*3 10.6 C 0 km/h
2457 10-09-2004 04:50:53 10.3 C 6.7 g/m*3 10.3 C 0 km/h
2458 10-09-2004 05:02:53 10.2 C 6.76 g/m*3 10.2 C 0 km/h
2459 10-09-2004 05:14:53 10 C 6.86 g/m*3 10 C 0 km/h
2460 10-09-2004 05:26:53 9.7 C 6.82 g/m*3 9.7 C 0 km/h
2461 10-09-2004 05:38:53 9.5 C 6.83 g/m*3 9.5 C 0 km/h
2462 10-09-2004 05:50:53 9.4 C 6.96 g/m*3 9.4 C 0 km/h
2463 10-09-2004 06:02:53 9.2 C 6.61 g/m*3 9.2 C 0 km/h
2464 10-09-2004 06:14:53 9.1 C 6.92 g/m*3 9.1 C 0 km/h
2465 10-09-2004 06:26:53 8.9 C 7.1 g/m*3 8.9 C 0 km/h
2466 10-09-2004 06:38:53 8.9 C 6.83 g/m*3 8.9 C 0 km/h
2467 10-09-2004 06:50:53 8.8 C 6.61 g/m*3 8.8 C 0 km/h
2468 10-09-2004 07:02:52 8.7 C 7.01 g/m*3 8.7 C 0 km/h
2469 10-09-2004 07:14:53 8.6 C 6.79 g/m*3 8.6 C 0 km/h
2470 10-09-2004 07:26:53 8.6 C 6.7 g/m*3 8.6 C 0 km/h
2471 10-09-2004 07:38:53 8.9 C 6.83 g/m*3 8.9 C 0 km/h
2472 10-09-2004 07:50:53 8.7 C 6.66 g/m*3 8.7 C 0 km/h
2473 10-09-2004 08:02:53 8.8 C 6.79 g/m*3 8.8 C 0 km/h
2474 10-09-2004 08:14:53 8.8 C 6.88 g/m*3 8.8 C 0 km/h
2475 10-09-2004 08:26:53 9 C 6.96 g/m*3 9 C 0 km/h
Sensor: Nr:Datum:Temp:Abs-Feuchte:Windchill:Wind:
Aussen-T/F 2476 10-09-2004 08:38:53 9.3 C 7.01 g/m*3 9.3 C 0 km/h
2477 10-09-2004 08:50:53 9.5 C 7.1 g/m*3 9.5 C 0 km/h
2478 10-09-2004 09:02:53 9.9 C 7.19 g/m*3 9.9 C 0 km/h
2479 10-09-2004 09:14:52 10.2 C 7.23 g/m*3 10.2 C 0 km/h
2480 10-09-2004 09:26:52 10.6 C 7.32 g/m*3 10.6 C 0 km/h
2481 10-09-2004 09:38:52 11.3 C 7.34 g/m*3 11.3 C 0 km/h
2482 10-09-2004 09:50:52 12 C 7.35 g/m*3 12 C 0 km/h
2483 10-09-2004 10:02:52 12.9 C 7.44 g/m*3 12.9 C 0 km/h
2484 10-09-2004 10:14:52 13.6 C 7.65 g/m*3 13.6 C 0 km/h
2485 10-09-2004 10:26:52 14.1 C 7.52 g/m*3 14.1 C 0 km/h
2486 10-09-2004 10:38:52 15 C 7.69 g/m*3 15 C 0 km/h
2487 10-09-2004 10:50:52 16.2 C 7.03 g/m*3 16.2 C 0 km/h
2488 10-09-2004 11:02:52 17 C 6.51 g/m*3 17 C 0 km/h
2489 10-09-2004 11:14:52 17.8 C 6.68 g/m*3 17.8 C 0 km/h
2490 10-09-2004 11:26:52 18.3 C 6.1 g/m*3 18.3 C 0 km/h
2491 10-09-2004 11:38:53 19 C 6.52 g/m*3 19 C 0 km/h
2492 10-09-2004 11:50:53 19.5 C 6.55 g/m*3 19.5 C 0 km/h
2493 10-09-2004 12:02:53 20.2 C 6.29 g/m*3 20.2 C 0 km/h
2494 10-09-2004 12:14:52 20.6 C 6.44 g/m*3 20.6 C 0 km/h
2495 10-09-2004 12:26:52 21 C 6.41 g/m*3 21 C 0 km/h
2496 10-09-2004 12:38:52 21.6 C 6.64 g/m*3 21.6 C 0 km/h
2497 10-09-2004 12:50:52 21.8 C 6.72 g/m*3 21.8 C 0 km/h
2498 10-09-2004 13:02:52 22.2 C 6.87 g/m*3 22.2 C 0 km/h
2499 10-09-2004 13:14:52 22.7 C 7.27 g/m*3 22.7 C 0 km/h
2500 10-09-2004 13:26:52 23.2 C 6.65 g/m*3 23.2 C 0 km/h
Sensor: Nr:Datum:Temp:Abs-Feuchte:Windchill:Wind:
Aussen-T/F 2501 10-09-2004 13:38:52 23.6 C 6.81 g/m*3 23.6 C 0 km/h
2502 10-09-2004 13:50:52 24.3 C 6.86 g/m*3 24.3 C 0 km/h
2503 10-09-2004 14:02:52 24.5 C 6.71 g/m*3 24.5 C 0 km/h
2504 10-09-2004 14:14:52 25 C 6.91 g/m*3 25 C 0 km/h
2505 10-09-2004 14:26:52 24.9 C 6.87 g/m*3 24.9 C 0 km/h
2506 10-09-2004 14:38:52 25.3 C 7.02 g/m*3 25.3 C 0 km/h
2507 10-09-2004 14:50:52 25.7 C 6.7 g/m*3 25.7 C 0 km/h
2508 10-09-2004 15:02:52 26.4 C 7.47 g/m*3 26.4 C 0 km/h
2509 10-09-2004 15:14:52 27.2 C 7.81 g/m*3 27.2 C 0 km/h
2510 10-09-2004 15:26:52 27.2 C 7.29 g/m*3 27.2 C 0 km/h
2511 10-09-2004 15:38:52 26.1 C 8.32 g/m*3 26.1 C 0 km/h
2512 10-09-2004 15:50:52 27 C 7.98 g/m*3 27 C 0 km/h
2513 10-09-2004 16:02:52 28.5 C 8.38 g/m*3 28.5 C 0 km/h
2514 10-09-2004 16:14:52 29.2 C 7.84 g/m*3 29.2 C 0 km/h
2515 10-09-2004 16:26:52 29.5 C 7.67 g/m*3 29.5 C 0 km/h
2516 10-09-2004 16:38:52 29.9 C 8.14 g/m*3 29.9 C 0 km/h
2517 10-09-2004 16:50:52 29.3 C 7.88 g/m*3 29.3 C 0 km/h
2518 10-09-2004 17:02:52 28.8 C 7.96 g/m*3 28.8 C 0 km/h
2519 10-09-2004 17:14:52 28.8 C 8.81 g/m*3 28.8 C 0 km/h
2520 10-09-2004 17:26:52 30.1 C 8.54 g/m*3 30.1 C 0 km/h
2521 10-09-2004 17:38:52 29.8 C 9.6 g/m*3 29.8 C 0 km/h
2522 10-09-2004 17:50:51 29.8 C 9.9 g/m*3 29.8 C 0 km/h
2523 10-09-2004 18:02:51 28.1 C 9.84 g/m*3 28.1 C 0 km/h
2524 10-09-2004 18:14:51 26.2 C 10.09 g/m*3 26.2 C 0 km/h
2525 10-09-2004 18:26:51 25.8 C 10.11 g/m*3 25.8 C 0 km/h
Sensor: Nr:Datum:Temp:Abs-Feuchte:Windchill:Wind:
Aussen-T/F 2526 10-09-2004 18:38:51 27.1 C 10.09 g/m*3 27.1 C 0 km/h
2527 10-09-2004 18:50:51 27.3 C 10.47 g/m*3 27.3 C 0 km/h
2528 10-09-2004 19:02:52 26.7 C 10.12 g/m*3 26.7 C 0 km/h
2529 10-09-2004 19:14:52 25.6 C 10.48 g/m*3 25.6 C 0 km/h
2530 10-09-2004 19:26:52 24.5 C 10.74 g/m*3 24.5 C 0 km/h
2531 10-09-2004 19:38:52 23.3 C 10.45 g/m*3 23.3 C 0 km/h
2532 10-09-2004 19:50:52 22.6 C 10.45 g/m*3 22.6 C 0 km/h
2533 10-09-2004 20:02:52 22.2 C 10.41 g/m*3 22.2 C 0 km/h
2534 10-09-2004 20:14:51 21.8 C 10.36 g/m*3 21.8 C 0 km/h
2535 10-09-2004 20:26:51 21.7 C 10.3 g/m*3 21.7 C 0 km/h
2536 10-09-2004 20:38:51 21.6 C 10.24 g/m*3 21.6 C 0 km/h
2537 10-09-2004 20:50:51 21.6 C 10.24 g/m*3 21.6 C 0 km/h
2538 10-09-2004 21:02:51 21.3 C 10.07 g/m*3 21.3 C 0 km/h
2539 10-09-2004 21:14:51 20.9 C 10.2 g/m*3 20.9 C 0 km/h
2540 10-09-2004 21:26:51 20.8 C 10.5 g/m*3 20.8 C 0 km/h
2541 10-09-2004 21:38:51 20.5 C 10.5 g/m*3 20.5 C 0 km/h
2542 10-09-2004 21:50:51 20.3 C 10.55 g/m*3 20.3 C 0 km/h
2543 10-09-2004 22:02:51 20.3 C 10.73 g/m*3 20.3 C 0 km/h
2544 10-09-2004 22:14:51 20.4 C 10.97 g/m*3 20.4 C 0 km/h
2545 10-09-2004 22:26:51 20.3 C 10.9 g/m*3 20.3 C 0 km/h
2546 10-09-2004 22:38:51 20.2 C 11.02 g/m*3 20.2 C 0 km/h
2547 10-09-2004 22:50:51 20.3 C 11.08 g/m*3 20.3 C 0 km/h
2548 10-09-2004 23:02:50 20 C 11.06 g/m*3 20 C 0 km/h
2549 10-09-2004 23:14:51 19.7 C 11.21 g/m*3 19.7 C 0 km/h
2550 10-09-2004 23:26:51 19.6 C 11.48 g/m*3 19.6 C 0 km/h
Sensor: Nr:Datum:Temp:Abs-Feuchte:Windchill:Wind:
Aussen-T/F 2551 10-09-2004 23:38:51 19.4 C 11.51 g/m*3 19.4 C 0 km/h
2552 10-09-2004 23:50:51 19.3 C 11.61 g/m*3 19.3 C 0 km/h
2553 11-09-2004 00:02:51 19.2 C 11.54 g/m*3 19.2 C 0 km/h
2554 11-09-2004 00:14:53 19.1 C 11.47 g/m*3 19.1 C 0 km/h
2555 11-09-2004 00:26:54 19.1 C 11.8 g/m*3 19.1 C 0 km/h
2556 11-09-2004 00:38:51 19.2 C 11.71 g/m*3 19.2 C 0 km/h
2557 11-09-2004 00:50:51 19.1 C 11.64 g/m*3 19.1 C 0 km/h
2558 11-09-2004 01:02:51 18.9 C 11.66 g/m*3 18.9 C 0 km/h
2559 11-09-2004 01:14:50 18.9 C 11.83 g/m*3 18.9 C 0 km/h
2560 11-09-2004 01:26:50 18.8 C 11.76 g/m*3 18.8 C 0 km/h
2561 11-09-2004 01:38:50 18.5 C 11.71 g/m*3 18.5 C 0 km/h
2562 11-09-2004 01:50:50 18.7 C 11.85 g/m*3 18.7 C 0 km/h
2563 11-09-2004 02:02:51 18.8 C 11.92 g/m*3 18.8 C 0 km/h
2564 11-09-2004 02:14:51 18.9 C 11.99 g/m*3 18.9 C 0 km/h
2565 11-09-2004 02:26:51 18.8 C 11.92 g/m*3 18.8 C 0 km/h
2566 11-09-2004 02:38:51 18.5 C 12.02 g/m*3 18.5 C 0 km/h
2567 11-09-2004 02:51:52 18.4 C 13.21 g/m*3 18.4 C 0 km/h
2568 11-09-2004 03:03:52 18.4 C 13.53 g/m*3 18.4 C 0 km/h
2569 11-09-2004 03:15:52 18.1 C 13.75 g/m*3 18.1 C 0 km/h
2570 11-09-2004 03:27:52 18 C 13.82 g/m*3 18 C 0 km/h
2571 11-09-2004 03:39:52 17.9 C 14.05 g/m*3 17.9 C 0 km/h
2572 11-09-2004 03:51:52 17.9 C 14.05 g/m*3 17.9 C 0 km/h
2573 11-09-2004 04:03:52 17.9 C 13.89 g/m*3 17.9 C 0 km/h
2574 11-09-2004 04:15:52 17.9 C 13.89 g/m*3 17.9 C 0 km/h
2575 11-09-2004 04:27:52 17.8 C 13.96 g/m*3 17.8 C 0 km/h
Sensor: Nr:Datum:Temp:Abs-Feuchte:Windchill:Wind:
Aussen-T/F 2576 11-09-2004 04:39:52 17.5 C 13.72 g/m*3 17.5 C 0 km/h
2577 11-09-2004 04:51:52 17.3 C 13.55 g/m*3 17.3 C 0 km/h
2578 11-09-2004 05:03:52 17.2 C 13.47 g/m*3 17.2 C 0 km/h
2579 11-09-2004 05:15:52 17.1 C 13.39 g/m*3 17.1 C 0 km/h
2580 11-09-2004 05:27:52 17.2 C 13.62 g/m*3 17.2 C 0 km/h
2581 11-09-2004 05:39:52 16.9 C 13.38 g/m*3 16.9 C 0 km/h
2582 11-09-2004 05:51:52 16.8 C 13.3 g/m*3 16.8 C 0 km/h
2583 11-09-2004 06:03:52 16.9 C 13.52 g/m*3 16.9 C 0 km/h
2584 11-09-2004 06:15:52 16.9 C 13.52 g/m*3 16.9 C 0 km/h
2585 11-09-2004 06:27:52 16.8 C 13.44 g/m*3 16.8 C 0 km/h
2586 11-09-2004 06:39:52 16.8 C 13.44 g/m*3 16.8 C 0 km/h
2587 11-09-2004 06:51:51 16.7 C 13.36 g/m*3 16.7 C 0 km/h
2588 11-09-2004 07:03:51 16.6 C 13.28 g/m*3 16.6 C 0 km/h
2589 11-09-2004 07:15:51 16.9 C 13.52 g/m*3 16.9 C 0 km/h
2590 11-09-2004 07:27:51 17 C 13.6 g/m*3 17 C 0 km/h
2591 11-09-2004 07:39:51 17.1 C 13.68 g/m*3 17.1 C 0 km/h
2592 11-09-2004 07:51:52 17.1 C 13.54 g/m*3 17.1 C 0 km/h
2593 11-09-2004 08:03:52 17.1 C 13.54 g/m*3 17.1 C 0 km/h
2594 11-09-2004 08:15:01 17.5 C 13.72 g/m*3 17.5 C 0 km/h
2595 11-09-2004 08:27:01 17.9 C 13.89 g/m*3 17.9 C 0 km/h
2596 11-09-2004 08:39:01 18.7 C 13.61 g/m*3 18.7 C 0 km/h
2597 11-09-2004 08:51:01 18.9 C 13.45 g/m*3 18.9 C 0 km/h
2598 11-09-2004 09:03:01 19.1 C 13.28 g/m*3 19.1 C 0 km/h
2599 11-09-2004 09:15:01 19.1 C 13.28 g/m*3 19.1 C 0 km/h
2600 11-09-2004 09:27:01 19.4 C 13.51 g/m*3 19.4 C 0 km/h
Sensor: Nr:Datum:Temp:Abs-Feuchte:Windchill:Wind:
Aussen-T/F 2601 11-09-2004 09:39:01 19.5 C 13.43 g/m*3 19.5 C 0 km/h
2602 11-09-2004 09:51:01 19.9 C 13.57 g/m*3 19.9 C 0 km/h
2603 11-09-2004 10:03:00 20.3 C 13.72 g/m*3 20.3 C 0 km/h
2604 11-09-2004 10:15:00 20.4 C 13.44 g/m*3 20.4 C 0 km/h
2605 11-09-2004 10:27:00 20.4 C 13.27 g/m*3 20.4 C 0 km/h
2606 11-09-2004 10:39:00 20.7 C 13.14 g/m*3 20.7 C 0 km/h
2607 11-09-2004 10:51:00 20.5 C 13.17 g/m*3 20.5 C 0 km/h
2608 11-09-2004 11:03:00 20.8 C 13.04 g/m*3 20.8 C 0 km/h
2609 11-09-2004 11:15:00 21.1 C 12.9 g/m*3 21.1 C 0 km/h
2610 11-09-2004 11:27:00 21.5 C 12.82 g/m*3 21.5 C 0 km/h
2611 11-09-2004 11:39:00 21.8 C 12.85 g/m*3 21.8 C 0 km/h
2612 11-09-2004 11:51:00 21.9 C 12.54 g/m*3 21.9 C 0 km/h
2613 11-09-2004 12:03:00 22.2 C 12.57 g/m*3 22.2 C 0 km/h
2614 11-09-2004 12:15:00 22.5 C 12.38 g/m*3 22.5 C 0 km/h
2615 11-09-2004 12:27:00 22.8 C 12.6 g/m*3 22.8 C 0 km/h
2616 11-09-2004 12:39:01 23.1 C 12.2 g/m*3 23.1 C 0 km/h
2617 11-09-2004 12:51:00 23.4 C 11.99 g/m*3 23.4 C 0 km/h
2618 11-09-2004 13:03:00 23.3 C 11.5 g/m*3 23.3 C 0 km/h
2619 11-09-2004 13:15:00 23.5 C 11.63 g/m*3 23.5 C 0 km/h
2620 11-09-2004 13:27:00 23.3 C 11.29 g/m*3 23.3 C 0 km/h
2621 11-09-2004 13:39:00 23.7 C 11.34 g/m*3 23.7 C 0 km/h
2622 11-09-2004 13:51:00 24.1 C 11.16 g/m*3 24.1 C 0 km/h
2623 11-09-2004 14:03:00 24.2 C 11.22 g/m*3 24.2 C 0 km/h
2624 11-09-2004 14:15:00 24.5 C 11.19 g/m*3 24.5 C 0 km/h
2625 11-09-2004 14:27:00 24.8 C 10.47 g/m*3 24.8 C 0 km/h
Sensor: Nr:Datum:Temp:Abs-Feuchte:Windchill:Wind:
Aussen-T/F 2626 11-09-2004 14:39:00 25.2 C 10.71 g/m*3 25.2 C 0 km/h
2627 11-09-2004 14:51:00 25.2 C 10.71 g/m*3 25.2 C 0 km/h
2628 11-09-2004 15:03:00 24.5 C 10.74 g/m*3 24.5 C 0 km/h
2629 11-09-2004 15:15:59 24.4 C 10.68 g/m*3 24.4 C 0 km/h
2630 11-09-2004 15:27:59 24.8 C 10.7 g/m*3 24.8 C 0 km/h
2631 11-09-2004 15:39:59 24.3 C 10.62 g/m*3 24.3 C 0 km/h
2632 11-09-2004 15:50:59 24.6 C 11.03 g/m*3 24.6 C 0 km/h
2633 11-09-2004 16:03:00 24.1 C 10.72 g/m*3 24.1 C 0 km/h
2634 11-09-2004 16:15:00 24.3 C 10.62 g/m*3 24.3 C 0 km/h
2635 11-09-2004 16:27:00 24.7 C 10.86 g/m*3 24.7 C 0 km/h
2636 11-09-2004 16:39:00 24.6 C 10.35 g/m*3 24.6 C 0 km/h
2637 11-09-2004 16:51:00 24.6 C 10.13 g/m*3 24.6 C 0 km/h
2638 11-09-2004 17:03:00 24.7 C 10.19 g/m*3 24.7 C 0 km/h
2639 11-09-2004 17:15:00 24.1 C 10.06 g/m*3 24.1 C 0 km/h
2640 11-09-2004 17:27:00 24.1 C 10.06 g/m*3 24.1 C 0 km/h
2641 11-09-2004 17:39:00 23.9 C 9.95 g/m*3 23.9 C 0 km/h
2642 11-09-2004 17:51:59 23.7 C 10.05 g/m*3 23.7 C 0 km/h
2643 11-09-2004 18:03:59 23.5 C 10.15 g/m*3 23.5 C 0 km/h
2644 11-09-2004 18:15:59 23.8 C 10.33 g/m*3 23.8 C 0 km/h
2645 11-09-2004 18:27:59 23.6 C 10.21 g/m*3 23.6 C 0 km/h
2646 11-09-2004 18:39:00 23.8 C 9.9 g/m*3 23.8 C 0 km/h
2647 11-09-2004 18:51:59 23.9 C 10.17 g/m*3 23.9 C 0 km/h
2648 11-09-2004 19:03:59 23.7 C 10.05 g/m*3 23.7 C 0 km/h
2649 11-09-2004 19:15:00 23.2 C 11.02 g/m*3 23.2 C 0 km/h
2650 11-09-2004 19:27:00 22.3 C 11.26 g/m*3 22.3 C 0 km/h
Sensor: Nr:Datum:Temp:Abs-Feuchte:Windchill:Wind:
Aussen-T/F 2651 11-09-2004 19:39:01 21.7 C 11.64 g/m*3 21.7 C 0 km/h
2652 11-09-2004 19:51:00 21.3 C 11.74 g/m*3 21.3 C 0 km/h
2653 11-09-2004 20:03:00 20.9 C 11.29 g/m*3 20.9 C 0 km/h
2654 11-09-2004 20:15:00 20.7 C 11.34 g/m*3 20.7 C 0 km/h
2655 11-09-2004 20:27:00 20.4 C 10.97 g/m*3 20.4 C 0 km/h
2656 11-09-2004 20:39:00 20.5 C 10.85 g/m*3 20.5 C 0 km/h
2657 11-09-2004 20:51:00 20.5 C 10.85 g/m*3 20.5 C 0 km/h
2658 11-09-2004 21:03:01 20.3 C 10.9 g/m*3 20.3 C 0 km/h
2659 11-09-2004 21:15:00 20.1 C 10.95 g/m*3 20.1 C 0 km/h
2660 11-09-2004 21:27:00 20.1 C 10.95 g/m*3 20.1 C 0 km/h
2661 11-09-2004 21:39:59 20.1 C 10.95 g/m*3 20.1 C 0 km/h
2662 11-09-2004 21:51:59 20.3 C 10.9 g/m*3 20.3 C 0 km/h
2663 11-09-2004 22:03:59 20.4 C 11.14 g/m*3 20.4 C 0 km/h
2664 11-09-2004 22:15:59 20 C 11.23 g/m*3 20 C 0 km/h
2665 11-09-2004 22:27:59 19.8 C 11.44 g/m*3 19.8 C 0 km/h
2666 11-09-2004 22:39:59 19.7 C 11.38 g/m*3 19.7 C 0 km/h
2667 11-09-2004 22:51:59 19.8 C 11.44 g/m*3 19.8 C 0 km/h
2668 11-09-2004 23:03:59 19.7 C 11.55 g/m*3 19.7 C 0 km/h
2669 11-09-2004 23:15:59 19.6 C 11.65 g/m*3 19.6 C 0 km/h
2670 11-09-2004 23:27:59 19.5 C 11.58 g/m*3 19.5 C 0 km/h
2671 11-09-2004 23:39:59 19.5 C 11.75 g/m*3 19.5 C 0 km/h
2672 11-09-2004 23:51:59 19.5 C 11.58 g/m*3 19.5 C 0 km/h
2673 12-09-2004 00:03:59 19.8 C 11.44 g/m*3 19.8 C 0 km/h
2674 12-09-2004 00:15:59 20.2 C 10.84 g/m*3 20.2 C 0 km/h
2675 12-09-2004 00:27:59 20.1 C 11.13 g/m*3 20.1 C 0 km/h
Sensor: Nr:Datum:Temp:Abs-Feuchte:Windchill:Wind:
Aussen-T/F 2676 12-09-2004 00:39:59 20 C 11.06 g/m*3 20 C 0 km/h
2677 12-09-2004 00:51:59 19.8 C 11.27 g/m*3 19.8 C 0 km/h
2678 12-09-2004 01:03:59 19.7 C 11.55 g/m*3 19.7 C 0 km/h
2679 12-09-2004 01:15:59 19.2 C 11.87 g/m*3 19.2 C 0 km/h
2680 12-09-2004 01:28:00 19 C 11.9 g/m*3 19 C 0 km/h
2681 12-09-2004 01:39:59 18.9 C 11.99 g/m*3 18.9 C 0 km/h
2682 12-09-2004 01:51:59 18.9 C 11.99 g/m*3 18.9 C 0 km/h
2683 12-09-2004 02:03:59 18.8 C 11.92 g/m*3 18.8 C 0 km/h
2684 12-09-2004 02:15:58 18.8 C 11.92 g/m*3 18.8 C 0 km/h
2685 12-09-2004 02:27:58 18.8 C 12.08 g/m*3 18.8 C 0 km/h
2686 12-09-2004 02:39:58 18.7 C 11.85 g/m*3 18.7 C 0 km/h
2687 12-09-2004 02:52:00 18.9 C 11.99 g/m*3 18.9 C 0 km/h
2688 12-09-2004 03:04:00 18.9 C 11.83 g/m*3 18.9 C 0 km/h
2689 12-09-2004 03:16:00 18.2 C 12.12 g/m*3 18.2 C 0 km/h
2690 12-09-2004 03:28:00 17.9 C 12.52 g/m*3 17.9 C 0 km/h
2691 12-09-2004 03:40:00 17.9 C 12.37 g/m*3 17.9 C 0 km/h
2692 12-09-2004 03:52:01 17.3 C 12.37 g/m*3 17.3 C 0 km/h
2693 12-09-2004 04:04:00 16.9 C 12.51 g/m*3 16.9 C 0 km/h
2694 12-09-2004 04:16:00 16.8 C 12.44 g/m*3 16.8 C 0 km/h
2695 12-09-2004 04:28:00 17 C 12.44 g/m*3 17 C 0 km/h
2696 12-09-2004 04:40:00 17 C 12.59 g/m*3 17 C 0 km/h
2697 12-09-2004 04:52:59 17 C 12.44 g/m*3 17 C 0 km/h
2698 12-09-2004 05:04:59 16.9 C 11.79 g/m*3 16.9 C 0 km/h
2699 12-09-2004 05:15:59 16.6 C 11.16 g/m*3 16.6 C 0 km/h
2700 12-09-2004 05:27:59 16 C 10.49 g/m*3 16 C 0 km/h
Sensor: Nr:Datum:Temp:Abs-Feuchte:Windchill:Wind:
Aussen-T/F 2701 12-09-2004 05:40:00 15.9 C 10.83 g/m*3 15.9 C 0 km/h
2702 12-09-2004 05:52:00 15.6 C 10.51 g/m*3 15.6 C 0 km/h
2703 12-09-2004 06:04:00 15.2 C 10.38 g/m*3 15.2 C 0 km/h
2704 12-09-2004 06:16:00 14.8 C 10.39 g/m*3 14.8 C 0 km/h
2705 12-09-2004 06:28:01 14.6 C 10.39 g/m*3 14.6 C 0 km/h
2706 12-09-2004 06:40:00 14.5 C 10.45 g/m*3 14.5 C 0 km/h
2707 12-09-2004 06:52:00 14.3 C 10.44 g/m*3 14.3 C 0 km/h
2708 12-09-2004 07:04:00 14.1 C 10.44 g/m*3 14.1 C 0 km/h
2709 12-09-2004 07:16:59 13.9 C 10.55 g/m*3 13.9 C 0 km/h
2710 12-09-2004 07:28:59 14 C 10.61 g/m*3 14 C 0 km/h
2711 12-09-2004 07:40:59 14 C 10.61 g/m*3 14 C 0 km/h
2712 12-09-2004 07:52:59 14.1 C 10.68 g/m*3 14.1 C 0 km/h
2713 12-09-2004 08:04:59 14.1 C 10.56 g/m*3 14.1 C 0 km/h
2714 12-09-2004 08:16:00 14.2 C 10.5 g/m*3 14.2 C 0 km/h
2715 12-09-2004 08:28:00 14.3 C 10.32 g/m*3 14.3 C 0 km/h
2716 12-09-2004 08:40:59 14.7 C 10.58 g/m*3 14.7 C 0 km/h
2717 12-09-2004 08:51:59 14.7 C 10.45 g/m*3 14.7 C 0 km/h
2718 12-09-2004 09:04:00 14.8 C 10.26 g/m*3 14.8 C 0 km/h
2719 12-09-2004 09:16:00 15.4 C 9.99 g/m*3 15.4 C 0 km/h
2720 12-09-2004 09:28:00 15.7 C 9.9 g/m*3 15.7 C 0 km/h
2721 12-09-2004 09:40:00 15.8 C 9.69 g/m*3 15.8 C 0 km/h
2722 12-09-2004 09:52:00 15.5 C 9.78 g/m*3 15.5 C 0 km/h
2723 12-09-2004 10:04:59 15.6 C 9.71 g/m*3 15.6 C 0 km/h
2724 12-09-2004 10:16:59 16.3 C 9.71 g/m*3 16.3 C 0 km/h
2725 12-09-2004 10:28:59 16.6 C 8.05 g/m*3 16.6 C 0 km/h
Sensor: Nr:Datum:Temp:Abs-Feuchte:Windchill:Wind:
Aussen-T/F 2726 12-09-2004 10:40:59 16.5 C 7.3 g/m*3 16.5 C 0 km/h
2727 12-09-2004 10:52:59 16 C 7.36 g/m*3 16 C 0 km/h
2728 12-09-2004 11:04:59 16.8 C 7.72 g/m*3 16.8 C 0 km/h
2729 12-09-2004 11:16:01 16.5 C 7.16 g/m*3 16.5 C 0 km/h
2730 12-09-2004 11:28:01 17.2 C 6.88 g/m*3 17.2 C 0 km/h
2731 12-09-2004 11:40:01 16.8 C 7.01 g/m*3 16.8 C 0 km/h
2732 12-09-2004 11:52:01 18 C 7.07 g/m*3 18 C 0 km/h
2733 12-09-2004 12:04:01 17.9 C 6.87 g/m*3 17.9 C 0 km/h
2734 12-09-2004 12:16:01 17.4 C 6.82 g/m*3 17.4 C 0 km/h
2735 12-09-2004 12:28:01 17.7 C 6.94 g/m*3 17.7 C 0 km/h
2736 12-09-2004 12:40:00 18 C 6.76 g/m*3 18 C 0 km/h
2737 12-09-2004 12:52:00 18.3 C 6.41 g/m*3 18.3 C 0 km/h
2738 12-09-2004 13:04:00 17.9 C 6.57 g/m*3 17.9 C 0 km/h
2739 12-09-2004 13:16:00 18.3 C 6.88 g/m*3 18.3 C 0 km/h
2740 12-09-2004 13:28:00 18.7 C 6.56 g/m*3 18.7 C 0 km/h
2741 12-09-2004 13:40:00 18.9 C 6.8 g/m*3 18.9 C 0 km/h
2742 12-09-2004 13:52:00 18.9 C 6.64 g/m*3 18.9 C 0 km/h
2743 12-09-2004 14:04:01 18.4 C 6.61 g/m*3 18.4 C 0 km/h
2744 12-09-2004 14:16:01 19.2 C 6.27 g/m*3 19.2 C 0 km/h
2745 12-09-2004 14:28:01 19 C 6.03 g/m*3 19 C 0 km/h
2746 12-09-2004 14:40:01 20.4 C 6.19 g/m*3 20.4 C 0 km/h
2747 12-09-2004 14:52:00 21 C 5.86 g/m*3 21 C 0 km/h
2748 12-09-2004 15:04:00 21.2 C 6.12 g/m*3 21.2 C 0 km/h
2749 12-09-2004 15:16:00 20.8 C 6.16 g/m*3 20.8 C 0 km/h
2750 12-09-2004 15:28:00 20.5 C 6.23 g/m*3 20.5 C 0 km/h
Sensor: Nr:Datum:Temp:Abs-Feuchte:Windchill:Wind:
Aussen-T/F 2751 12-09-2004 15:40:01 20.7 C 5.58 g/m*3 20.7 C 0 km/h
2752 12-09-2004 15:52:01 19.7 C 6.11 g/m*3 19.7 C 0 km/h
2753 12-09-2004 16:04:01 19.7 C 6.11 g/m*3 19.7 C 0 km/h
2754 12-09-2004 16:16:01 19.4 C 6.17 g/m*3 19.4 C 0 km/h
2755 12-09-2004 16:28:01 18.8 C 6.44 g/m*3 18.8 C 0 km/h
2756 12-09-2004 16:40:00 18.2 C 6.37 g/m*3 18.2 C 0 km/h
2757 12-09-2004 16:52:00 18 C 6.45 g/m*3 18 C 0 km/h
2758 12-09-2004 17:04:00 18.9 C 7.13 g/m*3 18.9 C 0 km/h
2759 12-09-2004 17:16:00 19.8 C 6.49 g/m*3 19.8 C 0 km/h
2760 12-09-2004 17:28:00 20 C 6.57 g/m*3 20 C 0 km/h
2761 12-09-2004 17:40:00 19.7 C 6.45 g/m*3 19.7 C 0 km/h
2762 12-09-2004 17:52:00 19.9 C 6.7 g/m*3 19.9 C 0 km/h
2763 12-09-2004 18:04:00 19.1 C 6.72 g/m*3 19.1 C 0 km/h
2764 12-09-2004 18:16:00 18.7 C 6.56 g/m*3 18.7 C 0 km/h
2765 12-09-2004 18:28:00 18.4 C 6.76 g/m*3 18.4 C 0 km/h
2766 12-09-2004 18:40:00 18.3 C 7.04 g/m*3 18.3 C 0 km/h
2767 12-09-2004 18:52:00 18.9 C 7.29 g/m*3 18.9 C 0 km/h
2768 12-09-2004 19:04:59 19.2 C 7.42 g/m*3 19.2 C 0 km/h
2769 12-09-2004 19:16:00 18.2 C 7.15 g/m*3 18.2 C 0 km/h
2770 12-09-2004 19:28:00 17.5 C 7.16 g/m*3 17.5 C 0 km/h
2771 12-09-2004 19:40:00 17 C 7.23 g/m*3 17 C 0 km/h
2772 12-09-2004 19:52:00 16.6 C 7.35 g/m*3 16.6 C 0 km/h
2773 12-09-2004 20:04:00 16.3 C 7.49 g/m*3 16.3 C 0 km/h
2774 12-09-2004 20:16:00 15.8 C 7.81 g/m*3 15.8 C 0 km/h
2775 12-09-2004 20:28:00 15.5 C 7.8 g/m*3 15.5 C 0 km/h
Sensor: Nr:Datum:Temp:Abs-Feuchte:Windchill:Wind:
Aussen-T/F 2776 12-09-2004 20:40:00 15.2 C 7.79 g/m*3 15.2 C 0 km/h
2777 12-09-2004 20:52:00 15.1 C 8 g/m*3 15.1 C 0 km/h
2778 12-09-2004 21:04:00 15.1 C 8 g/m*3 15.1 C 0 km/h
2779 12-09-2004 21:16:00 15 C 8.08 g/m*3 15 C 0 km/h
2780 12-09-2004 21:28:00 14.8 C 8.23 g/m*3 14.8 C 0 km/h
2781 12-09-2004 21:40:00 14.8 C 8.23 g/m*3 14.8 C 0 km/h
2782 12-09-2004 21:52:59 14.8 C 8.36 g/m*3 14.8 C 0 km/h
2783 12-09-2004 22:04:59 14.5 C 8.33 g/m*3 14.5 C 0 km/h
2784 12-09-2004 22:16:59 14.4 C 8.41 g/m*3 14.4 C 0 km/h
2785 12-09-2004 22:28:59 14.5 C 8.46 g/m*3 14.5 C 0 km/h
2786 12-09-2004 22:40:59 14.6 C 8.63 g/m*3 14.6 C 0 km/h
2787 12-09-2004 22:51:59 14.6 C 8.63 g/m*3 14.6 C 0 km/h
2788 12-09-2004 23:04:00 14.5 C 8.58 g/m*3 14.5 C 0 km/h
2789 12-09-2004 23:16:00 14.4 C 8.53 g/m*3 14.4 C 0 km/h
2790 12-09-2004 23:28:00 14.2 C 8.55 g/m*3 14.2 C 0 km/h
2791 12-09-2004 23:40:00 14 C 8.44 g/m*3 14 C 0 km/h
2792 12-09-2004 23:52:00 13.9 C 8.51 g/m*3 13.9 C 0 km/h
2793 13-09-2004 00:04:00 13.9 C 8.51 g/m*3 13.9 C 0 km/h
2794 13-09-2004 00:16:00 13.7 C 8.53 g/m*3 13.7 C 0 km/h
2795 13-09-2004 00:28:00 13.5 C 8.42 g/m*3 13.5 C 0 km/h
2796 13-09-2004 00:40:00 13.3 C 8.2 g/m*3 13.3 C 0 km/h
2797 13-09-2004 00:52:00 13.1 C 8.22 g/m*3 13.1 C 0 km/h
2798 13-09-2004 01:04:59 13 C 8.17 g/m*3 13 C 0 km/h
2799 13-09-2004 01:16:59 13 C 8.17 g/m*3 13 C 0 km/h
2800 13-09-2004 01:28:59 13.1 C 8.22 g/m*3 13.1 C 0 km/h
Sensor: Nr:Datum:Temp:Abs-Feuchte:Windchill:Wind:
Aussen-T/F 2801 13-09-2004 01:40:59 13.2 C 8.27 g/m*3 13.2 C 0 km/h
2802 13-09-2004 01:52:59 13.1 C 8.22 g/m*3 13.1 C 0 km/h
2803 13-09-2004 02:04:59 13.1 C 8.22 g/m*3 13.1 C 0 km/h
2804 13-09-2004 02:16:59 13.1 C 8.22 g/m*3 13.1 C 0 km/h
2805 13-09-2004 02:28:59 13.2 C 8.38 g/m*3 13.2 C 0 km/h
2806 13-09-2004 02:40:59 13.2 C 8.27 g/m*3 13.2 C 0 km/h
2807 13-09-2004 02:53:01 13.4 C 8.37 g/m*3 13.4 C 0 km/h
2808 13-09-2004 03:05:01 13.4 C 8.37 g/m*3 13.4 C 0 km/h
2809 13-09-2004 03:17:01 13.2 C 8.27 g/m*3 13.2 C 0 km/h
2810 13-09-2004 03:29:01 13.1 C 8.1 g/m*3 13.1 C 0 km/h
2811 13-09-2004 03:41:00 13 C 8.05 g/m*3 13 C 0 km/h
2812 13-09-2004 03:53:00 12.9 C 8.11 g/m*3 12.9 C 0 km/h
2813 13-09-2004 04:05:00 13 C 8.05 g/m*3 13 C 0 km/h
2814 13-09-2004 04:17:00 13 C 8.05 g/m*3 13 C 0 km/h
2815 13-09-2004 04:29:00 13 C 7.94 g/m*3 13 C 0 km/h
2816 13-09-2004 04:41:00 12.9 C 8.11 g/m*3 12.9 C 0 km/h
2817 13-09-2004 04:53:00 12.9 C 8 g/m*3 12.9 C 0 km/h
2818 13-09-2004 05:05:01 13 C 8.05 g/m*3 13 C 0 km/h
2819 13-09-2004 05:17:01 13 C 8.05 g/m*3 13 C 0 km/h
2820 13-09-2004 05:29:01 13 C 7.94 g/m*3 13 C 0 km/h
2821 13-09-2004 05:41:01 13.1 C 8.1 g/m*3 13.1 C 0 km/h
2822 13-09-2004 05:53:01 13.1 C 8.1 g/m*3 13.1 C 0 km/h
2823 13-09-2004 06:05:00 13.1 C 8.1 g/m*3 13.1 C 0 km/h
2824 13-09-2004 06:17:00 13.1 C 8.1 g/m*3 13.1 C 0 km/h
2825 13-09-2004 06:29:00 13.1 C 8.1 g/m*3 13.1 C 0 km/h
Sensor: Nr:Datum:Temp:Abs-Feuchte:Windchill:Wind:
Aussen-T/F 2826 13-09-2004 06:41:00 13.1 C 8.22 g/m*3 13.1 C 0 km/h
2827 13-09-2004 06:53:00 13.1 C 8.1 g/m*3 13.1 C 0 km/h
2828 13-09-2004 07:05:00 13 C 8.17 g/m*3 13 C 0 km/h
2829 13-09-2004 07:17:00 13 C 8.28 g/m*3 13 C 0 km/h
2830 13-09-2004 07:29:00 13.1 C 8.33 g/m*3 13.1 C 0 km/h
2831 13-09-2004 07:41:00 13.2 C 8.38 g/m*3 13.2 C 0 km/h
2832 13-09-2004 07:53:00 13.3 C 8.32 g/m*3 13.3 C 0 km/h
2833 13-09-2004 08:05:00 13.6 C 8.47 g/m*3 13.6 C 0 km/h
2834 13-09-2004 08:17:00 13.5 C 8.42 g/m*3 13.5 C 0 km/h
2835 13-09-2004 08:29:00 13.7 C 8.53 g/m*3 13.7 C 0 km/h
2836 13-09-2004 08:41:00 14 C 8.68 g/m*3 14 C 0 km/h
2837 13-09-2004 08:53:00 14.5 C 9.08 g/m*3 14.5 C 0 km/h
2838 13-09-2004 09:05:00 14.9 C 8.92 g/m*3 14.9 C 0 km/h
2839 13-09-2004 09:17:00 15.1 C 8.77 g/m*3 15.1 C 0 km/h
2840 13-09-2004 09:29:00 15.2 C 8.96 g/m*3 15.2 C 0 km/h
2841 13-09-2004 09:41:00 15.2 C 9.35 g/m*3 15.2 C 0 km/h
2842 13-09-2004 09:53:00 15.1 C 9.16 g/m*3 15.1 C 0 km/h
2843 13-09-2004 10:05:00 15.1 C 9.03 g/m*3 15.1 C 0 km/h
2844 13-09-2004 10:17:00 15.2 C 9.09 g/m*3 15.2 C 0 km/h
2845 13-09-2004 10:29:00 15.5 C 9.25 g/m*3 15.5 C 0 km/h
2846 13-09-2004 10:41:00 15.9 C 9.62 g/m*3 15.9 C 0 km/h
2847 13-09-2004 10:53:00 16.2 C 9.1 g/m*3 16.2 C 0 km/h
2848 13-09-2004 11:05:59 17 C 8.83 g/m*3 17 C 0 km/h
2849 13-09-2004 11:17:59 17.4 C 8.89 g/m*3 17.4 C 0 km/h
2850 13-09-2004 11:29:59 18.2 C 8.86 g/m*3 18.2 C 0 km/h
Sensor: Nr:Datum:Temp:Abs-Feuchte:Windchill:Wind:
Aussen-T/F 2851 13-09-2004 11:41:59 18.9 C 8.75 g/m*3 18.9 C 0 km/h
2852 13-09-2004 11:53:00 18.9 C 8.75 g/m*3 18.9 C 0 km/h
2853 13-09-2004 12:05:00 19.1 C 8.69 g/m*3 19.1 C 0 km/h
2854 13-09-2004 12:17:00 19.3 C 8.79 g/m*3 19.3 C 0 km/h
2855 13-09-2004 12:29:00 19.5 C 9.06 g/m*3 19.5 C 0 km/h
2856 13-09-2004 12:41:00 19.2 C 8.57 g/m*3 19.2 C 0 km/h
2857 13-09-2004 12:53:00 18.9 C 8.91 g/m*3 18.9 C 0 km/h
2858 13-09-2004 13:05:00 18.6 C 8.91 g/m*3 18.6 C 0 km/h
2859 13-09-2004 13:17:00 18.6 C 8.59 g/m*3 18.6 C 0 km/h
2860 13-09-2004 13:29:00 18.5 C 8.7 g/m*3 18.5 C 0 km/h
2861 13-09-2004 13:41:59 18.5 C 8.7 g/m*3 18.5 C 0 km/h
2862 13-09-2004 13:53:59 18.8 C 8.86 g/m*3 18.8 C 0 km/h
2863 13-09-2004 14:05:59 19.2 C 9.07 g/m*3 19.2 C 0 km/h
2864 13-09-2004 14:17:59 19.3 C 9.12 g/m*3 19.3 C 0 km/h
2865 13-09-2004 14:29:59 19.5 C 8.56 g/m*3 19.5 C 0 km/h
2866 13-09-2004 14:41:59 20.1 C 8.52 g/m*3 20.1 C 0 km/h
2867 13-09-2004 14:53:59 20.9 C 8.56 g/m*3 20.9 C 0 km/h
2868 13-09-2004 15:04:59 21.6 C 8.53 g/m*3 21.6 C 0 km/h
2869 13-09-2004 15:17:00 22.2 C 8.64 g/m*3 22.2 C 0 km/h
2870 13-09-2004 15:29:00 22.1 C 8.59 g/m*3 22.1 C 0 km/h
2871 13-09-2004 15:41:00 22.2 C 8.83 g/m*3 22.2 C 0 km/h
2872 13-09-2004 15:53:00 21.7 C 8.58 g/m*3 21.7 C 0 km/h
2873 13-09-2004 16:05:59 22.3 C 8.89 g/m*3 22.3 C 0 km/h
2874 13-09-2004 16:17:59 23 C 8.43 g/m*3 23 C 0 km/h
2875 13-09-2004 16:29:59 22.6 C 8.04 g/m*3 22.6 C 0 km/h
Sensor: Nr:Datum:Temp:Abs-Feuchte:Windchill:Wind:
Aussen-T/F 2876 13-09-2004 16:41:59 22.6 C 8.04 g/m*3 22.6 C 0 km/h
2877 13-09-2004 16:53:59 22.4 C 7.75 g/m*3 22.4 C 0 km/h
2878 13-09-2004 17:05:59 22.9 C 8.17 g/m*3 22.9 C 0 km/h
2879 13-09-2004 17:17:59 22.8 C 8.33 g/m*3 22.8 C 0 km/h
2880 13-09-2004 17:29:59 22.1 C 8.2 g/m*3 22.1 C 0 km/h
2881 13-09-2004 17:41:59 21.6 C 8.53 g/m*3 21.6 C 0 km/h
2882 13-09-2004 17:53:59 21.6 C 8.72 g/m*3 21.6 C 0 km/h
2883 13-09-2004 18:05:59 22.5 C 9.19 g/m*3 22.5 C 0 km/h
2884 13-09-2004 18:17:59 23.1 C 8.68 g/m*3 23.1 C 0 km/h
2885 13-09-2004 18:28:59 22.8 C 9.14 g/m*3 22.8 C 0 km/h
2886 13-09-2004 18:41:59 22.8 C 9.35 g/m*3 22.8 C 0 km/h
2887 13-09-2004 18:53:59 22.2 C 9.23 g/m*3 22.2 C 0 km/h
2888 13-09-2004 19:05:00 21.9 C 9.84 g/m*3 21.9 C 0 km/h
2889 13-09-2004 19:17:59 21.6 C 9.67 g/m*3 21.6 C 0 km/h
2890 13-09-2004 19:29:59 21.1 C 9.4 g/m*3 21.1 C 0 km/h
2891 13-09-2004 19:41:59 20.7 C 9.54 g/m*3 20.7 C 0 km/h
2892 13-09-2004 19:53:59 20.3 C 9.67 g/m*3 20.3 C 0 km/h
2893 13-09-2004 20:05:59 20 C 9.51 g/m*3 20 C 0 km/h
2894 13-09-2004 20:17:59 19.7 C 9.51 g/m*3 19.7 C 0 km/h
2895 13-09-2004 20:29:59 19.4 C 9.34 g/m*3 19.4 C 0 km/h
2896 13-09-2004 20:41:59 19.1 C 9.51 g/m*3 19.1 C 0 km/h
2897 13-09-2004 20:53:59 18.9 C 9.72 g/m*3 18.9 C 0 km/h
2898 13-09-2004 21:04:59 18.8 C 9.82 g/m*3 18.8 C 0 km/h
2899 13-09-2004 21:17:58 18.8 C 9.66 g/m*3 18.8 C 0 km/h
2900 13-09-2004 21:29:58 18.7 C 9.77 g/m*3 18.7 C 0 km/h
Sensor: Nr:Datum:Temp:Abs-Feuchte:Windchill:Wind:
Aussen-T/F 2901 13-09-2004 21:41:58 18.5 C 9.97 g/m*3 18.5 C 0 km/h
2902 13-09-2004 21:53:58 18.5 C 10.13 g/m*3 18.5 C 0 km/h
2903 13-09-2004 22:05:58 18.5 C 10.13 g/m*3 18.5 C 0 km/h
2904 13-09-2004 22:17:59 18.5 C 10.13 g/m*3 18.5 C 0 km/h
2905 13-09-2004 22:29:59 18.5 C 10.13 g/m*3 18.5 C 0 km/h
2906 13-09-2004 22:41:59 18.4 C 10.07 g/m*3 18.4 C 0 km/h
2907 13-09-2004 22:53:59 18.3 C 10.32 g/m*3 18.3 C 0 km/h
2908 13-09-2004 23:05:59 17.8 C 8.65 g/m*3 17.8 C 0 km/h
2909 13-09-2004 23:17:59 17.4 C 8.15 g/m*3 17.4 C 0 km/h
2910 13-09-2004 23:29:59 17.2 C 8.05 g/m*3 17.2 C 0 km/h
2911 13-09-2004 23:41:59 17.1 C 8.3 g/m*3 17.1 C 0 km/h
2912 13-09-2004 23:53:58 16.9 C 8.34 g/m*3 16.9 C 0 km/h
2913 14-09-2004 00:05:58 16.8 C 8.58 g/m*3 16.8 C 0 km/h
2914 14-09-2004 00:17:59 16.6 C 8.33 g/m*3 16.6 C 0 km/h
2915 14-09-2004 00:29:59 16.5 C 8.43 g/m*3 16.5 C 0 km/h
2916 14-09-2004 00:41:58 16.4 C 8.37 g/m*3 16.4 C 0 km/h
2917 14-09-2004 00:53:58 16.2 C 8.27 g/m*3 16.2 C 0 km/h
2918 14-09-2004 01:05:58 16.1 C 8.36 g/m*3 16.1 C 0 km/h
2919 14-09-2004 01:17:59 16.1 C 8.5 g/m*3 16.1 C 0 km/h
2920 14-09-2004 01:29:59 16.1 C 8.36 g/m*3 16.1 C 0 km/h
2921 14-09-2004 01:41:59 16.2 C 8.69 g/m*3 16.2 C 0 km/h
2922 14-09-2004 01:53:59 16.1 C 8.77 g/m*3 16.1 C 0 km/h
2923 14-09-2004 02:05:58 16 C 8.72 g/m*3 16 C 0 km/h
2924 14-09-2004 02:17:58 16 C 9.13 g/m*3 16 C 0 km/h
2925 14-09-2004 02:29:58 15.9 C 9.48 g/m*3 15.9 C 0 km/h
Sensor: Nr:Datum:Temp:Abs-Feuchte:Windchill:Wind:
Aussen-T/F 2926 14-09-2004 02:41:58 15.8 C 9.15 g/m*3 15.8 C 0 km/h
2927 14-09-2004 02:54:00 15.7 C 9.23 g/m*3 15.7 C 0 km/h
2928 14-09-2004 03:06:00 15.6 C 9.31 g/m*3 15.6 C 0 km/h
2929 14-09-2004 03:18:00 15.3 C 9.27 g/m*3 15.3 C 0 km/h
2930 14-09-2004 03:30:00 15.2 C 9.22 g/m*3 15.2 C 0 km/h
2931 14-09-2004 03:42:00 15.2 C 9.22 g/m*3 15.2 C 0 km/h
2932 14-09-2004 03:54:00 15.1 C 9.16 g/m*3 15.1 C 0 km/h
2933 14-09-2004 04:06:00 15.2 C 9.48 g/m*3 15.2 C 0 km/h
2934 14-09-2004 04:18:00 15.9 C 9.48 g/m*3 15.9 C 0 km/h
2935 14-09-2004 04:30:00 16 C 9.26 g/m*3 16 C 0 km/h
2936 14-09-2004 04:42:59 16 C 9.13 g/m*3 16 C 0 km/h
2937 14-09-2004 04:54:59 16 C 9.13 g/m*3 16 C 0 km/h
2938 14-09-2004 05:06:59 15.6 C 9.18 g/m*3 15.6 C 0 km/h
2939 14-09-2004 05:18:59 15.3 C 9.14 g/m*3 15.3 C 0 km/h
2940 14-09-2004 05:30:59 15 C 9.1 g/m*3 15 C 0 km/h
2941 14-09-2004 05:42:59 14.8 C 9.12 g/m*3 14.8 C 0 km/h
2942 14-09-2004 05:54:59 14.4 C 9.02 g/m*3 14.4 C 0 km/h
2943 14-09-2004 06:05:59 14.1 C 8.98 g/m*3 14.1 C 0 km/h
2944 14-09-2004 06:30:00 13.8 C 9.06 g/m*3 13.8 C 0 km/h
2945 14-09-2004 06:42:00 13.7 C 9 g/m*3 13.7 C 0 km/h
2946 14-09-2004 06:54:59 13.7 C 9.12 g/m*3 13.7 C 0 km/h
2947 14-09-2004 07:06:59 14 C 9.17 g/m*3 14 C 0 km/h
2948 14-09-2004 07:18:59 13.9 C 9.23 g/m*3 13.9 C 0 km/h
2949 14-09-2004 07:30:59 14 C 9.29 g/m*3 14 C 0 km/h
2950 14-09-2004 07:42:59 14 C 9.17 g/m*3 14 C 0 km/h
Sensor: Nr:Datum:Temp:Abs-Feuchte:Windchill:Wind:
Aussen-T/F 2951 14-09-2004 07:54:01 14.1 C 9.34 g/m*3 14.1 C 0 km/h
2952 14-09-2004 08:06:02 14 C 9.29 g/m*3 14 C 0 km/h
2953 14-09-2004 08:18:04 14.2 C 9.52 g/m*3 14.2 C 0 km/h
2954 14-09-2004 08:30:04 14.1 C 9.34 g/m*3 14.1 C 0 km/h
2955 14-09-2004 08:42:05 14.4 C 9.52 g/m*3 14.4 C 0 km/h
2956 14-09-2004 08:54:01 15 C 9.23 g/m*3 15 C 0 km/h
2957 14-09-2004 09:06:01 15.2 C 9.09 g/m*3 15.2 C 0 km/h
2958 14-09-2004 09:18:01 15.4 C 9.07 g/m*3 15.4 C 0 km/h
2959 14-09-2004 09:30:01 15.6 C 8.91 g/m*3 15.6 C 0 km/h
2960 14-09-2004 09:42:01 15.9 C 8.94 g/m*3 15.9 C 0 km/h
2961 14-09-2004 09:54:02 16 C 8.72 g/m*3 16 C 0 km/h
2962 14-09-2004 10:06:02 16.2 C 8.55 g/m*3 16.2 C 0 km/h
2963 14-09-2004 10:18:02 16.4 C 7.96 g/m*3 16.4 C 0 km/h
2964 14-09-2004 10:30:02 16.6 C 8.33 g/m*3 16.6 C 0 km/h
2965 14-09-2004 10:42:02 16.5 C 8.14 g/m*3 16.5 C 0 km/h
2966 14-09-2004 10:54:01 16.8 C 8.01 g/m*3 16.8 C 0 km/h
2967 14-09-2004 11:06:01 16.2 C 7.72 g/m*3 16.2 C 0 km/h
2968 14-09-2004 11:18:01 16.9 C 7.91 g/m*3 16.9 C 0 km/h
2969 14-09-2004 11:30:01 17 C 7.81 g/m*3 17 C 0 km/h
2970 14-09-2004 11:42:01 17.6 C 7.8 g/m*3 17.6 C 0 km/h
2971 14-09-2004 11:54:01 18.4 C 7.55 g/m*3 18.4 C 0 km/h
2972 14-09-2004 12:06:01 18.1 C 7.42 g/m*3 18.1 C 0 km/h
2973 14-09-2004 12:18:01 18.4 C 7.39 g/m*3 18.4 C 0 km/h
2974 14-09-2004 12:30:01 18.7 C 7.2 g/m*3 18.7 C 0 km/h
2975 14-09-2004 12:42:01 19.2 C 7.42 g/m*3 19.2 C 0 km/h
Sensor: Nr:Datum:Temp:Abs-Feuchte:Windchill:Wind:
Aussen-T/F 2976 14-09-2004 12:54:01 19.7 C 7.3 g/m*3 19.7 C 0 km/h
2977 14-09-2004 13:06:02 20.1 C 6.95 g/m*3 20.1 C 0 km/h
2978 14-09-2004 13:18:02 20.6 C 6.8 g/m*3 20.6 C 0 km/h
2979 14-09-2004 13:30:02 21.1 C 6.63 g/m*3 21.1 C 0 km/h
2980 14-09-2004 13:42:02 21.2 C 7.04 g/m*3 21.2 C 0 km/h
2981 14-09-2004 13:54:01 21.1 C 6.82 g/m*3 21.1 C 0 km/h
2982 14-09-2004 14:06:01 21.5 C 6.79 g/m*3 21.5 C 0 km/h
2983 14-09-2004 14:18:01 21.4 C 6.56 g/m*3 21.4 C 0 km/h
2984 14-09-2004 14:30:01 21.5 C 6.98 g/m*3 21.5 C 0 km/h
2985 14-09-2004 14:42:01 20.9 C 6.92 g/m*3 20.9 C 0 km/h
2986 14-09-2004 14:54:01 21.1 C 6.82 g/m*3 21.1 C 0 km/h
2987 14-09-2004 15:06:01 20.8 C 7.06 g/m*3 20.8 C 0 km/h
2988 14-09-2004 15:18:01 21.2 C 7.23 g/m*3 21.2 C 0 km/h
2989 14-09-2004 15:30:01 21.6 C 7.4 g/m*3 21.6 C 0 km/h
2990 14-09-2004 15:42:01 22.2 C 7.07 g/m*3 22.2 C 0 km/h
2991 14-09-2004 15:54:01 21.5 C 6.98 g/m*3 21.5 C 0 km/h
2992 14-09-2004 16:06:01 22 C 6.79 g/m*3 22 C 0 km/h
2993 14-09-2004 16:18:02 21.8 C 6.91 g/m*3 21.8 C 0 km/h
2994 14-09-2004 16:30:02 21.8 C 7.1 g/m*3 21.8 C 0 km/h
2995 14-09-2004 16:42:02 21.3 C 6.9 g/m*3 21.3 C 0 km/h
2996 14-09-2004 16:54:01 21 C 6.78 g/m*3 21 C 0 km/h
2997 14-09-2004 17:06:01 21.7 C 7.06 g/m*3 21.7 C 0 km/h
2998 14-09-2004 17:18:01 22 C 6.99 g/m*3 22 C 0 km/h
2999 14-09-2004 17:30:01 21.9 C 7.14 g/m*3 21.9 C 0 km/h
3000 14-09-2004 17:42:01 20.8 C 6.88 g/m*3 20.8 C 0 km/h
Sensor: Nr:Datum:Temp:Abs-Feuchte:Windchill:Wind:
Aussen-T/F 3001 14-09-2004 17:54:01 20.5 C 7.12 g/m*3 20.5 C 0 km/h
3002 14-09-2004 18:06:01 20.2 C 6.99 g/m*3 20.2 C 0 km/h
3003 14-09-2004 18:18:01 20.1 C 7.13 g/m*3 20.1 C 0 km/h
3004 14-09-2004 18:30:01 20.1 C 7.3 g/m*3 20.1 C 0 km/h
3005 14-09-2004 18:42:00 20 C 7.26 g/m*3 20 C 0 km/h
3006 14-09-2004 18:54:01 19.9 C 7.39 g/m*3 19.9 C 0 km/h
3007 14-09-2004 19:06:01 20.4 C 7.43 g/m*3 20.4 C 0 km/h
3008 14-09-2004 19:18:02 20.8 C 7.6 g/m*3 20.8 C 0 km/h
3009 14-09-2004 19:30:02 20.2 C 7.52 g/m*3 20.2 C 0 km/h
3010 14-09-2004 19:42:02 19.5 C 7.55 g/m*3 19.5 C 0 km/h
3011 14-09-2004 19:54:02 19.1 C 7.38 g/m*3 19.1 C 0 km/h
3012 14-09-2004 20:06:03 18.7 C 7.68 g/m*3 18.7 C 0 km/h
3013 14-09-2004 20:18:02 18.6 C 7.8 g/m*3 18.6 C 0 km/h
3014 14-09-2004 20:30:02 18.1 C 7.88 g/m*3 18.1 C 0 km/h
3015 14-09-2004 20:42:02 18.3 C 8.29 g/m*3 18.3 C 0 km/h
3016 14-09-2004 20:54:01 18.1 C 8.03 g/m*3 18.1 C 0 km/h
3017 14-09-2004 21:06:01 17.7 C 8.3 g/m*3 17.7 C 0 km/h
3018 14-09-2004 21:18:01 17.5 C 8.2 g/m*3 17.5 C 0 km/h
3019 14-09-2004 21:30:01 17.2 C 8.49 g/m*3 17.2 C 0 km/h
3020 14-09-2004 21:42:01 16.9 C 8.63 g/m*3 16.9 C 0 km/h
3021 14-09-2004 21:54:01 16.7 C 8.67 g/m*3 16.7 C 0 km/h
3022 14-09-2004 22:06:01 16.5 C 8.71 g/m*3 16.5 C 0 km/h
3023 14-09-2004 22:18:01 16.4 C 8.65 g/m*3 16.4 C 0 km/h
3024 14-09-2004 22:30:01 16.2 C 8.55 g/m*3 16.2 C 0 km/h
3025 14-09-2004 22:42:01 15.9 C 8.67 g/m*3 15.9 C 0 km/h
Sensor: Nr:Datum:Temp:Abs-Feuchte:Windchill:Wind:
Aussen-T/F 3026 14-09-2004 22:54:01 15.8 C 8.75 g/m*3 15.8 C 0 km/h
3027 14-09-2004 23:06:01 15.5 C 8.72 g/m*3 15.5 C 0 km/h
3028 14-09-2004 23:18:01 15.2 C 8.83 g/m*3 15.2 C 0 km/h
3029 14-09-2004 23:30:01 14.9 C 8.92 g/m*3 14.9 C 0 km/h
3030 14-09-2004 23:42:02 14.6 C 8.88 g/m*3 14.6 C 0 km/h
3031 14-09-2004 23:54:01 14.5 C 8.95 g/m*3 14.5 C 0 km/h
3032 15-09-2004 00:06:01 14.4 C 9.02 g/m*3 14.4 C 0 km/h
3033 15-09-2004 00:18:00 14.3 C 8.97 g/m*3 14.3 C 0 km/h
3034 15-09-2004 00:30:00 14.4 C 9.02 g/m*3 14.4 C 0 km/h
3035 15-09-2004 00:42:00 14 C 8.93 g/m*3 14 C 0 km/h
3036 15-09-2004 00:54:01 13.9 C 9.11 g/m*3 13.9 C 0 km/h
3037 15-09-2004 01:06:01 13.9 C 9.11 g/m*3 13.9 C 0 km/h
3038 15-09-2004 01:18:01 13.6 C 8.94 g/m*3 13.6 C 0 km/h
3039 15-09-2004 01:30:01 13.4 C 8.95 g/m*3 13.4 C 0 km/h
3040 15-09-2004 01:42:01 13.3 C 9.01 g/m*3 13.3 C 0 km/h
3041 15-09-2004 01:54:01 13.2 C 9.07 g/m*3 13.2 C 0 km/h
3042 15-09-2004 02:06:02 13 C 8.96 g/m*3 13 C 0 km/h
3043 15-09-2004 02:18:02 13.2 C 9.07 g/m*3 13.2 C 0 km/h
3044 15-09-2004 02:30:02 13.3 C 9.13 g/m*3 13.3 C 0 km/h
3045 15-09-2004 02:42:02 12.8 C 8.96 g/m*3 12.8 C 0 km/h
3046 15-09-2004 02:54:01 12.7 C 9.02 g/m*3 12.7 C 0 km/h
3047 15-09-2004 03:06:01 12.7 C 9.13 g/m*3 12.7 C 0 km/h
3048 15-09-2004 03:18:01 12.6 C 9.07 g/m*3 12.6 C 0 km/h
3049 15-09-2004 03:30:01 12.5 C 9.02 g/m*3 12.5 C 0 km/h
3050 15-09-2004 03:42:00 12.5 C 9.13 g/m*3 12.5 C 0 km/h
Sensor: Nr:Datum:Temp:Abs-Feuchte:Windchill:Wind:
Aussen-T/F 3051 15-09-2004 03:54:00 12.3 C 9.01 g/m*3 12.3 C 0 km/h
3052 15-09-2004 04:06:00 12.1 C 8.9 g/m*3 12.1 C 0 km/h
3053 15-09-2004 04:18:00 12 C 8.85 g/m*3 12 C 0 km/h
3054 15-09-2004 04:30:00 11.8 C 8.95 g/m*3 11.8 C 0 km/h
3055 15-09-2004 04:42:00 11.7 C 8.89 g/m*3 11.7 C 0 km/h
3056 15-09-2004 04:54:00 11.7 C 8.99 g/m*3 11.7 C 0 km/h
3057 15-09-2004 05:06:00 11.8 C 8.95 g/m*3 11.8 C 0 km/h
3058 15-09-2004 05:18:00 11.9 C 9 g/m*3 11.9 C 0 km/h
3059 15-09-2004 05:30:00 11.7 C 8.89 g/m*3 11.7 C 0 km/h
3060 15-09-2004 05:42:01 11.5 C 8.88 g/m*3 11.5 C 0 km/h
3061 15-09-2004 05:54:01 11.5 C 8.99 g/m*3 11.5 C 0 km/h
3062 15-09-2004 06:06:01 11.5 C 8.99 g/m*3 11.5 C 0 km/h
3063 15-09-2004 06:18:01 11.6 C 8.94 g/m*3 11.6 C 0 km/h
3064 15-09-2004 06:30:01 11.6 C 8.83 g/m*3 11.6 C 0 km/h
3065 15-09-2004 06:42:01 11.5 C 8.78 g/m*3 11.5 C 0 km/h
3066 15-09-2004 06:54:01 11.7 C 8.89 g/m*3 11.7 C 0 km/h
3067 15-09-2004 07:06:00 11.8 C 8.84 g/m*3 11.8 C 0 km/h
3068 15-09-2004 07:18:00 12 C 8.74 g/m*3 12 C 0 km/h
3069 15-09-2004 07:30:00 12.2 C 8.63 g/m*3 12.2 C 0 km/h
3070 15-09-2004 07:42:00 12.4 C 8.63 g/m*3 12.4 C 0 km/h
3071 15-09-2004 07:54:00 12.4 C 8.63 g/m*3 12.4 C 0 km/h
3072 15-09-2004 08:06:00 12.4 C 8.63 g/m*3 12.4 C 0 km/h
3073 15-09-2004 08:18:00 12.6 C 8.63 g/m*3 12.6 C 0 km/h
3074 15-09-2004 08:30:00 12.8 C 8.51 g/m*3 12.8 C 0 km/h
3075 15-09-2004 08:42:00 13 C 8.39 g/m*3 13 C 0 km/h
Sensor: Nr:Datum:Temp:Abs-Feuchte:Windchill:Wind:
Aussen-T/F 3076 15-09-2004 08:54:00 13.5 C 8.54 g/m*3 13.5 C 0 km/h
3077 15-09-2004 09:06:00 13.5 C 8.42 g/m*3 13.5 C 0 km/h
3078 15-09-2004 09:18:01 13.5 C 8.54 g/m*3 13.5 C 0 km/h
3079 15-09-2004 09:30:01 13.8 C 8.7 g/m*3 13.8 C 0 km/h
3080 15-09-2004 09:42:01 14.2 C 8.55 g/m*3 14.2 C 0 km/h
3081 15-09-2004 09:54:01 14.2 C 8.43 g/m*3 14.2 C 0 km/h
3082 15-09-2004 10:06:01 14.4 C 8.28 g/m*3 14.4 C 0 km/h
3083 15-09-2004 10:18:00 14.6 C 8.38 g/m*3 14.6 C 0 km/h
3084 15-09-2004 10:30:00 14.5 C 8.33 g/m*3 14.5 C 0 km/h
3085 15-09-2004 10:42:00 14.7 C 8.31 g/m*3 14.7 C 0 km/h
3086 15-09-2004 10:54:00 15.2 C 8.31 g/m*3 15.2 C 0 km/h
3087 15-09-2004 11:06:00 15.8 C 8.08 g/m*3 15.8 C 0 km/h
3088 15-09-2004 11:18:00 16.2 C 8.14 g/m*3 16.2 C 0 km/h
3089 15-09-2004 11:30:00 16.4 C 8.1 g/m*3 16.4 C 0 km/h
3090 15-09-2004 11:42:00 16.7 C 8.1 g/m*3 16.7 C 0 km/h
3091 15-09-2004 11:54:00 16.8 C 8.15 g/m*3 16.8 C 0 km/h
3092 15-09-2004 12:06:00 15.4 C 8.93 g/m*3 15.4 C 0 km/h
3093 15-09-2004 12:18:00 14.6 C 9.51 g/m*3 14.6 C 0 km/h
3094 15-09-2004 12:30:00 14.9 C 9.81 g/m*3 14.9 C 0 km/h
3095 15-09-2004 12:42:01 15.6 C 9.58 g/m*3 15.6 C 0 km/h
3096 15-09-2004 12:54:01 16.2 C 9.24 g/m*3 16.2 C 0 km/h
3097 15-09-2004 13:06:01 16.6 C 9.04 g/m*3 16.6 C 0 km/h
3098 15-09-2004 13:18:01 16.8 C 8.72 g/m*3 16.8 C 0 km/h
3099 15-09-2004 13:30:01 16.8 C 8.29 g/m*3 16.8 C 0 km/h
3100 15-09-2004 13:42:01 16.8 C 8.29 g/m*3 16.8 C 0 km/h
Sensor: Nr:Datum:Temp:Abs-Feuchte:Windchill:Wind:
Aussen-T/F 3101 15-09-2004 13:54:00 17 C 7.96 g/m*3 17 C 0 km/h
3102 15-09-2004 14:06:00 17.2 C 8.05 g/m*3 17.2 C 0 km/h
3103 15-09-2004 14:18:00 17.5 C 8.35 g/m*3 17.5 C 0 km/h
3104 15-09-2004 14:30:00 17.5 C 8.2 g/m*3 17.5 C 0 km/h
3105 15-09-2004 14:42:00 17.5 C 6.71 g/m*3 17.5 C 0 km/h
3106 15-09-2004 14:54:00 17 C 6.66 g/m*3 17 C 0 km/h
3107 15-09-2004 15:06:00 18 C 6.6 g/m*3 18 C 0 km/h
3108 15-09-2004 15:18:00 19.1 C 6.07 g/m*3 19.1 C 0 km/h
3109 15-09-2004 15:30:00 19.6 C 5.74 g/m*3 19.6 C 0 km/h
3110 15-09-2004 15:42:00 19.8 C 5.12 g/m*3 19.8 C 0 km/h
3111 15-09-2004 15:54:01 19.3 C 5.14 g/m*3 19.3 C 0 km/h
3112 15-09-2004 16:06:01 19.9 C 5.33 g/m*3 19.9 C 0 km/h
3113 15-09-2004 16:18:01 19.8 C 5.3 g/m*3 19.8 C 0 km/h
3114 15-09-2004 16:30:01 19.4 C 5.34 g/m*3 19.4 C 0 km/h
3115 15-09-2004 16:42:01 19.7 C 5.43 g/m*3 19.7 C 0 km/h
3116 15-09-2004 16:54:00 20.3 C 5.63 g/m*3 20.3 C 0 km/h
3117 15-09-2004 17:06:00 20 C 5.7 g/m*3 20 C 0 km/h
3118 15-09-2004 17:18:00 20.3 C 5.8 g/m*3 20.3 C 0 km/h
3119 15-09-2004 17:30:00 19.2 C 6.1 g/m*3 19.2 C 0 km/h
3120 15-09-2004 17:42:00 17.9 C 6.87 g/m*3 17.9 C 0 km/h
3121 15-09-2004 17:54:00 18.2 C 6.99 g/m*3 18.2 C 0 km/h
3122 15-09-2004 18:06:00 18.6 C 6.53 g/m*3 18.6 C 0 km/h
3123 15-09-2004 18:18:00 18.5 C 6.49 g/m*3 18.5 C 0 km/h
3124 15-09-2004 18:30:00 18.6 C 6.68 g/m*3 18.6 C 0 km/h
3125 15-09-2004 18:42:00 17.4 C 6.67 g/m*3 17.4 C 0 km/h
Sensor: Nr:Datum:Temp:Abs-Feuchte:Windchill:Wind:
Aussen-T/F 3126 15-09-2004 18:54:00 16.6 C 6.64 g/m*3 16.6 C 0 km/h
3127 15-09-2004 19:06:01 16.8 C 6.72 g/m*3 16.8 C 0 km/h
3128 15-09-2004 19:18:01 17.1 C 6.84 g/m*3 17.1 C 0 km/h
3129 15-09-2004 19:30:01 16.3 C 6.8 g/m*3 16.3 C 0 km/h
3130 15-09-2004 19:42:01 15.5 C 6.74 g/m*3 15.5 C 0 km/h
3131 15-09-2004 19:54:01 15.1 C 6.58 g/m*3 15.1 C 0 km/h
3132 15-09-2004 20:06:01 14.7 C 6.92 g/m*3 14.7 C 0 km/h
3133 15-09-2004 20:18:00 14.1 C 6.92 g/m*3 14.1 C 0 km/h
3134 15-09-2004 20:30:00 13.8 C 7.03 g/m*3 13.8 C 0 km/h
3135 15-09-2004 20:42:00 13.7 C 7.1 g/m*3 13.7 C 0 km/h
3136 15-09-2004 20:54:00 13.5 C 7.13 g/m*3 13.5 C 0 km/h
3137 15-09-2004 21:06:00 13.2 C 7.23 g/m*3 13.2 C 0 km/h
3138 15-09-2004 21:18:00 13 C 7.14 g/m*3 13 C 0 km/h
3139 15-09-2004 21:30:00 12.7 C 7.35 g/m*3 12.7 C 0 km/h
3140 15-09-2004 21:42:00 12.5 C 7.37 g/m*3 12.5 C 0 km/h
3141 15-09-2004 21:54:00 12.3 C 7.38 g/m*3 12.3 C 0 km/h
3142 15-09-2004 22:06:00 12 C 7.35 g/m*3 12 C 0 km/h
3143 15-09-2004 22:18:00 11.9 C 7.52 g/m*3 11.9 C 0 km/h
3144 15-09-2004 22:30:01 11.7 C 7.64 g/m*3 11.7 C 0 km/h
3145 15-09-2004 22:42:01 11.4 C 7.29 g/m*3 11.4 C 0 km/h
3146 15-09-2004 22:54:01 11.2 C 7.4 g/m*3 11.2 C 0 km/h
3147 15-09-2004 23:06:01 11.1 C 7.35 g/m*3 11.1 C 0 km/h
3148 15-09-2004 23:18:01 10.9 C 7.36 g/m*3 10.9 C 0 km/h
3149 15-09-2004 23:30:01 10.8 C 7.41 g/m*3 10.8 C 0 km/h
3150 15-09-2004 23:42:00 10.6 C 7.42 g/m*3 10.6 C 0 km/h
Sensor: Nr:Datum:Temp:Abs-Feuchte:Windchill:Wind:
Aussen-T/F 3151 15-09-2004 23:54:00 10.5 C 7.37 g/m*3 10.5 C 0 km/h
3152 16-09-2004 00:06:00 10.3 C 7.37 g/m*3 10.3 C 0 km/h
3153 16-09-2004 00:18:01 10.2 C 7.42 g/m*3 10.2 C 0 km/h
3154 16-09-2004 00:30:01 9.8 C 7.42 g/m*3 9.8 C 0 km/h
3155 16-09-2004 00:42:01 9.8 C 7.52 g/m*3 9.8 C 0 km/h
3156 16-09-2004 00:54:01 9.5 C 7.37 g/m*3 9.5 C 0 km/h
3157 16-09-2004 01:06:00 9.5 C 7.46 g/m*3 9.5 C 0 km/h
3158 16-09-2004 01:18:00 9.5 C 7.46 g/m*3 9.5 C 0 km/h
3159 16-09-2004 01:30:00 9.7 C 7.47 g/m*3 9.7 C 0 km/h
3160 16-09-2004 01:42:00 10 C 7.42 g/m*3 10 C 0 km/h
3161 16-09-2004 01:54:00 9.8 C 7.42 g/m*3 9.8 C 0 km/h
3162 16-09-2004 02:06:00 9.6 C 7.42 g/m*3 9.6 C 0 km/h
3163 16-09-2004 02:18:00 9.5 C 7.37 g/m*3 9.5 C 0 km/h
3164 16-09-2004 02:30:00 9.5 C 7.37 g/m*3 9.5 C 0 km/h
3165 16-09-2004 02:42:00 9.1 C 7.28 g/m*3 9.1 C 0 km/h
3166 16-09-2004 02:55:03 8.8 C 7.31 g/m*3 8.8 C 0 km/h
3167 16-09-2004 03:07:03 8.6 C 7.3 g/m*3 8.6 C 0 km/h
3168 16-09-2004 03:19:04 8.5 C 7.34 g/m*3 8.5 C 0 km/h
3169 16-09-2004 03:31:01 8.4 C 7.3 g/m*3 8.4 C 0 km/h
3170 16-09-2004 03:43:01 8.2 C 7.29 g/m*3 8.2 C 0 km/h
3171 16-09-2004 03:55:01 8.1 C 7.24 g/m*3 8.1 C 0 km/h
3172 16-09-2004 04:07:01 8 C 7.19 g/m*3 8 C 0 km/h
3173 16-09-2004 04:19:01 8 C 7.28 g/m*3 8 C 0 km/h
3174 16-09-2004 04:31:00 7.9 C 7.31 g/m*3 7.9 C 0 km/h
3175 16-09-2004 04:43:00 7.7 C 7.22 g/m*3 7.7 C 0 km/h
Sensor: Nr:Datum:Temp:Abs-Feuchte:Windchill:Wind:
Aussen-T/F 3176 16-09-2004 04:55:01 7.6 C 7.17 g/m*3 7.6 C 0 km/h
3177 16-09-2004 05:07:01 7.6 C 7.25 g/m*3 7.6 C 0 km/h
3178 16-09-2004 05:19:01 7.4 C 7.16 g/m*3 7.4 C 0 km/h
3179 16-09-2004 05:31:00 7.2 C 7.06 g/m*3 7.2 C 0 km/h
3180 16-09-2004 05:43:00 7.1 C 7.02 g/m*3 7.1 C 0 km/h
3181 16-09-2004 05:55:01 7.2 C 7.06 g/m*3 7.2 C 0 km/h
3182 16-09-2004 06:07:01 7 C 7.05 g/m*3 7 C 0 km/h
3183 16-09-2004 06:19:00 6.9 C 7.01 g/m*3 6.9 C 0 km/h
3184 16-09-2004 06:31:00 6.9 C 7.01 g/m*3 6.9 C 0 km/h
3185 16-09-2004 06:43:00 6.8 C 6.96 g/m*3 6.8 C 0 km/h
3186 16-09-2004 06:55:02 6.8 C 6.96 g/m*3 6.8 C 0 km/h
3187 16-09-2004 07:07:02 6.7 C 6.91 g/m*3 6.7 C 0 km/h
3188 16-09-2004 07:19:02 6.4 C 6.85 g/m*3 6.4 C 0 km/h
3189 16-09-2004 07:31:01 6.4 C 6.85 g/m*3 6.4 C 0 km/h
3190 16-09-2004 07:43:01 6.4 C 6.85 g/m*3 6.4 C 0 km/h
3191 16-09-2004 07:55:01 6.5 C 6.9 g/m*3 6.5 C 0 km/h
3192 16-09-2004 08:07:01 6.7 C 7.07 g/m*3 6.7 C 0 km/h
3193 16-09-2004 08:19:01 6.8 C 7.11 g/m*3 6.8 C 0 km/h
3194 16-09-2004 08:31:00 7 C 7.13 g/m*3 7 C 0 km/h
3195 16-09-2004 08:43:00 7.4 C 7.24 g/m*3 7.4 C 0 km/h
3196 16-09-2004 08:55:01 7.5 C 7.2 g/m*3 7.5 C 0 km/h
3197 16-09-2004 09:07:01 7.8 C 7.26 g/m*3 7.8 C 0 km/h
3198 16-09-2004 09:19:00 8.1 C 7.24 g/m*3 8.1 C 0 km/h
3199 16-09-2004 09:31:00 8.4 C 7.3 g/m*3 8.4 C 0 km/h
3200 16-09-2004 09:43:00 8.8 C 7.4 g/m*3 8.8 C 0 km/h
Sensor: Nr:Datum:Temp:Abs-Feuchte:Windchill:Wind:
Aussen-T/F 3201 16-09-2004 09:55:01 9.3 C 7.46 g/m*3 9.3 C 0 km/h
3202 16-09-2004 10:07:01 9.5 C 7.46 g/m*3 9.5 C 0 km/h
3203 16-09-2004 10:19:01 9.8 C 7.52 g/m*3 9.8 C 0 km/h
3204 16-09-2004 10:31:01 10.4 C 7.81 g/m*3 10.4 C 0 km/h
3205 16-09-2004 10:43:01 10.9 C 7.96 g/m*3 10.9 C 0 km/h
3206 16-09-2004 10:55:01 11.5 C 8.06 g/m*3 11.5 C 0 km/h
3207 16-09-2004 11:07:01 12.1 C 8.26 g/m*3 12.1 C 0 km/h
3208 16-09-2004 11:19:00 12.5 C 8.25 g/m*3 12.5 C 0 km/h
3209 16-09-2004 11:31:00 13.1 C 8.33 g/m*3 13.1 C 0 km/h
3210 16-09-2004 11:43:00 13.6 C 8.24 g/m*3 13.6 C 0 km/h
3211 16-09-2004 11:55:01 14.2 C 8.3 g/m*3 14.2 C 0 km/h
3212 16-09-2004 12:07:01 14.6 C 8.13 g/m*3 14.6 C 0 km/h
3213 16-09-2004 12:19:01 15 C 7.95 g/m*3 15 C 0 km/h
3214 16-09-2004 12:31:00 15.5 C 7.67 g/m*3 15.5 C 0 km/h
3215 16-09-2004 12:43:00 15.6 C 7.31 g/m*3 15.6 C 0 km/h
3216 16-09-2004 12:55:01 15.8 C 7.27 g/m*3 15.8 C 0 km/h
3217 16-09-2004 13:07:01 16.1 C 7.4 g/m*3 16.1 C 0 km/h
3218 16-09-2004 13:19:00 16.7 C 6.96 g/m*3 16.7 C 0 km/h
3219 16-09-2004 13:31:01 17.5 C 6.11 g/m*3 17.5 C 0 km/h
3220 16-09-2004 13:43:01 17.9 C 6.26 g/m*3 17.9 C 0 km/h
3221 16-09-2004 13:55:01 18.3 C 6.41 g/m*3 18.3 C 0 km/h
3222 16-09-2004 14:07:01 18.7 C 5.92 g/m*3 18.7 C